Wetterdaten: Dienstag, 05.03.2019
Datum Zeit Temp. A. Pool Temp. Temp. 5cm Feuchte A. Luftdruck Regen Wind Richtung Richtung Sonnenschein ET UV Solar Taupunkt Windchill Windben Empfang
05.03.2019 00:01 7,2 C 6,7 C 6,7 C 68 % 1006,9 hPa 0,0 l/m 20,4 km/h (4 Bft) W 281 0 min 0,000 mm 0,0 UV-I 0 W/m 1,7 C -0,5 C 33,8 km/h (5 Bft) 100,00 %
05.03.2019 00:02 7,2 C 6,7 C 6,7 C 68 % 1006,9 hPa 0,0 l/m 24,2 km/h (4 Bft) W 266 0 min 0,000 mm 0,0 UV-I 0 W/m 1,7 C -1,7 C 37,0 km/h (5 Bft) 10,00 %
05.03.2019 00:04 7,3 C 6,7 C 6,7 C 69 % 1007,0 hPa 0,0 l/m 18,3 km/h (3 Bft) W 274 0 min 0,000 mm 0,0 UV-I 0 W/m 2,0 C 0,4 C 32,2 km/h (5 Bft) 95,56 %
05.03.2019 00:06 7,2 C 6,7 C 6,7 C 69 % 1007,1 hPa 0,0 l/m 18,9 km/h (3 Bft) W-SW 253 0 min 0,000 mm 0,0 UV-I 0 W/m 1,9 C 0,1 C 30,6 km/h (5 Bft) 100,00 %
05.03.2019 00:08 7,2 C 6,7 C 6,7 C 70 % 1007,2 hPa 0,0 l/m 17,3 km/h (3 Bft) W 269 0 min 0,000 mm 0,0 UV-I 0 W/m 2,1 C 0,7 C 24,1 km/h (4 Bft) 97,87 %
05.03.2019 00:10 7,2 C 6,7 C 6,7 C 70 % 1007,2 hPa 0,0 l/m 18,8 km/h (3 Bft) W 277 0 min 0,000 mm 0,0 UV-I 0 W/m 2,1 C 0,1 C 29,0 km/h (5 Bft) 95,74 %
05.03.2019 00:12 7,1 C 6,7 C 6,1 C 71 % 1007,2 hPa 0,0 l/m 23,7 km/h (4 Bft) W-SW 252 0 min 0,000 mm 0,0 UV-I 0 W/m 2,2 C -1,7 C 43,5 km/h (6 Bft) 97,87 %
05.03.2019 00:14 6,9 C 6,7 C 5,6 C 74 % 1007,1 hPa 0,0 l/m 29,3 km/h (5 Bft) W-SW 237 0 min 0,000 mm 0,0 UV-I 0 W/m 2,6 C -3,5 C 41,8 km/h (6 Bft) 97,37 %
05.03.2019 00:16 6,8 C 6,7 C 5,0 C 75 % 1007,3 hPa 0,0 l/m 25,7 km/h (4 Bft) W 261 0 min 0,000 mm 0,0 UV-I 0 W/m 2,7 C -2,7 C 40,2 km/h (6 Bft) 97,87 %
05.03.2019 00:18 6,6 C 6,7 C 5,0 C 76 % 1007,3 hPa 0,0 l/m 27,4 km/h (4 Bft) W-SW 254 0 min 0,000 mm 0,0 UV-I 0 W/m 2,7 C -3,5 C 40,2 km/h (6 Bft) 96,00 %
05.03.2019 00:20 6,4 C 6,7 C 5,0 C 78 % 1007,4 hPa 0,0 l/m 22,0 km/h (4 Bft) W 261 0 min 0,000 mm 0,0 UV-I 0 W/m 2,8 C -2,1 C 35,4 km/h (5 Bft) 96,00 %
05.03.2019 00:22 6,3 C 6,7 C 5,0 C 78 % 1007,3 hPa 0,0 l/m 21,8 km/h (4 Bft) W 261 0 min 0,000 mm 0,0 UV-I 0 W/m 2,8 C -2,1 C 33,8 km/h (5 Bft) 95,74 %
05.03.2019 00:24 6,2 C 6,7 C 5,0 C 79 % 1007,3 hPa 0,0 l/m 19,6 km/h (3 Bft) W 271 0 min 0,000 mm 0,0 UV-I 0 W/m 2,8 C -1,5 C 30,6 km/h (5 Bft) 92,00 %
05.03.2019 00:26 6,2 C 6,7 C 5,0 C 78 % 1007,3 hPa 0,0 l/m 25,3 km/h (4 Bft) W 260 0 min 0,000 mm 0,0 UV-I 0 W/m 2,7 C -3,4 C 38,6 km/h (5 Bft) 97,37 %
05.03.2019 00:28 6,2 C 6,7 C 5,0 C 78 % 1007,3 hPa 0,0 l/m 24,1 km/h (4 Bft) W 269 0 min 0,000 mm 0,0 UV-I 0 W/m 2,7 C -3,0 C 45,1 km/h (6 Bft) 96,00 %
05.03.2019 00:30 6,3 C 6,7 C 5,0 C 77 % 1007,3 hPa 0,0 l/m 24,3 km/h (4 Bft) W 277 0 min 0,000 mm 0,0 UV-I 0 W/m 2,6 C -3,0 C 43,5 km/h (6 Bft) 97,87 %
05.03.2019 00:32 6,4 C 6,7 C 5,0 C 76 % 1007,3 hPa 0,0 l/m 20,9 km/h (4 Bft) W-NW 298 0 min 0,000 mm 0,0 UV-I 0 W/m 2,5 C -1,7 C 33,8 km/h (5 Bft) 97,87 %
05.03.2019 00:34 6,5 C 6,7 C 5,0 C 75 % 1007,3 hPa 0,0 l/m 29,0 km/h (5 Bft) W 261 0 min 0,000 mm 0,0 UV-I 0 W/m 2,4 C -4,0 C 48,3 km/h (6 Bft) 92,00 %
05.03.2019 00:36 6,6 C 6,7 C 5,0 C 74 % 1007,3 hPa 0,0 l/m 17,9 km/h (3 Bft) W 276 0 min 0,000 mm 0,0 UV-I 0 W/m 2,3 C -0,3 C 24,1 km/h (4 Bft) 97,92 %
05.03.2019 00:38 6,6 C 6,7 C 5,0 C 74 % 1007,3 hPa 0,0 l/m 19,6 km/h (3 Bft) W 259 0 min 0,000 mm 0,0 UV-I 0 W/m 2,3 C -1,0 C 29,0 km/h (5 Bft) 97,87 %
05.03.2019 00:40 6,6 C 6,7 C 5,0 C 74 % 1007,3 hPa 0,0 l/m 21,8 km/h (4 Bft) W 262 0 min 0,000 mm 0,0 UV-I 0 W/m 2,3 C -1,7 C 37,0 km/h (5 Bft) 97,87 %
05.03.2019 00:42 6,6 C 6,7 C 5,0 C 74 % 1007,3 hPa 0,0 l/m 20,6 km/h (4 Bft) W-NW 282 0 min 0,000 mm 0,0 UV-I 0 W/m 2,3 C -1,3 C 38,6 km/h (5 Bft) 97,87 %
05.03.2019 00:44 6,6 C 6,7 C 5,6 C 73 % 1007,4 hPa 0,0 l/m 24,5 km/h (4 Bft) W-SW 256 0 min 0,000 mm 0,0 UV-I 0 W/m 2,1 C -2,6 C 43,5 km/h (6 Bft) 100,00 %
05.03.2019 00:46 6,6 C 6,7 C 5,6 C 73 % 1007,2 hPa 0,0 l/m 30,3 km/h (5 Bft) W 268 0 min 0,000 mm 0,0 UV-I 0 W/m 2,1 C -4,2 C 45,1 km/h (6 Bft) 97,92 %
05.03.2019 00:48 6,7 C 6,7 C 5,6 C 72 % 1007,3 hPa 0,0 l/m 35,2 km/h (5 Bft) W 272 0 min 0,000 mm 0,0 UV-I 0 W/m 2,0 C -5,1 C 53,1 km/h (7 Bft) 100,00 %
05.03.2019 00:50 6,7 C 6,7 C 6,1 C 72 % 1007,4 hPa 0,0 l/m 34,9 km/h (5 Bft) W 261 0 min 0,000 mm 0,0 UV-I 0 W/m 2,0 C -5,1 C 51,5 km/h (7 Bft) 97,87 %
05.03.2019 00:52 6,7 C 6,7 C 6,1 C 72 % 1007,4 hPa 0,0 l/m 41,0 km/h (6 Bft) W-NW 282 0 min 0,000 mm 0,0 UV-I 0 W/m 2,0 C -6,2 C 59,5 km/h (7 Bft) 100,00 %
05.03.2019 00:54 6,7 C 6,7 C 6,1 C 72 % 1007,5 hPa 0,0 l/m 34,5 km/h (5 Bft) NW 309 0 min 0,000 mm 0,0 UV-I 0 W/m 2,0 C -5,0 C 56,3 km/h (7 Bft) 100,00 %
05.03.2019 00:56 6,7 C 6,7 C 5,6 C 73 % 1007,6 hPa 0,0 l/m 34,6 km/h (5 Bft) W 277 0 min 0,000 mm 0,0 UV-I 0 W/m 2,2 C -5,0 C 46,7 km/h (6 Bft) 100,00 %
05.03.2019 00:58 6,6 C 6,7 C 5,6 C 73 % 1007,7 hPa 0,0 l/m 28,7 km/h (4 Bft) W 268 0 min 0,000 mm 0,0 UV-I 0 W/m 2,1 C -3,8 C 49,9 km/h (6 Bft) 100,00 %
05.03.2019 01:00 6,5 C 6,7 C 5,6 C 74 % 1007,8 hPa 0,0 l/m 27,9 km/h (4 Bft) W-SW 239 0 min 0,051 mm 0,0 UV-I 0 W/m 2,2 C -3,7 C 43,5 km/h (6 Bft) 95,74 %
05.03.2019 01:02 6,4 C 6,7 C 5,6 C 74 % 1007,8 hPa 0,0 l/m 33,8 km/h (5 Bft) W 263 0 min 0,000 mm 0,0 UV-I 0 W/m 2,1 C -5,3 C 61,2 km/h (7 Bft) 97,87 %
05.03.2019 01:04 6,3 C 6,7 C 5,6 C 75 % 1007,8 hPa 0,0 l/m 29,1 km/h (5 Bft) W 281 0 min 0,000 mm 0,0 UV-I 0 W/m 2,2 C -4,3 C 41,8 km/h (6 Bft) 96,00 %
05.03.2019 01:06 6,3 C 6,7 C 5,6 C 75 % 1007,8 hPa 0,0 l/m 24,6 km/h (4 Bft) W 273 0 min 0,000 mm 0,0 UV-I 0 W/m 2,2 C -3,1 C 40,2 km/h (6 Bft) 94,74 %
05.03.2019 01:08 6,2 C 6,7 C 5,6 C 76 % 1007,9 hPa 0,0 l/m 26,5 km/h (4 Bft) W 262 0 min 0,000 mm 0,0 UV-I 0 W/m 2,3 C -3,8 C 43,5 km/h (6 Bft) 97,87 %
05.03.2019 01:10 6,1 C 6,7 C 5,0 C 77 % 1008,0 hPa 0,0 l/m 29,2 km/h (5 Bft) W-SW 251 0 min 0,000 mm 0,0 UV-I 0 W/m 2,4 C -4,6 C 40,2 km/h (6 Bft) 96,00 %
05.03.2019 01:12 6,0 C 6,7 C 5,0 C 78 % 1008,1 hPa 0,0 l/m 28,9 km/h (5 Bft) W 259 0 min 0,000 mm 0,0 UV-I 0 W/m 2,5 C -4,7 C 43,5 km/h (6 Bft) 98,00 %
05.03.2019 01:14 5,8 C 6,7 C 4,4 C 79 % 1008,1 hPa 0,0 l/m 32,4 km/h (5 Bft) SW 225 0 min 0,000 mm 0,0 UV-I 0 W/m 2,4 C -5,8 C 54,7 km/h (7 Bft) 97,92 %
05.03.2019 01:16 5,6 C 6,7 C 4,4 C 80 % 1008,0 hPa 0,0 l/m 29,8 km/h (5 Bft) W-SW 255 0 min 0,000 mm 0,0 UV-I 0 W/m 2,4 C -5,5 C 49,9 km/h (6 Bft) 97,87 %
05.03.2019 01:18 5,4 C 6,7 C 3,9 C 81 % 1007,8 hPa 0,2 l/m 29,6 km/h (5 Bft) W 266 0 min 0,000 mm 0,0 UV-I 0 W/m 2,4 C -5,7 C 43,5 km/h (6 Bft) 93,62 %
05.03.2019 01:20 5,3 C 6,7 C 3,9 C 82 % 1008,0 hPa 0,0 l/m 31,5 km/h (5 Bft) W 269 0 min 0,000 mm 0,0 UV-I 0 W/m 2,5 C -6,3 C 49,9 km/h (6 Bft) 94,74 %
05.03.2019 01:22 5,2 C 6,7 C 3,9 C 83 % 1008,0 hPa 0,0 l/m 24,9 km/h (4 Bft) W-SW 243 0 min 0,000 mm 0,0 UV-I 0 W/m 2,6 C -4,6 C 40,2 km/h (6 Bft) 97,87 %
05.03.2019 01:24 5,0 C 6,7 C 3,9 C 83 % 1008,0 hPa 0,2 l/m 30,0 km/h (5 Bft) W 278 0 min 0,000 mm 0,0 UV-I 0 W/m 2,4 C -6,4 C 53,1 km/h (7 Bft) 97,87 %
05.03.2019 01:26 4,9 C 6,7 C 3,9 C 84 % 1008,2 hPa 0,0 l/m 24,1 km/h (4 Bft) W 273 0 min 0,000 mm 0,0 UV-I 0 W/m 2,4 C -4,8 C 37,0 km/h (5 Bft) 97,87 %
05.03.2019 01:28 4,8 C 6,7 C 3,9 C 84 % 1008,2 hPa 0,0 l/m 26,6 km/h (4 Bft) W 276 0 min 0,000 mm 0,0 UV-I 0 W/m 2,3 C -5,7 C 46,7 km/h (6 Bft) 100,00 %
05.03.2019 01:30 4,7 C 6,7 C 3,9 C 85 % 1008,1 hPa 0,0 l/m 19,1 km/h (3 Bft) W 281 0 min 0,000 mm 0,0 UV-I 0 W/m 2,4 C -3,2 C 30,6 km/h (5 Bft) 100,00 %
05.03.2019 01:32 4,6 C 6,7 C 3,3 C 85 % 1008,1 hPa 0,0 l/m 19,6 km/h (3 Bft) W-NW 294 0 min 0,000 mm 0,0 UV-I 0 W/m 2,3 C -3,5 C 37,0 km/h (5 Bft) 97,87 %
05.03.2019 01:34 4,6 C 6,7 C 3,3 C 85 % 1008,1 hPa 0,0 l/m 20,2 km/h (4 Bft) W 260 0 min 0,000 mm 0,0 UV-I 0 W/m 2,3 C -3,8 C 30,6 km/h (5 Bft) 95,74 %
05.03.2019 01:36 4,5 C 6,7 C 3,3 C 85 % 1008,0 hPa 0,0 l/m 20,4 km/h (4 Bft) W-NW 289 0 min 0,000 mm 0,0 UV-I 0 W/m 2,2 C -4,0 C 33,8 km/h (5 Bft) 100,00 %
05.03.2019 01:38 4,5 C 6,7 C 3,3 C 85 % 1008,0 hPa 0,0 l/m 20,0 km/h (4 Bft) SW 236 0 min 0,000 mm 0,0 UV-I 0 W/m 2,2 C -3,8 C 33,8 km/h (5 Bft) 100,00 %
05.03.2019 01:40 4,6 C 6,7 C 3,3 C 85 % 1008,0 hPa 0,0 l/m 17,7 km/h (3 Bft) W 271 0 min 0,000 mm 0,0 UV-I 0 W/m 2,3 C -2,7 C 30,6 km/h (5 Bft) 100,00 %
05.03.2019 01:42 4,6 C 6,7 C 3,3 C 85 % 1007,9 hPa 0,0 l/m 22,1 km/h (4 Bft) W-SW 257 0 min 0,000 mm 0,0 UV-I 0 W/m 2,3 C -4,5 C 33,8 km/h (5 Bft) 100,00 %
05.03.2019 01:44 4,6 C 6,7 C 3,9 C 85 % 1008,0 hPa 0,0 l/m 22,1 km/h (4 Bft) W-NW 297 0 min 0,000 mm 0,0 UV-I 0 W/m 2,3 C -4,5 C 35,4 km/h (5 Bft) 100,00 %
05.03.2019 01:46 4,7 C 6,7 C 3,9 C 85 % 1007,9 hPa 0,0 l/m 23,8 km/h (4 Bft) W-NW 282 0 min 0,000 mm 0,0 UV-I 0 W/m 2,4 C -5,0 C 35,4 km/h (5 Bft) 100,00 %
05.03.2019 01:48 4,7 C 6,7 C 3,9 C 85 % 1007,9 hPa 0,0 l/m 22,5 km/h (4 Bft) NW 304 0 min 0,000 mm 0,0 UV-I 0 W/m 2,4 C -4,5 C 33,8 km/h (5 Bft) 100,00 %
05.03.2019 01:50 4,8 C 6,7 C 3,9 C 85 % 1007,9 hPa 0,0 l/m 19,2 km/h (3 Bft) W 281 0 min 0,000 mm 0,0 UV-I 0 W/m 2,5 C -3,1 C 29,0 km/h (5 Bft) 95,74 %
05.03.2019 01:52 4,8 C 6,7 C 3,9 C 85 % 1007,9 hPa 0,2 l/m 24,2 km/h (4 Bft) W 262 0 min 0,000 mm 0,0 UV-I 0 W/m 2,5 C -5,0 C 45,1 km/h (6 Bft) 100,00 %
05.03.2019 01:54 4,8 C 6,7 C 3,9 C 85 % 1007,8 hPa 0,0 l/m 23,8 km/h (4 Bft) W-NW 291 0 min 0,000 mm 0,0 UV-I 0 W/m 2,5 C -4,8 C 37,0 km/h (5 Bft) 100,00 %
05.03.2019 01:56 4,8 C 6,7 C 3,9 C 85 % 1007,8 hPa 0,0 l/m 17,8 km/h (3 Bft) W 267 0 min 0,000 mm 0,0 UV-I 0 W/m 2,5 C -2,5 C 25,7 km/h (4 Bft) 100,00 %
05.03.2019 01:58 4,9 C 6,7 C 3,9 C 85 % 1007,8 hPa 0,0 l/m 26,4 km/h (4 Bft) W-NW 288 0 min 0,000 mm 0,0 UV-I 0 W/m 2,6 C -5,5 C 46,7 km/h (6 Bft) 100,00 %
05.03.2019 02:00 4,9 C 6,7 C 3,9 C 85 % 1007,7 hPa 0,0 l/m 20,2 km/h (4 Bft) W 270 0 min 0,051 mm 0,0 UV-I 0 W/m 2,6 C -3,4 C 29,0 km/h (5 Bft) 97,87 %
05.03.2019 02:02 4,9 C 6,7 C 3,9 C 85 % 1007,7 hPa 0,0 l/m 23,2 km/h (4 Bft) W-SW 255 0 min 0,000 mm 0,0 UV-I 0 W/m 2,6 C -4,5 C 41,8 km/h (6 Bft) 100,00 %
05.03.2019 02:04 4,9 C 6,7 C 3,9 C 85 % 1007,7 hPa 0,0 l/m 19,6 km/h (3 Bft) W-SW 258 0 min 0,000 mm 0,0 UV-I 0 W/m 2,6 C -3,1 C 29,0 km/h (5 Bft) 100,00 %
05.03.2019 02:06 4,9 C 6,7 C 3,9 C 85 % 1007,8 hPa 0,0 l/m 19,2 km/h (3 Bft) W 273 0 min 0,000 mm 0,0 UV-I 0 W/m 2,6 C -3,0 C 32,2 km/h (5 Bft) 100,00 %
05.03.2019 02:08 4,9 C 6,7 C 3,3 C 85 % 1007,9 hPa 0,0 l/m 18,0 km/h (3 Bft) W 273 0 min 0,000 mm 0,0 UV-I 0 W/m 2,6 C -2,5 C 30,6 km/h (5 Bft) 95,83 %
05.03.2019 02:10 4,9 C 6,7 C 3,3 C 85 % 1008,0 hPa 0,0 l/m 15,1 km/h (3 Bft) W 261 0 min 0,000 mm 0,0 UV-I 0 W/m 2,6 C -1,1 C 27,4 km/h (4 Bft) 93,62 %
05.03.2019 02:12 4,9 C 6,7 C 3,3 C 85 % 1008,0 hPa 0,0 l/m 18,9 km/h (3 Bft) W-SW 253 0 min 0,000 mm 0,0 UV-I 0 W/m 2,6 C -2,9 C 30,6 km/h (5 Bft) 97,87 %
05.03.2019 02:14 4,8 C 6,7 C 3,3 C 85 % 1008,0 hPa 0,0 l/m 17,1 km/h (3 Bft) W-SW 244 0 min 0,000 mm 0,0 UV-I 0 W/m 2,5 C -2,2 C 29,0 km/h (5 Bft) 97,87 %
05.03.2019 02:16 4,8 C 6,7 C 2,8 C 85 % 1008,0 hPa 0,0 l/m 15,4 km/h (3 Bft) W 264 0 min 0,000 mm 0,0 UV-I 0 W/m 2,5 C -1,4 C 19,3 km/h (3 Bft) 97,37 %
05.03.2019 02:18 4,8 C 6,7 C 2,8 C 85 % 1008,1 hPa 0,0 l/m 17,8 km/h (3 Bft) W 261 0 min 0,000 mm 0,0 UV-I 0 W/m 2,5 C -2,5 C 25,7 km/h (4 Bft) 94,00 %
05.03.2019 02:20 4,7 C 6,7 C 2,8 C 85 % 1008,1 hPa 0,0 l/m 16,9 km/h (3 Bft) W 271 0 min 0,000 mm 0,0 UV-I 0 W/m 2,4 C -2,2 C 25,7 km/h (4 Bft) 93,62 %
05.03.2019 02:22 4,7 C 6,7 C 2,8 C 85 % 1008,1 hPa 0,0 l/m 19,0 km/h (3 Bft) W 265 0 min 0,000 mm 0,0 UV-I 0 W/m 2,4 C -3,1 C 27,4 km/h (4 Bft) 94,00 %
05.03.2019 02:24 4,7 C 6,7 C 2,8 C 86 % 1008,2 hPa 0,0 l/m 16,5 km/h (3 Bft) W 269 0 min 0,000 mm 0,0 UV-I 0 W/m 2,6 C -2,0 C 27,4 km/h (4 Bft) 93,62 %
05.03.2019 02:26 4,7 C 6,7 C 2,8 C 86 % 1008,2 hPa 0,0 l/m 18,0 km/h (3 Bft) W-SW 257 0 min 0,000 mm 0,0 UV-I 0 W/m 2,6 C -2,7 C 25,7 km/h (4 Bft) 93,62 %
05.03.2019 02:28 4,7 C 6,7 C 3,3 C 86 % 1008,2 hPa 0,0 l/m 18,4 km/h (3 Bft) SW 229 0 min 0,000 mm 0,0 UV-I 0 W/m 2,6 C -2,9 C 27,4 km/h (4 Bft) 89,36 %
05.03.2019 02:30 4,8 C 6,7 C 3,3 C 85 % 1008,2 hPa 0,0 l/m 15,5 km/h (3 Bft) W 266 0 min 0,000 mm 0,0 UV-I 0 W/m 2,5 C -1,4 C 24,1 km/h (4 Bft) 93,75 %
05.03.2019 02:32 4,8 C 6,7 C 3,3 C 86 % 1008,2 hPa 0,0 l/m 15,4 km/h (3 Bft) SW 228 0 min 0,000 mm 0,0 UV-I 0 W/m 2,7 C -1,4 C 24,1 km/h (4 Bft) 91,49 %
05.03.2019 02:34 4,8 C 6,7 C 3,3 C 86 % 1008,2 hPa 0,0 l/m 17,4 km/h (3 Bft) W 269 0 min 0,000 mm 0,0 UV-I 0 W/m 2,7 C -2,3 C 25,7 km/h (4 Bft) 93,62 %
05.03.2019 02:36 4,8 C 6,7 C 3,9 C 85 % 1008,2 hPa 0,0 l/m 18,3 km/h (3 Bft) SW 234 0 min 0,000 mm 0,0 UV-I 0 W/m 2,5 C -2,7 C 29,0 km/h (5 Bft) 92,11 %
05.03.2019 02:38 4,9 C 6,7 C 3,9 C 85 % 1008,2 hPa 0,0 l/m 20,4 km/h (4 Bft) W-SW 244 0 min 0,000 mm 0,0 UV-I 0 W/m 2,6 C -3,5 C 30,6 km/h (5 Bft) 93,62 %
05.03.2019 02:40 5,0 C 6,7 C 3,9 C 85 % 1008,2 hPa 0,0 l/m 16,8 km/h (3 Bft) W-SW 246 0 min 0,000 mm 0,0 UV-I 0 W/m 2,7 C -1,8 C 27,4 km/h (4 Bft) 90,57 %
05.03.2019 02:42 5,1 C 6,7 C 3,9 C 85 % 1008,2 hPa 0,0 l/m 13,8 km/h (3 Bft) W-SW 238 0 min 0,000 mm 0,0 UV-I 0 W/m 2,8 C -0,2 C 20,9 km/h (4 Bft) 95,74 %
05.03.2019 02:44 5,1 C 6,7 C 3,9 C 85 % 1008,2 hPa 0,0 l/m 17,6 km/h (3 Bft) SW 224 0 min 0,000 mm 0,0 UV-I 0 W/m 2,8 C -2,0 C 27,4 km/h (4 Bft) 93,62 %
05.03.2019 02:46 5,1 C 6,7 C 3,9 C 85 % 1008,3 hPa 0,0 l/m 12,9 km/h (3 Bft) SW 231 0 min 0,000 mm 0,0 UV-I 0 W/m 2,8 C 0,3 C 17,7 km/h (3 Bft) 92,00 %
05.03.2019 02:48 5,1 C 6,7 C 3,9 C 85 % 1008,2 hPa 0,0 l/m 15,8 km/h (3 Bft) W-SW 249 0 min 0,000 mm 0,0 UV-I 0 W/m 2,8 C -1,2 C 24,1 km/h (4 Bft) 97,87 %
05.03.2019 02:50 5,1 C 6,7 C 3,9 C 84 % 1008,2 hPa 0,0 l/m 14,4 km/h (3 Bft) W 265 0 min 0,000 mm 0,0 UV-I 0 W/m 2,6 C -0,5 C 20,9 km/h (4 Bft) 97,37 %
05.03.2019 02:52 5,2 C 6,7 C 3,9 C 84 % 1008,3 hPa 0,0 l/m 19,2 km/h (3 Bft) W-SW 238 0 min 0,000 mm 0,0 UV-I 0 W/m 2,7 C -2,6 C 27,4 km/h (4 Bft) 97,87 %
05.03.2019 02:54 5,2 C 6,7 C 3,9 C 84 % 1008,3 hPa 0,0 l/m 21,0 km/h (4 Bft) W-SW 244 0 min 0,000 mm 0,0 UV-I 0 W/m 2,7 C -3,3 C 30,6 km/h (5 Bft) 98,31 %
05.03.2019 02:56 5,2 C 6,7 C 3,9 C 84 % 1008,2 hPa 0,0 l/m 18,3 km/h (3 Bft) SW 223 0 min 0,000 mm 0,0 UV-I 0 W/m 2,7 C -2,2 C 24,1 km/h (4 Bft) 97,14 %
05.03.2019 02:58 5,2 C 6,7 C 3,9 C 83 % 1008,3 hPa 0,0 l/m 16,0 km/h (3 Bft) SW 231 0 min 0,000 mm 0,0 UV-I 0 W/m 2,6 C -1,2 C 22,5 km/h (4 Bft) 97,87 %
05.03.2019 03:00 5,3 C 6,7 C 3,9 C 83 % 1008,3 hPa 0,0 l/m 15,5 km/h (3 Bft) W-SW 241 0 min 0,025 mm 0,0 UV-I 0 W/m 2,7 C -0,8 C 29,0 km/h (5 Bft) 97,87 %
05.03.2019 03:02 5,3 C 6,7 C 3,9 C 83 % 1008,3 hPa 0,0 l/m 19,5 km/h (3 Bft) SW 236 0 min 0,000 mm 0,0 UV-I 0 W/m 2,7 C -2,6 C 27,4 km/h (4 Bft) 95,83 %
05.03.2019 03:04 5,3 C 6,7 C 3,9 C 82 % 1008,3 hPa 0,0 l/m 19,1 km/h (3 Bft) W-SW 250 0 min 0,000 mm 0,0 UV-I 0 W/m 2,5 C -2,4 C 27,4 km/h (4 Bft) 95,74 %
05.03.2019 03:06 5,4 C 6,7 C 3,9 C 81 % 1008,4 hPa 0,0 l/m 18,3 km/h (3 Bft) W-SW 238 0 min 0,000 mm 0,0 UV-I 0 W/m 2,4 C -2,0 C 29,0 km/h (5 Bft) 95,74 %
05.03.2019 03:08 5,4 C 6,7 C 3,9 C 81 % 1008,4 hPa 0,0 l/m 20,2 km/h (4 Bft) W 263 0 min 0,000 mm 0,0 UV-I 0 W/m 2,4 C -2,7 C 30,6 km/h (5 Bft) 98,00 %
05.03.2019 03:10 5,5 C 6,7 C 3,9 C 80 % 1008,4 hPa 0,0 l/m 18,0 km/h (3 Bft) SW 233 0 min 0,000 mm 0,0 UV-I 0 W/m 2,3 C -1,7 C 27,4 km/h (4 Bft) 95,74 %
05.03.2019 03:12 5,5 C 6,7 C 3,9 C 79 % 1008,5 hPa 0,0 l/m 23,8 km/h (4 Bft) SW 222 0 min 0,000 mm 0,0 UV-I 0 W/m 2,2 C -3,9 C 41,8 km/h (6 Bft) 97,87 %
05.03.2019 03:14 5,5 C 6,7 C 3,9 C 79 % 1008,5 hPa 0,0 l/m 19,0 km/h (3 Bft) SW 233 0 min 0,000 mm 0,0 UV-I 0 W/m 2,2 C -2,1 C 27,4 km/h (4 Bft) 97,87 %
05.03.2019 03:16 5,5 C 6,7 C 3,9 C 79 % 1008,5 hPa 0,0 l/m 24,4 km/h (4 Bft) W-SW 242 0 min 0,000 mm 0,0 UV-I 0 W/m 2,2 C -4,1 C 38,6 km/h (5 Bft) 97,87 %
05.03.2019 03:18 5,4 C 6,7 C 3,9 C 79 % 1008,5 hPa 0,0 l/m 18,7 km/h (3 Bft) W 276 0 min 0,000 mm 0,0 UV-I 0 W/m 2,1 C -2,1 C 25,7 km/h (4 Bft) 97,87 %
05.03.2019 03:20 5,4 C 6,7 C 3,9 C 79 % 1008,4 hPa 0,0 l/m 20,4 km/h (4 Bft) W 260 0 min 0,000 mm 0,0 UV-I 0 W/m 2,1 C -2,8 C 29,0 km/h (5 Bft) 97,87 %
05.03.2019 03:22 5,5 C 6,7 C 3,9 C 78 % 1008,5 hPa 0,0 l/m 19,0 km/h (3 Bft) W-SW 238 0 min 0,000 mm 0,0 UV-I 0 W/m 2,0 C -2,1 C 35,4 km/h (5 Bft) 93,62 %
05.03.2019 03:25 5,6 C 6,7 C 3,9 C 77 % 1008,5 hPa 0,0 l/m 19,1 km/h (3 Bft) W-SW 248 0 min 0,000 mm 0,0 UV-I 0 W/m 1,9 C -2,0 C 32,2 km/h (5 Bft) 98,57 %
05.03.2019 03:26 5,6 C 6,7 C 3,9 C 77 % 1008,5 hPa 0,0 l/m 15,9 km/h (3 Bft) W 269 0 min 0,000 mm 0,0 UV-I 0 W/m 1,9 C -0,6 C 22,5 km/h (4 Bft) 95,83 %
05.03.2019 03:28 5,6 C 6,7 C 3,9 C 76 % 1008,5 hPa 0,0 l/m 17,8 km/h (3 Bft) W 261 0 min 0,000 mm 0,0 UV-I 0 W/m 1,7 C -1,5 C 25,7 km/h (4 Bft) 97,87 %
05.03.2019 03:30 5,6 C 6,7 C 3,9 C 76 % 1008,5 hPa 0,0 l/m 18,1 km/h (3 Bft) W-SW 256 0 min 0,000 mm 0,0 UV-I 0 W/m 1,7 C -1,6 C 25,7 km/h (4 Bft) 97,87 %
05.03.2019 03:32 5,6 C 6,7 C 3,9 C 76 % 1008,5 hPa 0,0 l/m 16,4 km/h (3 Bft) SW 231 0 min 0,000 mm 0,0 UV-I 0 W/m 1,7 C -0,9 C 24,1 km/h (4 Bft) 100,00 %
05.03.2019 03:34 5,6 C 6,7 C 3,9 C 76 % 1008,6 hPa 0,0 l/m 15,6 km/h (3 Bft) W-SW 254 0 min 0,000 mm 0,0 UV-I 0 W/m 1,7 C -0,5 C 22,5 km/h (4 Bft) 100,00 %
05.03.2019 03:36 5,6 C 6,7 C 3,9 C 76 % 1008,6 hPa 0,0 l/m 18,9 km/h (3 Bft) SW 232 0 min 0,000 mm 0,0 UV-I 0 W/m 1,7 C -2,0 C 25,7 km/h (4 Bft) 98,00 %
05.03.2019 03:38 5,6 C 6,7 C 3,9 C 76 % 1008,6 hPa 0,0 l/m 20,1 km/h (4 Bft) S-SW 205 0 min 0,000 mm 0,0 UV-I 0 W/m 1,7 C -2,4 C 30,6 km/h (5 Bft) 97,87 %
05.03.2019 03:40 5,6 C 6,7 C 3,9 C 76 % 1008,6 hPa 0,0 l/m 21,5 km/h (4 Bft) SW 219 0 min 0,000 mm 0,0 UV-I 0 W/m 1,7 C -3,0 C 30,6 km/h (5 Bft) 95,74 %
05.03.2019 03:42 5,6 C 6,7 C 3,9 C 75 % 1008,6 hPa 0,0 l/m 17,7 km/h (3 Bft) W-SW 242 0 min 0,000 mm 0,0 UV-I 0 W/m 1,5 C -1,5 C 24,1 km/h (4 Bft) 97,92 %
05.03.2019 03:44 5,6 C 6,7 C 3,9 C 75 % 1008,6 hPa 0,0 l/m 21,9 km/h (4 Bft) SW 236 0 min 0,000 mm 0,0 UV-I 0 W/m 1,5 C -3,1 C 33,8 km/h (5 Bft) 97,87 %
05.03.2019 03:46 5,6 C 6,7 C 3,9 C 75 % 1008,6 hPa 0,0 l/m 18,5 km/h (3 Bft) W-SW 241 0 min 0,000 mm 0,0 UV-I 0 W/m 1,5 C -1,8 C 25,7 km/h (4 Bft) 98,00 %
05.03.2019 03:48 5,7 C 6,7 C 3,9 C 75 % 1008,7 hPa 0,0 l/m 19,9 km/h (4 Bft) SW 217 0 min 0,000 mm 0,0 UV-I 0 W/m 1,6 C -2,2 C 30,6 km/h (5 Bft) 97,87 %
05.03.2019 03:50 5,7 C 6,7 C 3,9 C 74 % 1008,7 hPa 0,0 l/m 19,8 km/h (3 Bft) SW 225 0 min 0,000 mm 0,0 UV-I 0 W/m 1,4 C -2,2 C 27,4 km/h (4 Bft) 98,00 %
05.03.2019 03:52 5,7 C 6,7 C 3,9 C 75 % 1008,8 hPa 0,0 l/m 18,2 km/h (3 Bft) W-SW 248 0 min 0,000 mm 0,0 UV-I 0 W/m 1,6 C -1,5 C 25,7 km/h (4 Bft) 97,50 %
05.03.2019 03:54 5,7 C 6,7 C 3,9 C 74 % 1008,8 hPa 0,0 l/m 19,4 km/h (3 Bft) W-SW 250 0 min 0,000 mm 0,0 UV-I 0 W/m 1,4 C -2,0 C 29,0 km/h (5 Bft) 97,87 %
05.03.2019 03:56 5,7 C 6,7 C 3,9 C 74 % 1008,8 hPa 0,0 l/m 19,8 km/h (3 Bft) W-SW 244 0 min 0,000 mm 0,0 UV-I 0 W/m 1,4 C -2,2 C 27,4 km/h (4 Bft) 97,87 %
05.03.2019 03:58 5,7 C 6,7 C 3,9 C 74 % 1008,9 hPa 0,0 l/m 17,0 km/h (3 Bft) W-SW 258 0 min 0,000 mm 0,0 UV-I 0 W/m 1,4 C -1,0 C 24,1 km/h (4 Bft) 97,87 %
05.03.2019 04:00 5,7 C 6,7 C 3,9 C 74 % 1008,8 hPa 0,0 l/m 15,8 km/h (3 Bft) SW 235 0 min 0,051 mm 0,0 UV-I 0 W/m 1,4 C -0,5 C 25,7 km/h (4 Bft) 100,00 %
05.03.2019 04:02 5,7 C 6,7 C 3,9 C 73 % 1008,9 hPa 0,0 l/m 18,6 km/h (3 Bft) SW 229 0 min 0,000 mm 0,0 UV-I 0 W/m 1,2 C -1,7 C 25,7 km/h (4 Bft) 91,18 %
05.03.2019 04:04 5,7 C 6,7 C 3,9 C 73 % 1008,9 hPa 0,0 l/m 16,3 km/h (3 Bft) W-SW 240 0 min 0,000 mm 0,0 UV-I 0 W/m 1,2 C -0,7 C 25,7 km/h (4 Bft) 100,00 %
05.03.2019 04:06 5,7 C 6,7 C 3,9 C 73 % 1008,9 hPa 0,0 l/m 20,8 km/h (4 Bft) W-SW 258 0 min 0,000 mm 0,0 UV-I 0 W/m 1,2 C -2,6 C 32,2 km/h (5 Bft) 100,00 %
05.03.2019 04:08 5,8 C 6,7 C 3,9 C 72 % 1008,9 hPa 0,0 l/m 20,0 km/h (4 Bft) W-NW 288 0 min 0,000 mm 0,0 UV-I 0 W/m 1,2 C -2,1 C 30,6 km/h (5 Bft) 100,00 %
05.03.2019 04:10 5,8 C 6,7 C 3,9 C 72 % 1008,9 hPa 0,0 l/m 21,3 km/h (4 Bft) W-SW 245 0 min 0,000 mm 0,0 UV-I 0 W/m 1,2 C -2,6 C 27,4 km/h (4 Bft) 97,87 %
05.03.2019 04:12 5,8 C 6,7 C 3,9 C 72 % 1008,9 hPa 0,0 l/m 21,5 km/h (4 Bft) W 261 0 min 0,000 mm 0,0 UV-I 0 W/m 1,2 C -2,7 C 40,2 km/h (6 Bft) 97,87 %
05.03.2019 04:14 5,8 C 6,7 C 3,9 C 72 % 1008,9 hPa 0,0 l/m 20,9 km/h (4 Bft) W 267 0 min 0,000 mm 0,0 UV-I 0 W/m 1,2 C -2,5 C 30,6 km/h (5 Bft) 100,00 %
05.03.2019 04:16 5,8 C 6,7 C 3,9 C 71 % 1008,9 hPa 0,0 l/m 24,0 km/h (4 Bft) W-SW 249 0 min 0,000 mm 0,0 UV-I 0 W/m 1,0 C -3,5 C 33,8 km/h (5 Bft) 97,87 %
05.03.2019 04:18 5,8 C 6,7 C 3,9 C 71 % 1008,9 hPa 0,0 l/m 24,0 km/h (4 Bft) SW 229 0 min 0,000 mm 0,0 UV-I 0 W/m 1,0 C -3,5 C 37,0 km/h (5 Bft) 97,37 %
05.03.2019 04:20 5,8 C 6,7 C 3,9 C 71 % 1008,9 hPa 0,0 l/m 18,6 km/h (3 Bft) W 261 0 min 0,000 mm 0,0 UV-I 0 W/m 1,0 C -1,6 C 27,4 km/h (4 Bft) 100,00 %
05.03.2019 04:22 5,8 C 6,7 C 3,9 C 71 % 1008,8 hPa 0,0 l/m 19,3 km/h (3 Bft) W 272 0 min 0,000 mm 0,0 UV-I 0 W/m 1,0 C -1,9 C 32,2 km/h (5 Bft) 97,87 %
05.03.2019 04:24 5,8 C 6,7 C 3,3 C 70 % 1008,9 hPa 0,0 l/m 19,0 km/h (3 Bft) W 269 0 min 0,000 mm 0,0 UV-I 0 W/m 0,8 C -1,7 C 29,0 km/h (5 Bft) 97,87 %
05.03.2019 04:26 5,7 C 6,7 C 3,3 C 70 % 1008,9 hPa 0,0 l/m 17,8 km/h (3 Bft) SW 226 0 min 0,000 mm 0,0 UV-I 0 W/m 0,7 C -1,4 C 25,7 km/h (4 Bft) 93,62 %
05.03.2019 04:28 5,7 C 6,7 C 3,3 C 71 % 1009,0 hPa 0,0 l/m 18,5 km/h (3 Bft) S-SW 205 0 min 0,000 mm 0,0 UV-I 0 W/m 0,9 C -1,7 C 37,0 km/h (5 Bft) 96,00 %
05.03.2019 04:30 5,7 C 6,7 C 3,3 C 71 % 1008,9 hPa 0,0 l/m 22,3 km/h (4 Bft) W-SW 245 0 min 0,000 mm 0,0 UV-I 0 W/m 0,9 C -3,1 C 33,8 km/h (5 Bft) 97,37 %
05.03.2019 04:32 5,6 C 6,7 C 3,3 C 71 % 1009,0 hPa 0,0 l/m 17,2 km/h (3 Bft) SW 230 0 min 0,000 mm 0,0 UV-I 0 W/m 0,8 C -1,2 C 25,7 km/h (4 Bft) 96,36 %
05.03.2019 04:34 5,6 C 6,7 C 3,3 C 71 % 1009,0 hPa 0,0 l/m 22,3 km/h (4 Bft) SW 225 0 min 0,000 mm 0,0 UV-I 0 W/m 0,8 C -3,2 C 33,8 km/h (5 Bft) 96,00 %
05.03.2019 04:36 5,4 C 6,7 C 3,3 C 71 % 1009,0 hPa 0,0 l/m 15,8 km/h (3 Bft) SW 223 0 min 0,000 mm 0,0 UV-I 0 W/m 0,6 C -0,8 C 24,1 km/h (4 Bft) 97,87 %
05.03.2019 04:38 5,4 C 6,7 C 3,3 C 72 % 1009,0 hPa 0,0 l/m 21,6 km/h (4 Bft) W 279 0 min 0,000 mm 0,0 UV-I 0 W/m 0,8 C -3,3 C 32,2 km/h (5 Bft) 95,74 %
05.03.2019 04:40 5,4 C 6,7 C 3,3 C 72 % 1009,0 hPa 0,0 l/m 16,4 km/h (3 Bft) W-SW 246 0 min 0,000 mm 0,0 UV-I 0 W/m 0,8 C -1,1 C 24,1 km/h (4 Bft) 97,37 %
05.03.2019 04:42 5,3 C 6,7 C 2,8 C 72 % 1009,0 hPa 0,0 l/m 18,8 km/h (3 Bft) W-SW 254 0 min 0,000 mm 0,0 UV-I 0 W/m 0,7 C -2,3 C 32,2 km/h (5 Bft) 95,74 %
05.03.2019 04:44 5,3 C 6,7 C 3,3 C 72 % 1009,0 hPa 0,0 l/m 21,2 km/h (4 Bft) W-SW 252 0 min 0,000 mm 0,0 UV-I 0 W/m 0,7 C -3,2 C 27,4 km/h (4 Bft) 96,23 %
05.03.2019 04:46 5,3 C 6,7 C 3,3 C 71 % 1009,0 hPa 0,0 l/m 21,7 km/h (4 Bft) SW 229 0 min 0,000 mm 0,0 UV-I 0 W/m 0,5 C -3,4 C 32,2 km/h (5 Bft) 97,87 %
05.03.2019 04:48 5,3 C 6,7 C 3,3 C 71 % 1009,1 hPa 0,0 l/m 19,2 km/h (3 Bft) W-SW 246 0 min 0,000 mm 0,0 UV-I 0 W/m 0,5 C -2,5 C 30,6 km/h (5 Bft) 95,74 %
05.03.2019 04:50 5,3 C 6,7 C 3,3 C 71 % 1009,0 hPa 0,0 l/m 16,9 km/h (3 Bft) W 275 0 min 0,000 mm 0,0 UV-I 0 W/m 0,5 C -1,5 C 25,7 km/h (4 Bft) 93,62 %
05.03.2019 04:52 5,3 C 6,7 C 3,3 C 71 % 1009,0 hPa 0,0 l/m 16,2 km/h (3 Bft) W-SW 242 0 min 0,000 mm 0,0 UV-I 0 W/m 0,5 C -1,1 C 29,0 km/h (5 Bft) 95,74 %
05.03.2019 04:54 5,3 C 6,7 C 3,3 C 71 % 1009,0 hPa 0,0 l/m 19,4 km/h (3 Bft) SW 224 0 min 0,000 mm 0,0 UV-I 0 W/m 0,5 C -2,5 C 27,4 km/h (4 Bft) 97,87 %
05.03.2019 04:56 5,3 C 6,7 C 3,3 C 72 % 1009,0 hPa 0,0 l/m 19,4 km/h (3 Bft) W-SW 246 0 min 0,000 mm 0,0 UV-I 0 W/m 0,7 C -2,5 C 30,6 km/h (5 Bft) 97,87 %
05.03.2019 04:58 5,2 C 6,7 C 3,3 C 72 % 1009,0 hPa 0,0 l/m 20,7 km/h (4 Bft) W-SW 252 0 min 0,000 mm 0,0 UV-I 0 W/m 0,6 C -3,2 C 29,0 km/h (5 Bft) 96,00 %
05.03.2019 05:00 5,2 C 6,7 C 3,3 C 72 % 1009,0 hPa 0,0 l/m 18,3 km/h (3 Bft) W-SW 257 0 min 0,051 mm 0,0 UV-I 0 W/m 0,6 C -2,2 C 25,7 km/h (4 Bft) 95,74 %
05.03.2019 05:02 5,2 C 6,7 C 3,3 C 72 % 1009,0 hPa 0,0 l/m 16,0 km/h (3 Bft) W-SW 238 0 min 0,000 mm 0,0 UV-I 0 W/m 0,6 C -1,2 C 25,7 km/h (4 Bft) 97,87 %
05.03.2019 05:04 5,2 C 6,7 C 3,3 C 72 % 1009,0 hPa 0,0 l/m 19,2 km/h (3 Bft) W-SW 255 0 min 0,000 mm 0,0 UV-I 0 W/m 0,6 C -2,6 C 27,4 km/h (4 Bft) 97,37 %
05.03.2019 05:06 5,1 C 6,7 C 3,3 C 73 % 1009,0 hPa 0,0 l/m 15,7 km/h (3 Bft) W 275 0 min 0,000 mm 0,0 UV-I 0 W/m 0,7 C -1,2 C 24,1 km/h (4 Bft) 97,87 %
05.03.2019 05:08 5,2 C 6,7 C 3,3 C 73 % 1009,1 hPa 0,0 l/m 17,2 km/h (3 Bft) W-SW 242 0 min 0,000 mm 0,0 UV-I 0 W/m 0,8 C -1,7 C 25,7 km/h (4 Bft) 97,87 %
05.03.2019 05:11 5,2 C 6,7 C 3,9 C 72 % 1009,1 hPa 0,0 l/m 20,3 km/h (4 Bft) W-SW 245 0 min 0,000 mm 0,0 UV-I 0 W/m 0,6 C -3,0 C 30,6 km/h (5 Bft) 97,14 %
05.03.2019 05:12 5,3 C 6,7 C 3,9 C 72 % 1009,1 hPa 0,0 l/m 23,3 km/h (4 Bft) W 271 0 min 0,000 mm 0,0 UV-I 0 W/m 0,7 C -4,0 C 30,6 km/h (5 Bft) 95,83 %
05.03.2019 05:14 5,3 C 6,7 C 3,9 C 72 % 1009,1 hPa 0,0 l/m 19,2 km/h (3 Bft) NW 306 0 min 0,000 mm 0,0 UV-I 0 W/m 0,7 C -2,5 C 27,4 km/h (4 Bft) 96,00 %
05.03.2019 05:16 5,4 C 6,7 C 3,9 C 72 % 1009,1 hPa 0,0 l/m 18,0 km/h (3 Bft) W 261 0 min 0,000 mm 0,0 UV-I 0 W/m 0,8 C -1,8 C 24,1 km/h (4 Bft) 97,87 %
05.03.2019 05:18 5,4 C 6,7 C 3,9 C 72 % 1009,1 hPa 0,0 l/m 14,8 km/h (3 Bft) W 275 0 min 0,000 mm 0,0 UV-I 0 W/m 0,8 C -0,3 C 25,7 km/h (4 Bft) 98,00 %
05.03.2019 05:20 5,4 C 6,7 C 3,9 C 72 % 1009,1 hPa 0,0 l/m 19,2 km/h (3 Bft) W 263 0 min 0,000 mm 0,0 UV-I 0 W/m 0,8 C -2,3 C 30,6 km/h (5 Bft) 97,37 %
05.03.2019 05:22 5,5 C 6,7 C 4,4 C 72 % 1009,1 hPa 0,0 l/m 18,0 km/h (3 Bft) W-SW 254 0 min 0,000 mm 0,0 UV-I 0 W/m 0,9 C -1,7 C 27,4 km/h (4 Bft) 96,23 %
05.03.2019 05:24 5,6 C 6,7 C 4,4 C 71 % 1009,1 hPa 0,0 l/m 17,8 km/h (3 Bft) W-SW 241 0 min 0,000 mm 0,0 UV-I 0 W/m 0,8 C -1,5 C 25,7 km/h (4 Bft) 100,00 %
05.03.2019 05:26 5,6 C 6,7 C 4,4 C 71 % 1009,1 hPa 0,0 l/m 17,3 km/h (3 Bft) SW 229 0 min 0,000 mm 0,0 UV-I 0 W/m 0,8 C -1,3 C 24,1 km/h (4 Bft) 97,87 %
05.03.2019 05:28 5,6 C 6,7 C 4,4 C 71 % 1009,1 hPa 0,0 l/m 20,0 km/h (4 Bft) W 271 0 min 0,000 mm 0,0 UV-I 0 W/m 0,8 C -2,4 C 32,2 km/h (5 Bft) 97,87 %
05.03.2019 05:31 5,7 C 6,7 C 4,4 C 71 % 1009,1 hPa 0,0 l/m 21,6 km/h (4 Bft) W-SW 238 0 min 0,000 mm 0,0 UV-I 0 W/m 0,9 C -2,9 C 38,6 km/h (5 Bft) 100,00 %
05.03.2019 05:32 5,7 C 6,7 C 4,4 C 71 % 1009,1 hPa 0,0 l/m 21,9 km/h (4 Bft) W-SW 253 0 min 0,000 mm 0,0 UV-I 0 W/m 0,9 C -3,0 C 27,4 km/h (4 Bft) 100,00 %
05.03.2019 05:34 5,8 C 6,7 C 4,4 C 71 % 1009,2 hPa 0,0 l/m 17,7 km/h (3 Bft) W-SW 255 0 min 0,000 mm 0,0 UV-I 0 W/m 1,0 C -1,2 C 33,8 km/h (5 Bft) 100,00 %
05.03.2019 05:36 5,8 C 6,7 C 4,4 C 70 % 1009,1 hPa 0,0 l/m 19,2 km/h (3 Bft) W 281 0 min 0,000 mm 0,0 UV-I 0 W/m 0,8 C -1,8 C 30,6 km/h (5 Bft) 100,00 %
05.03.2019 05:38 5,8 C 6,7 C 4,4 C 70 % 1009,1 hPa 0,0 l/m 18,0 km/h (3 Bft) SW 233 0 min 0,000 mm 0,0 UV-I 0 W/m 0,8 C -1,3 C 37,0 km/h (5 Bft) 96,00 %
05.03.2019 05:40 5,9 C 6,7 C 4,4 C 70 % 1009,1 hPa 0,0 l/m 22,0 km/h (4 Bft) W 279 0 min 0,000 mm 0,0 UV-I 0 W/m 0,9 C -2,7 C 41,8 km/h (6 Bft) 97,87 %
05.03.2019 05:42 5,9 C 6,7 C 4,4 C 70 % 1009,3 hPa 0,0 l/m 20,2 km/h (4 Bft) W-SW 254 0 min 0,000 mm 0,0 UV-I 0 W/m 0,9 C -2,1 C 27,4 km/h (4 Bft) 100,00 %
05.03.2019 05:44 5,9 C 6,7 C 4,4 C 70 % 1009,3 hPa 0,0 l/m 19,6 km/h (3 Bft) W-SW 254 0 min 0,000 mm 0,0 UV-I 0 W/m 0,9 C -1,9 C 32,2 km/h (5 Bft) 97,37 %
05.03.2019 05:46 5,9 C 6,7 C 4,4 C 70 % 1009,2 hPa 0,0 l/m 19,4 km/h (3 Bft) NW 306 0 min 0,000 mm 0,0 UV-I 0 W/m 0,9 C -1,8 C 29,0 km/h (5 Bft) 100,00 %
05.03.2019 05:48 5,9 C 6,7 C 4,4 C 70 % 1009,4 hPa 0,0 l/m 15,0 km/h (3 Bft) W-SW 252 0 min 0,000 mm 0,0 UV-I 0 W/m 0,9 C 0,2 C 24,1 km/h (4 Bft) 95,74 %
05.03.2019 05:50 5,9 C 6,7 C 4,4 C 70 % 1009,4 hPa 0,0 l/m 22,1 km/h (4 Bft) W 267 0 min 0,000 mm 0,0 UV-I 0 W/m 0,9 C -2,8 C 29,0 km/h (5 Bft) 100,00 %
05.03.2019 05:52 5,9 C 6,7 C 5,0 C 70 % 1009,4 hPa 0,0 l/m 22,7 km/h (4 Bft) W 269 0 min 0,000 mm 0,0 UV-I 0 W/m 0,9 C -3,0 C 30,6 km/h (5 Bft) 97,87 %
05.03.2019 05:55 5,9 C 6,7 C 5,0 C 70 % 1009,3 hPa 0,0 l/m 19,3 km/h (3 Bft) W 271 0 min 0,000 mm 0,0 UV-I 0 W/m 0,9 C -1,7 C 29,0 km/h (5 Bft) 100,00 %
05.03.2019 05:56 5,9 C 6,7 C 5,0 C 70 % 1009,3 hPa 0,0 l/m 15,6 km/h (3 Bft) W 279 0 min 0,000 mm 0,0 UV-I 0 W/m 0,9 C -0,1 C 22,5 km/h (4 Bft) 100,00 %
05.03.2019 05:58 5,9 C 6,7 C 5,0 C 70 % 1009,3 hPa 0,0 l/m 15,6 km/h (3 Bft) W 262 0 min 0,000 mm 0,0 UV-I 0 W/m 0,9 C -0,1 C 24,1 km/h (4 Bft) 100,00 %
05.03.2019 06:00 6,0 C 6,7 C 5,0 C 70 % 1009,1 hPa 0,0 l/m 22,8 km/h (4 Bft) W 275 0 min 0,050 mm 0,0 UV-I 0 W/m 1,0 C -2,9 C 37,0 km/h (5 Bft) 98,00 %
05.03.2019 06:02 6,0 C 6,7 C 5,0 C 69 % 1009,1 hPa 0,0 l/m 17,4 km/h (3 Bft) SW 233 0 min 0,000 mm 0,0 UV-I 0 W/m 0,8 C -0,8 C 27,4 km/h (4 Bft) 100,00 %
05.03.2019 06:04 6,0 C 6,7 C 5,0 C 69 % 1009,0 hPa 0,0 l/m 15,7 km/h (3 Bft) W 269 0 min 0,000 mm 0,0 UV-I 0 W/m 0,8 C -0,1 C 27,4 km/h (4 Bft) 100,00 %
05.03.2019 06:06 6,0 C 6,7 C 5,0 C 69 % 1009,1 hPa 0,0 l/m 17,8 km/h (3 Bft) W-SW 246 0 min 0,000 mm 0,0 UV-I 0 W/m 0,8 C -1,0 C 27,4 km/h (4 Bft) 100,00 %
05.03.2019 06:08 6,0 C 6,7 C 5,0 C 69 % 1009,1 hPa 0,0 l/m 21,8 km/h (4 Bft) W 269 0 min 0,000 mm 0,0 UV-I 0 W/m 0,8 C -2,5 C 32,2 km/h (5 Bft) 100,00 %
05.03.2019 06:10 6,0 C 6,7 C 5,0 C 69 % 1009,1 hPa 0,0 l/m 15,8 km/h (3 Bft) W-SW 255 0 min 0,000 mm 0,0 UV-I 0 W/m 0,8 C -0,1 C 24,1 km/h (4 Bft) 100,00 %
05.03.2019 06:12 6,0 C 6,7 C 5,0 C 69 % 1009,2 hPa 0,0 l/m 13,1 km/h (3 Bft) W-NW 294 0 min 0,000 mm 0,0 UV-I 0 W/m 0,8 C 1,3 C 24,1 km/h (4 Bft) 97,83 %
05.03.2019 06:14 6,0 C 6,7 C 5,0 C 70 % 1009,2 hPa 0,0 l/m 16,8 km/h (3 Bft) W-SW 253 0 min 0,000 mm 0,0 UV-I 0 W/m 1,0 C -0,6 C 25,7 km/h (4 Bft) 100,00 %
05.03.2019 06:16 5,9 C 6,7 C 4,4 C 69 % 1009,2 hPa 0,0 l/m 12,8 km/h (3 Bft) W 271 0 min 0,000 mm 0,0 UV-I 0 W/m 0,7 C 1,3 C 22,5 km/h (4 Bft) 97,87 %
05.03.2019 06:18 5,9 C 6,7 C 4,4 C 70 % 1009,2 hPa 0,0 l/m 15,0 km/h (3 Bft) W-NW 293 0 min 0,000 mm 0,0 UV-I 0 W/m 0,9 C 0,2 C 24,1 km/h (4 Bft) 97,87 %
05.03.2019 06:20 5,9 C 6,7 C 4,4 C 70 % 1009,2 hPa 0,0 l/m 15,0 km/h (3 Bft) W 279 0 min 0,000 mm 0,0 UV-I 0 W/m 0,9 C 0,2 C 20,9 km/h (4 Bft) 97,96 %
05.03.2019 06:22 5,9 C 6,7 C 4,4 C 70 % 1009,2 hPa 0,0 l/m 17,1 km/h (3 Bft) W-SW 248 0 min 0,000 mm 0,0 UV-I 0 W/m 0,9 C -0,8 C 27,4 km/h (4 Bft) 97,87 %
05.03.2019 06:24 5,9 C 6,7 C 4,4 C 70 % 1009,2 hPa 0,0 l/m 16,3 km/h (3 Bft) W 278 0 min 0,000 mm 0,0 UV-I 0 W/m 0,9 C -0,5 C 25,7 km/h (4 Bft) 97,87 %
05.03.2019 06:26 5,9 C 6,7 C 4,4 C 70 % 1009,3 hPa 0,0 l/m 14,7 km/h (3 Bft) W 274 0 min 0,000 mm 0,0 UV-I 0 W/m 0,9 C 0,3 C 22,5 km/h (4 Bft) 97,87 %
05.03.2019 06:28 5,9 C 6,7 C 5,0 C 70 % 1009,3 hPa 0,0 l/m 20,2 km/h (4 Bft) W 266 0 min 0,000 mm 0,0 UV-I 0 W/m 0,9 C -2,1 C 30,6 km/h (5 Bft) 95,74 %
05.03.2019 06:30 5,9 C 6,7 C 5,0 C 70 % 1009,3 hPa 0,0 l/m 17,5 km/h (3 Bft) W-NW 286 0 min 0,000 mm 0,0 UV-I 0 W/m 0,9 C -1,0 C 27,4 km/h (4 Bft) 95,74 %
05.03.2019 06:32 5,9 C 6,7 C 5,0 C 70 % 1009,3 hPa 0,0 l/m 22,6 km/h (4 Bft) W 275 0 min 0,000 mm 0,0 UV-I 1 W/m 0,9 C -2,9 C 32,2 km/h (5 Bft) 95,74 %
05.03.2019 06:34 5,9 C 6,7 C 5,0 C 70 % 1009,4 hPa 0,0 l/m 17,8 km/h (3 Bft) W 281 0 min 0,000 mm 0,0 UV-I 5 W/m 0,9 C -1,1 C 29,0 km/h (5 Bft) 93,62 %
05.03.2019 06:36 5,9 C 6,7 C 5,0 C 70 % 1009,3 hPa 0,0 l/m 17,9 km/h (3 Bft) W-SW 254 0 min 0,000 mm 0,0 UV-I 5 W/m 0,9 C -1,2 C 30,6 km/h (5 Bft) 91,49 %
05.03.2019 06:38 5,9 C 6,7 C 4,4 C 70 % 1009,3 hPa 0,0 l/m 18,1 km/h (3 Bft) W 263 0 min 0,000 mm 0,0 UV-I 5 W/m 0,9 C -1,2 C 22,5 km/h (4 Bft) 95,74 %
05.03.2019 06:40 5,9 C 6,7 C 4,4 C 69 % 1009,3 hPa 0,0 l/m 15,8 km/h (3 Bft) W 265 0 min 0,000 mm 0,0 UV-I 7 W/m 0,7 C -0,2 C 20,9 km/h (4 Bft) 91,49 %
05.03.2019 06:42 5,9 C 6,7 C 4,4 C 69 % 1009,4 hPa 0,0 l/m 13,7 km/h (3 Bft) W 277 0 min 0,000 mm 0,0 UV-I 7 W/m 0,7 C 0,8 C 20,9 km/h (4 Bft) 92,00 %
05.03.2019 06:45 5,8 C 6,7 C 4,4 C 70 % 1009,4 hPa 0,0 l/m 12,9 km/h (3 Bft) W-SW 252 0 min 0,000 mm 0,0 UV-I 7 W/m 0,8 C 1,2 C 20,9 km/h (4 Bft) 94,37 %
05.03.2019 06:46 5,8 C 6,7 C 4,4 C 70 % 1009,4 hPa 0,0 l/m 13,3 km/h (3 Bft) W 267 0 min 0,000 mm 0,0 UV-I 7 W/m 0,8 C 0,9 C 17,7 km/h (3 Bft) 100,00 %
05.03.2019 06:48 5,8 C 6,7 C 5,0 C 70 % 1009,4 hPa 0,0 l/m 12,9 km/h (3 Bft) W-SW 238 0 min 0,000 mm 0,0 UV-I 7 W/m 0,8 C 1,2 C 19,3 km/h (3 Bft) 93,62 %
05.03.2019 06:50 5,8 C 6,7 C 5,0 C 70 % 1009,3 hPa 0,0 l/m 21,1 km/h (4 Bft) W-SW 250 0 min 0,000 mm 0,0 UV-I 9 W/m 0,8 C -2,6 C 33,8 km/h (5 Bft) 93,62 %
05.03.2019 06:52 5,8 C 6,7 C 5,0 C 70 % 1009,3 hPa 0,0 l/m 23,6 km/h (4 Bft) W-SW 240 0 min 0,000 mm 0,0 UV-I 11 W/m 0,8 C -3,4 C 33,8 km/h (5 Bft) 94,87 %
05.03.2019 06:54 5,9 C 6,7 C 5,0 C 70 % 1009,4 hPa 0,0 l/m 23,6 km/h (4 Bft) W-SW 252 0 min 0,000 mm 0,0 UV-I 14 W/m 0,9 C -3,3 C 46,7 km/h (6 Bft) 91,49 %
05.03.2019 06:56 5,9 C 6,7 C 5,0 C 70 % 1009,3 hPa 0,0 l/m 22,6 km/h (4 Bft) W 265 0 min 0,000 mm 0,0 UV-I 16 W/m 0,9 C -2,9 C 30,6 km/h (5 Bft) 96,00 %
05.03.2019 06:58 5,9 C 6,7 C 5,0 C 70 % 1009,3 hPa 0,0 l/m 17,9 km/h (3 Bft) W-SW 243 0 min 0,000 mm 0,0 UV-I 19 W/m 0,9 C -1,2 C 29,0 km/h (5 Bft) 93,62 %
05.03.2019 07:00 5,9 C 6,7 C 5,0 C 70 % 1009,3 hPa 0,0 l/m 17,5 km/h (3 Bft) W 259 0 min 0,051 mm 0,0 UV-I 22 W/m 0,9 C -1,0 C 25,7 km/h (4 Bft) 95,74 %
05.03.2019 07:02 5,9 C 6,7 C 5,0 C 70 % 1009,3 hPa 0,0 l/m 16,4 km/h (3 Bft) W-SW 255 0 min 0,000 mm 0,0 UV-I 21 W/m 0,9 C -0,5 C 22,5 km/h (4 Bft) 95,74 %
05.03.2019 07:04 5,9 C 6,7 C 5,0 C 70 % 1009,4 hPa 0,0 l/m 16,1 km/h (3 Bft) W-SW 246 0 min 0,000 mm 0,0 UV-I 16 W/m 0,9 C -0,4 C 24,1 km/h (4 Bft) 93,62 %
05.03.2019 07:06 5,8 C 6,7 C 5,0 C 70 % 1009,5 hPa 0,0 l/m 13,6 km/h (3 Bft) W 261 0 min 0,000 mm 0,0 UV-I 14 W/m 0,8 C 0,8 C 24,1 km/h (4 Bft) 95,74 %
05.03.2019 07:08 5,8 C 6,7 C 5,0 C 70 % 1009,3 hPa 0,0 l/m 18,4 km/h (3 Bft) W 261 0 min 0,000 mm 0,0 UV-I 13 W/m 0,8 C -1,5 C 33,8 km/h (5 Bft) 95,74 %
05.03.2019 07:10 5,8 C 6,7 C 5,0 C 71 % 1009,4 hPa 0,0 l/m 17,7 km/h (3 Bft) W-SW 243 0 min 0,000 mm 0,0 UV-I 18 W/m 1,0 C -1,2 C 27,4 km/h (4 Bft) 98,00 %
05.03.2019 07:12 5,8 C 6,7 C 5,0 C 71 % 1009,4 hPa 0,0 l/m 17,4 km/h (3 Bft) W-SW 253 0 min 0,000 mm 0,0 UV-I 21 W/m 1,0 C -1,1 C 30,6 km/h (5 Bft) 95,74 %
05.03.2019 07:14 5,8 C 6,7 C 5,0 C 71 % 1009,3 hPa 0,0 l/m 20,6 km/h (4 Bft) SW 229 0 min 0,000 mm 0,0 UV-I 20 W/m 1,0 C -2,4 C 35,4 km/h (5 Bft) 97,37 %
05.03.2019 07:16 5,8 C 6,7 C 5,0 C 70 % 1009,4 hPa 0,0 l/m 21,9 km/h (4 Bft) S-SW 211 0 min 0,000 mm 0,0 UV-I 25 W/m 0,8 C -2,8 C 37,0 km/h (5 Bft) 98,00 %
05.03.2019 07:18 5,8 C 6,7 C 5,0 C 70 % 1009,5 hPa 0,0 l/m 19,6 km/h (3 Bft) W-SW 245 0 min 0,000 mm 0,0 UV-I 32 W/m 0,8 C -2,0 C 27,4 km/h (4 Bft) 97,87 %
05.03.2019 07:20 5,8 C 6,7 C 5,0 C 71 % 1009,4 hPa 0,0 l/m 18,6 km/h (3 Bft) W-SW 252 0 min 0,000 mm 0,0 UV-I 27 W/m 1,0 C -1,6 C 27,4 km/h (4 Bft) 95,74 %
05.03.2019 07:23 5,8 C 6,7 C 5,6 C 71 % 1009,4 hPa 0,0 l/m 21,5 km/h (4 Bft) W 263 0 min 0,000 mm 0,0 UV-I 36 W/m 1,0 C -2,7 C 38,6 km/h (5 Bft) 98,59 %
05.03.2019 07:24 5,8 C 6,7 C 5,6 C 71 % 1009,4 hPa 0,0 l/m 21,6 km/h (4 Bft) W 273 0 min 0,000 mm 0,0 UV-I 55 W/m 1,0 C -2,7 C 30,6 km/h (5 Bft) 95,65 %
05.03.2019 07:26 5,8 C 6,7 C 5,6 C 71 % 1009,4 hPa 0,0 l/m 19,9 km/h (4 Bft) W-SW 254 0 min 0,000 mm 0,0 UV-I 66 W/m 1,0 C -2,1 C 30,6 km/h (5 Bft) 95,74 %
05.03.2019 07:28 5,8 C 6,7 C 5,6 C 71 % 1009,4 hPa 0,0 l/m 14,2 km/h (3 Bft) W-SW 250 0 min 0,000 mm 0,0 UV-I 70 W/m 1,0 C 0,5 C 24,1 km/h (4 Bft) 95,74 %
05.03.2019 07:30 5,8 C 6,7 C 5,6 C 71 % 1009,5 hPa 0,0 l/m 15,5 km/h (3 Bft) W 267 0 min 0,000 mm 0,0 UV-I 69 W/m 1,0 C -0,2 C 22,5 km/h (4 Bft) 94,44 %
05.03.2019 07:32 5,8 C 6,7 C 5,6 C 72 % 1009,4 hPa 0,0 l/m 17,9 km/h (3 Bft) W-NW 289 0 min 0,000 mm 0,0 UV-I 62 W/m 1,2 C -1,3 C 24,1 km/h (4 Bft) 98,44 %
05.03.2019 07:34 5,8 C 6,7 C 5,6 C 71 % 1009,5 hPa 0,0 l/m 20,5 km/h (4 Bft) W 269 0 min 0,000 mm 0,0 UV-I 55 W/m 1,0 C -2,3 C 35,4 km/h (5 Bft) 93,75 %
05.03.2019 07:36 5,8 C 6,7 C 5,6 C 71 % 1009,5 hPa 0,0 l/m 17,9 km/h (3 Bft) W-NW 287 0 min 0,000 mm 0,0 UV-I 48 W/m 1,0 C -1,3 C 24,1 km/h (4 Bft) 95,74 %
05.03.2019 07:38 5,8 C 6,7 C 5,6 C 72 % 1009,3 hPa 0,0 l/m 16,8 km/h (3 Bft) W-SW 252 0 min 0,000 mm 0,0 UV-I 54 W/m 1,2 C -0,8 C 30,6 km/h (5 Bft) 94,29 %
05.03.2019 07:40 5,8 C 6,7 C 5,6 C 72 % 1009,5 hPa 0,0 l/m 18,3 km/h (3 Bft) W-SW 249 0 min 0,000 mm 0,0 UV-I 63 W/m 1,2 C -1,5 C 27,4 km/h (4 Bft) 93,62 %
05.03.2019 07:42 5,8 C 6,7 C 6,1 C 72 % 1009,5 hPa 0,0 l/m 16,6 km/h (3 Bft) W-SW 242 0 min 0,000 mm 0,0 UV-I 73 W/m 1,2 C -0,7 C 24,1 km/h (4 Bft) 95,74 %
05.03.2019 07:44 5,8 C 6,7 C 6,1 C 72 % 1009,5 hPa 0,0 l/m 18,0 km/h (3 Bft) W-SW 238 0 min 0,000 mm 0,0 UV-I 75 W/m 1,2 C -1,3 C 24,1 km/h (4 Bft) 93,62 %
05.03.2019 07:46 5,8 C 6,7 C 6,1 C 71 % 1009,5 hPa 0,0 l/m 18,8 km/h (3 Bft) SW 234 0 min 0,000 mm 0,0 UV-I 72 W/m 1,0 C -1,7 C 25,7 km/h (4 Bft) 92,00 %
05.03.2019 07:48 5,8 C 6,7 C 6,1 C 71 % 1009,5 hPa 0,0 l/m 15,5 km/h (3 Bft) W-SW 241 0 min 0,000 mm 0,0 UV-I 80 W/m 1,0 C -0,2 C 27,4 km/h (4 Bft) 98,00 %
05.03.2019 07:50 5,9 C 6,7 C 6,1 C 71 % 1009,5 hPa 0,0 l/m 18,6 km/h (3 Bft) W-SW 252 0 min 0,000 mm 0,0 UV-I 89 W/m 1,1 C -1,5 C 25,7 km/h (4 Bft) 97,87 %
05.03.2019 07:52 5,9 C 6,7 C 6,1 C 71 % 1009,6 hPa 0,0 l/m 15,7 km/h (3 Bft) N 360 0 min 0,000 mm 0,0 UV-I 88 W/m 1,1 C -0,2 C 22,5 km/h (4 Bft) 96,00 %
05.03.2019 07:54 5,9 C 6,7 C 6,1 C 71 % 1009,5 hPa 0,0 l/m 15,0 km/h (3 Bft) W-SW 244 0 min 0,000 mm 0,0 UV-I 87 W/m 1,1 C 0,2 C 22,5 km/h (4 Bft) 97,87 %
05.03.2019 07:56 5,9 C 6,7 C 6,1 C 71 % 1009,5 hPa 0,0 l/m 15,9 km/h (3 Bft) W-SW 255 0 min 0,000 mm 0,0 UV-I 84 W/m 1,1 C -0,3 C 22,5 km/h (4 Bft) 100,00 %
05.03.2019 07:58 5,9 C 6,7 C 6,1 C 71 % 1009,5 hPa 0,0 l/m 13,1 km/h (3 Bft) SW 219 0 min 0,000 mm 0,0 UV-I 93 W/m 1,1 C 1,2 C 22,5 km/h (4 Bft) 97,87 %
05.03.2019 08:00 5,9 C 6,7 C 6,1 C 72 % 1009,5 hPa 0,0 l/m 13,5 km/h (3 Bft) W 265 0 min 0,076 mm 0,0 UV-I 110 W/m 1,2 C 0,9 C 19,3 km/h (3 Bft) 93,62 %
05.03.2019 08:02 5,9 C 6,7 C 6,7 C 71 % 1009,5 hPa 0,0 l/m 15,0 km/h (3 Bft) W 259 0 min 0,000 mm 0,0 UV-I 107 W/m 1,1 C 0,2 C 24,1 km/h (4 Bft) 100,00 %
05.03.2019 08:04 5,9 C 6,7 C 6,7 C 71 % 1009,5 hPa 0,0 l/m 13,4 km/h (3 Bft) W-SW 254 0 min 0,000 mm 0,0 UV-I 98 W/m 1,1 C 1,0 C 19,3 km/h (3 Bft) 97,87 %
05.03.2019 08:06 6,0 C 6,7 C 6,7 C 71 % 1009,5 hPa 0,0 l/m 14,4 km/h (3 Bft) SW 223 0 min 0,000 mm 0,0 UV-I 91 W/m 1,1 C 0,6 C 20,9 km/h (4 Bft) 100,00 %
05.03.2019 08:08 6,0 C 6,7 C 6,1 C 71 % 1009,5 hPa 0,0 l/m 12,2 km/h (2 Bft) SW 232 0 min 0,000 mm 0,0 UV-I 89 W/m 1,1 C 1,8 C 16,1 km/h (3 Bft) 100,00 %
05.03.2019 08:10 6,0 C 6,7 C 6,1 C 71 % 1009,6 hPa 0,0 l/m 13,6 km/h (3 Bft) W 266 0 min 0,000 mm 0,0 UV-I 83 W/m 1,1 C 1,0 C 19,3 km/h (3 Bft) 97,87 %
05.03.2019 08:12 6,0 C 6,7 C 6,1 C 71 % 1009,5 hPa 0,0 l/m 15,3 km/h (3 Bft) W-SW 254 0 min 0,000 mm 0,0 UV-I 75 W/m 1,1 C 0,1 C 22,5 km/h (4 Bft) 97,87 %
05.03.2019 08:14 6,1 C 6,7 C 6,1 C 70 % 1009,6 hPa 0,0 l/m 18,3 km/h (3 Bft) W-SW 258 0 min 0,000 mm 0,0 UV-I 65 W/m 1,0 C -1,1 C 24,1 km/h (4 Bft) 97,87 %
05.03.2019 08:16 6,1 C 6,7 C 6,1 C 69 % 1009,5 hPa 0,0 l/m 15,7 km/h (3 Bft) W-SW 242 0 min 0,000 mm 0,0 UV-I 71 W/m 0,8 C 0,1 C 22,5 km/h (4 Bft) 97,87 %
05.03.2019 08:18 6,1 C 6,7 C 6,1 C 70 % 1009,6 hPa 0,0 l/m 16,1 km/h (3 Bft) W 269 0 min 0,000 mm 0,0 UV-I 92 W/m 1,0 C -0,1 C 20,9 km/h (4 Bft) 100,00 %
05.03.2019 08:20 6,1 C 6,7 C 6,7 C 69 % 1009,6 hPa 0,0 l/m 16,6 km/h (3 Bft) W 267 2 min 0,000 mm 0,0 UV-I 164 W/m 0,8 C -0,3 C 25,7 km/h (4 Bft) 97,87 %
05.03.2019 08:22 6,2 C 6,7 C 6,7 C 69 % 1009,5 hPa 0,0 l/m 17,5 km/h (3 Bft) W-SW 246 2 min 0,000 mm 0,0 UV-I 257 W/m 0,9 C -0,6 C 27,4 km/h (4 Bft) 97,87 %
05.03.2019 08:24 6,3 C 6,7 C 7,2 C 68 % 1009,5 hPa 0,0 l/m 19,4 km/h (3 Bft) W 272 2 min 0,000 mm 0,0 UV-I 276 W/m 0,8 C -1,3 C 29,0 km/h (5 Bft) 100,00 %
05.03.2019 08:26 6,5 C 6,7 C 7,2 C 68 % 1009,5 hPa 0,0 l/m 19,0 km/h (3 Bft) SW 235 2 min 0,000 mm 0,0 UV-I 291 W/m 1,0 C -0,9 C 27,4 km/h (4 Bft) 97,87 %
05.03.2019 08:28 6,6 C 6,7 C 7,2 C 67 % 1009,5 hPa 0,0 l/m 20,0 km/h (4 Bft) W 261 0 min 0,000 mm 0,0 UV-I 125 W/m 0,9 C -1,1 C 29,0 km/h (5 Bft) 100,00 %
05.03.2019 08:30 6,6 C 6,7 C 6,7 C 67 % 1009,5 hPa 0,0 l/m 17,9 km/h (3 Bft) W-SW 254 0 min 0,000 mm 0,0 UV-I 152 W/m 0,9 C -0,3 C 30,6 km/h (5 Bft) 100,00 %
05.03.2019 08:32 6,7 C 6,7 C 6,7 C 67 % 1009,5 hPa 0,0 l/m 17,6 km/h (3 Bft) W-SW 252 0 min 0,000 mm 0,0 UV-I 111 W/m 1,0 C -0,0 C 27,4 km/h (4 Bft) 100,00 %
05.03.2019 08:34 6,7 C 6,7 C 7,2 C 67 % 1009,5 hPa 0,0 l/m 16,5 km/h (3 Bft) SW 220 2 min 0,000 mm 0,0 UV-I 245 W/m 1,0 C 0,4 C 27,4 km/h (4 Bft) 100,00 %
05.03.2019 08:36 6,8 C 6,7 C 7,2 C 66 % 1009,6 hPa 0,0 l/m 18,2 km/h (3 Bft) SW 224 0 min 0,000 mm 0,0 UV-I 115 W/m 0,9 C -0,2 C 32,2 km/h (5 Bft) 97,87 %
05.03.2019 08:38 6,8 C 6,7 C 7,2 C 66 % 1009,6 hPa 0,0 l/m 19,5 km/h (3 Bft) SW 221 0 min 0,000 mm 0,0 UV-I 162 W/m 0,9 C -0,7 C 25,7 km/h (4 Bft) 97,87 %
05.03.2019 08:40 6,8 C 6,7 C 7,8 C 66 % 1009,7 hPa 0,0 l/m 19,2 km/h (3 Bft) W 261 2 min 0,000 mm 0,0 UV-I 203 W/m 0,9 C -0,5 C 30,6 km/h (5 Bft) 97,87 %
05.03.2019 08:42 6,9 C 6,7 C 7,8 C 66 % 1009,7 hPa 0,0 l/m 18,5 km/h (3 Bft) W 278 0 min 0,000 mm 0,0 UV-I 148 W/m 1,0 C -0,1 C 29,0 km/h (5 Bft) 96,00 %
05.03.2019 08:44 6,9 C 6,7 C 7,8 C 66 % 1009,7 hPa 0,0 l/m 16,4 km/h (3 Bft) W 268 0 min 0,000 mm 0,0 UV-I 145 W/m 1,0 C 0,7 C 24,1 km/h (4 Bft) 95,74 %
05.03.2019 08:46 7,0 C 6,7 C 7,8 C 66 % 1009,7 hPa 0,0 l/m 18,1 km/h (3 Bft) W-SW 250 0 min 0,000 mm 0,0 UV-I 135 W/m 1,1 C 0,1 C 27,4 km/h (4 Bft) 97,92 %
05.03.2019 08:48 7,1 C 6,7 C 7,8 C 66 % 1009,7 hPa 0,0 l/m 21,2 km/h (4 Bft) W 270 0 min 0,000 mm 0,0 UV-I 142 W/m 1,2 C -0,9 C 30,6 km/h (5 Bft) 97,87 %
05.03.2019 08:50 7,1 C 6,7 C 7,8 C 65 % 1009,8 hPa 0,0 l/m 19,9 km/h (4 Bft) SW 236 0 min 0,000 mm 0,0 UV-I 154 W/m 1,0 C -0,4 C 40,2 km/h (6 Bft) 97,30 %
05.03.2019 08:52 7,1 C 6,7 C 7,8 C 65 % 1009,8 hPa 0,0 l/m 21,4 km/h (4 Bft) S-SW 208 0 min 0,000 mm 0,0 UV-I 135 W/m 1,0 C -1,0 C 38,6 km/h (5 Bft) 92,00 %
05.03.2019 08:54 7,2 C 6,7 C 7,8 C 65 % 1009,8 hPa 0,0 l/m 19,1 km/h (3 Bft) W 261 0 min 0,000 mm 0,0 UV-I 127 W/m 1,1 C 0,0 C 27,4 km/h (4 Bft) 95,74 %
05.03.2019 08:56 7,2 C 6,7 C 7,8 C 65 % 1009,8 hPa 0,0 l/m 20,2 km/h (4 Bft) W-NW 286 0 min 0,000 mm 0,0 UV-I 116 W/m 1,1 C -0,4 C 32,2 km/h (5 Bft) 95,74 %
05.03.2019 08:58 7,2 C 6,7 C 7,8 C 65 % 1009,8 hPa 0,0 l/m 21,1 km/h (4 Bft) W 279 0 min 0,000 mm 0,0 UV-I 114 W/m 1,1 C -0,7 C 37,0 km/h (5 Bft) 97,87 %
05.03.2019 09:00 7,2 C 6,7 C 7,8 C 65 % 1009,9 hPa 0,0 l/m 18,5 km/h (3 Bft) W 262 0 min 0,102 mm 0,0 UV-I 132 W/m 1,1 C 0,2 C 27,4 km/h (4 Bft) 89,36 %
05.03.2019 09:02 7,2 C 6,7 C 7,8 C 64 % 1009,9 hPa 0,0 l/m 21,6 km/h (4 Bft) W 267 0 min 0,000 mm 0,0 UV-I 144 W/m 0,9 C -0,9 C 35,4 km/h (5 Bft) 95,74 %
05.03.2019 09:04 7,3 C 6,7 C 8,3 C 65 % 1009,9 hPa 0,0 l/m 22,7 km/h (4 Bft) W 275 0 min 0,000 mm 0,0 UV-I 149 W/m 1,2 C -1,1 C 40,2 km/h (6 Bft) 94,00 %
05.03.2019 09:06 7,3 C 6,7 C 8,3 C 65 % 1010,0 hPa 0,0 l/m 15,5 km/h (3 Bft) W 267 0 min 0,000 mm 0,0 UV-I 138 W/m 1,2 C 1,6 C 22,5 km/h (4 Bft) 93,62 %
05.03.2019 09:08 7,3 C 6,7 C 8,3 C 65 % 1009,9 hPa 0,0 l/m 22,4 km/h (4 Bft) W-SW 247 0 min 0,000 mm 0,0 UV-I 147 W/m 1,2 C -1,0 C 35,4 km/h (5 Bft) 93,62 %
05.03.2019 09:10 7,3 C 6,7 C 8,3 C 64 % 1010,1 hPa 0,0 l/m 23,1 km/h (4 Bft) W 263 0 min 0,000 mm 0,0 UV-I 178 W/m 1,0 C -1,3 C 43,5 km/h (6 Bft) 97,87 %
05.03.2019 09:12 7,3 C 6,7 C 8,3 C 64 % 1010,1 hPa 0,0 l/m 24,8 km/h (4 Bft) W 279 0 min 0,000 mm 0,0 UV-I 188 W/m 1,0 C -1,8 C 35,4 km/h (5 Bft) 97,87 %
05.03.2019 09:14 7,4 C 6,7 C 8,3 C 65 % 1010,1 hPa 0,0 l/m 21,6 km/h (4 Bft) W-SW 258 0 min 0,000 mm 0,0 UV-I 183 W/m 1,3 C -0,6 C 33,8 km/h (5 Bft) 96,00 %
05.03.2019 09:16 7,4 C 6,7 C 8,3 C 64 % 1010,1 hPa 0,0 l/m 24,6 km/h (4 Bft) W 278 0 min 0,000 mm 0,0 UV-I 174 W/m 1,0 C -1,6 C 35,4 km/h (5 Bft) 100,00 %
05.03.2019 09:18 7,4 C 6,7 C 8,9 C 64 % 1010,2 hPa 0,0 l/m 21,7 km/h (4 Bft) W 269 0 min 0,000 mm 0,0 UV-I 182 W/m 1,0 C -0,7 C 33,8 km/h (5 Bft) 97,87 %
05.03.2019 09:20 7,4 C 6,7 C 8,9 C 64 % 1010,2 hPa 0,0 l/m 20,7 km/h (4 Bft) W 261 0 min 0,000 mm 0,0 UV-I 188 W/m 1,0 C -0,3 C 29,0 km/h (5 Bft) 100,00 %
05.03.2019 09:22 7,4 C 6,7 C 8,9 C 64 % 1010,2 hPa 0,0 l/m 19,2 km/h (3 Bft) SW 225 0 min 0,000 mm 0,0 UV-I 167 W/m 1,0 C 0,2 C 27,4 km/h (4 Bft) 100,00 %
05.03.2019 09:24 7,5 C 6,7 C 8,9 C 64 % 1010,3 hPa 0,0 l/m 19,6 km/h (3 Bft) W 272 0 min 0,000 mm 0,0 UV-I 156 W/m 1,1 C 0,2 C 29,0 km/h (5 Bft) 98,00 %
05.03.2019 09:26 7,5 C 6,7 C 8,9 C 64 % 1010,3 hPa 0,0 l/m 21,7 km/h (4 Bft) W 268 0 min 0,000 mm 0,0 UV-I 153 W/m 1,1 C -0,5 C 30,6 km/h (5 Bft) 97,87 %
05.03.2019 09:28 7,5 C 6,7 C 8,9 C 64 % 1010,3 hPa 0,0 l/m 20,2 km/h (4 Bft) W-SW 246 0 min 0,000 mm 0,0 UV-I 175 W/m 1,1 C -0,0 C 29,0 km/h (5 Bft) 100,00 %
05.03.2019 09:30 7,5 C 6,7 C 8,9 C 63 % 1010,2 hPa 0,0 l/m 26,4 km/h (4 Bft) W 264 0 min 0,000 mm 0,3 UV-I 185 W/m 0,9 C -1,9 C 45,1 km/h (6 Bft) 100,00 %
05.03.2019 09:32 7,6 C 6,7 C 8,9 C 63 % 1010,3 hPa 0,0 l/m 24,2 km/h (4 Bft) W-SW 254 0 min 0,000 mm 0,5 UV-I 200 W/m 1,0 C -1,2 C 32,2 km/h (5 Bft) 100,00 %
05.03.2019 09:34 7,6 C 6,7 C 9,4 C 63 % 1010,3 hPa 0,0 l/m 22,8 km/h (4 Bft) W-SW 239 0 min 0,000 mm 0,6 UV-I 226 W/m 1,0 C -0,8 C 29,0 km/h (5 Bft) 100,00 %
05.03.2019 09:36 7,7 C 6,7 C 9,4 C 63 % 1010,3 hPa 0,0 l/m 20,8 km/h (4 Bft) SW 234 2 min 0,000 mm 0,6 UV-I 245 W/m 1,1 C 0,0 C 32,2 km/h (5 Bft) 97,87 %
05.03.2019 09:38 7,7 C 6,7 C 9,4 C 63 % 1010,3 hPa 0,0 l/m 22,8 km/h (4 Bft) W 265 0 min 0,000 mm 0,5 UV-I 238 W/m 1,1 C -0,6 C 37,0 km/h (5 Bft) 100,00 %
05.03.2019 09:40 7,8 C 6,7 C 9,4 C 62 % 1010,3 hPa 0,0 l/m 26,0 km/h (4 Bft) SW 227 0 min 0,000 mm 0,5 UV-I 226 W/m 1,0 C -1,4 C 38,6 km/h (5 Bft) 95,74 %
05.03.2019 09:42 7,8 C 6,7 C 9,4 C 62 % 1010,3 hPa 0,0 l/m 23,7 km/h (4 Bft) W-SW 247 0 min 0,000 mm 0,5 UV-I 200 W/m 1,0 C -0,8 C 33,8 km/h (5 Bft) 100,00 %
05.03.2019 09:44 7,8 C 6,7 C 9,4 C 62 % 1010,3 hPa 0,0 l/m 22,8 km/h (4 Bft) W 259 0 min 0,000 mm 0,5 UV-I 201 W/m 1,0 C -0,5 C 37,0 km/h (5 Bft) 100,00 %
05.03.2019 09:46 7,8 C 6,7 C 9,4 C 62 % 1010,4 hPa 0,0 l/m 24,0 km/h (4 Bft) W 263 0 min 0,000 mm 0,5 UV-I 219 W/m 1,0 C -0,9 C 43,5 km/h (6 Bft) 100,00 %
05.03.2019 09:48 7,8 C 6,7 C 9,4 C 62 % 1010,4 hPa 0,0 l/m 23,9 km/h (4 Bft) S-SW 211 0 min 0,000 mm 0,5 UV-I 222 W/m 1,0 C -0,8 C 37,0 km/h (5 Bft) 100,00 %
05.03.2019 09:50 7,8 C 6,7 C 9,4 C 61 % 1010,3 hPa 0,0 l/m 27,0 km/h (4 Bft) W-SW 240 0 min 0,000 mm 0,3 UV-I 213 W/m 0,8 C -1,7 C 41,8 km/h (6 Bft) 100,00 %
05.03.2019 09:52 7,9 C 6,7 C 9,4 C 62 % 1010,4 hPa 0,0 l/m 18,9 km/h (3 Bft) W-SW 245 0 min 0,000 mm 0,3 UV-I 188 W/m 1,1 C 1,0 C 27,4 km/h (4 Bft) 97,87 %
05.03.2019 09:54 7,9 C 6,7 C 9,4 C 62 % 1010,4 hPa 0,0 l/m 23,5 km/h (4 Bft) SW 228 0 min 0,000 mm 0,2 UV-I 153 W/m 1,1 C -0,6 C 35,4 km/h (5 Bft) 97,87 %
05.03.2019 09:56 7,9 C 6,7 C 8,9 C 62 % 1010,4 hPa 0,0 l/m 21,4 km/h (4 Bft) W-NW 286 0 min 0,000 mm 0,0 UV-I 133 W/m 1,1 C 0,1 C 40,2 km/h (6 Bft) 100,00 %
05.03.2019 09:58 7,8 C 6,7 C 8,9 C 62 % 1010,5 hPa 0,0 l/m 25,9 km/h (4 Bft) W-SW 257 0 min 0,000 mm 0,0 UV-I 110 W/m 1,0 C -1,4 C 40,2 km/h (6 Bft) 100,00 %
05.03.2019 10:00 7,8 C 6,7 C 8,3 C 62 % 1010,5 hPa 0,0 l/m 22,9 km/h (4 Bft) W 263 0 min 0,152 mm 0,0 UV-I 100 W/m 1,0 C -0,5 C 40,2 km/h (6 Bft) 100,00 %
05.03.2019 10:02 7,8 C 6,7 C 8,3 C 62 % 1010,5 hPa 0,0 l/m 20,5 km/h (4 Bft) W 268 0 min 0,000 mm 0,0 UV-I 109 W/m 1,0 C 0,3 C 33,8 km/h (5 Bft) 100,00 %
05.03.2019 10:04 7,7 C 6,7 C 8,3 C 63 % 1010,6 hPa 0,0 l/m 20,3 km/h (4 Bft) W 273 0 min 0,000 mm 0,0 UV-I 107 W/m 1,1 C 0,2 C 37,0 km/h (5 Bft) 100,00 %
05.03.2019 10:06 7,7 C 6,7 C 8,3 C 63 % 1010,6 hPa 0,0 l/m 23,6 km/h (4 Bft) W 261 0 min 0,000 mm 0,1 UV-I 132 W/m 1,1 C -0,9 C 33,8 km/h (5 Bft) 95,83 %
05.03.2019 10:08 7,7 C 6,7 C 8,9 C 63 % 1010,6 hPa 0,0 l/m 23,8 km/h (4 Bft) W 267 0 min 0,000 mm 0,5 UV-I 173 W/m 1,1 C -0,9 C 41,8 km/h (6 Bft) 97,87 %
05.03.2019 10:10 7,6 C 6,7 C 8,9 C 63 % 1010,6 hPa 0,0 l/m 22,8 km/h (4 Bft) W 268 0 min 0,000 mm 0,6 UV-I 180 W/m 1,0 C -0,8 C 37,0 km/h (5 Bft) 100,00 %
05.03.2019 10:12 7,6 C 6,7 C 9,4 C 64 % 1010,7 hPa 0,0 l/m 24,8 km/h (4 Bft) SW 236 0 min 0,000 mm 0,6 UV-I 213 W/m 1,2 C -1,4 C 37,0 km/h (5 Bft) 93,62 %
05.03.2019 10:14 7,6 C 6,7 C 10,0 C 63 % 1010,7 hPa 0,0 l/m 27,3 km/h (4 Bft) W 259 0 min 0,000 mm 0,8 UV-I 231 W/m 1,0 C -2,1 C 40,2 km/h (6 Bft) 96,00 %
05.03.2019 10:16 7,7 C 6,7 C 10,0 C 64 % 1010,6 hPa 0,0 l/m 23,7 km/h (4 Bft) W 274 0 min 0,000 mm 0,8 UV-I 244 W/m 1,3 C -0,9 C 37,0 km/h (5 Bft) 97,87 %
05.03.2019 10:18 7,7 C 6,7 C 9,4 C 64 % 1010,7 hPa 0,0 l/m 28,1 km/h (4 Bft) W-SW 250 0 min 0,000 mm 0,8 UV-I 218 W/m 1,3 C -2,1 C 37,0 km/h (5 Bft) 96,00 %
05.03.2019 10:20 7,7 C 6,7 C 9,4 C 64 % 1010,7 hPa 0,0 l/m 27,0 km/h (4 Bft) W-SW 237 0 min 0,000 mm 0,8 UV-I 249 W/m 1,3 C -1,8 C 41,8 km/h (6 Bft) 95,74 %
05.03.2019 10:22 7,7 C 6,7 C 9,4 C 64 % 1010,7 hPa 0,0 l/m 26,3 km/h (4 Bft) W-NW 284 0 min 0,000 mm 0,5 UV-I 237 W/m 1,3 C -1,6 C 35,4 km/h (5 Bft) 97,87 %
05.03.2019 10:24 7,7 C 6,7 C 8,9 C 64 % 1010,8 hPa 0,0 l/m 21,4 km/h (4 Bft) W-SW 240 0 min 0,000 mm 0,0 UV-I 136 W/m 1,3 C -0,2 C 32,2 km/h (5 Bft) 92,11 %
05.03.2019 10:26 7,6 C 6,7 C 8,3 C 65 % 1010,9 hPa 0,0 l/m 22,6 km/h (4 Bft) W-NW 284 0 min 0,000 mm 0,0 UV-I 102 W/m 1,5 C -0,7 C 35,4 km/h (5 Bft) 98,00 %
05.03.2019 10:28 7,6 C 6,7 C 7,8 C 66 % 1010,8 hPa 0,0 l/m 22,9 km/h (4 Bft) W 267 0 min 0,000 mm 0,6 UV-I 126 W/m 1,7 C -0,8 C 32,2 km/h (5 Bft) 95,74 %
05.03.2019 10:30 7,4 C 6,7 C 7,2 C 65 % 1010,8 hPa 0,0 l/m 23,3 km/h (4 Bft) W 261 0 min 0,000 mm 0,7 UV-I 159 W/m 1,3 C -1,2 C 35,4 km/h (5 Bft) 98,00 %
05.03.2019 10:32 7,4 C 6,7 C 7,8 C 65 % 1010,7 hPa 0,0 l/m 26,2 km/h (4 Bft) W 266 0 min 0,000 mm 0,7 UV-I 151 W/m 1,3 C -2,0 C 40,2 km/h (6 Bft) 98,00 %
05.03.2019 10:34 7,3 C 6,7 C 7,8 C 64 % 1010,7 hPa 0,0 l/m 27,0 km/h (4 Bft) W-NW 301 0 min 0,000 mm 0,7 UV-I 183 W/m 1,0 C -2,4 C 38,6 km/h (5 Bft) 93,62 %
05.03.2019 10:36 7,4 C 6,7 C 8,9 C 65 % 1010,8 hPa 0,0 l/m 23,5 km/h (4 Bft) S 187 0 min 0,000 mm 0,8 UV-I 237 W/m 1,3 C -1,2 C 38,6 km/h (5 Bft) 100,00 %
05.03.2019 10:38 7,5 C 6,7 C 10,0 C 65 % 1010,8 hPa 0,0 l/m 19,3 km/h (3 Bft) W 273 2 min 0,000 mm 0,9 UV-I 308 W/m 1,4 C 0,3 C 29,0 km/h (5 Bft) 96,15 %
05.03.2019 10:40 7,7 C 6,7 C 10,6 C 65 % 1010,8 hPa 0,0 l/m 16,6 km/h (3 Bft) W-NW 286 2 min 0,000 mm 0,9 UV-I 312 W/m 1,5 C 1,6 C 24,1 km/h (4 Bft) 97,92 %
05.03.2019 10:42 7,8 C 6,7 C 11,1 C 65 % 1010,8 hPa 0,0 l/m 20,6 km/h (4 Bft) SW 234 0 min 0,000 mm 0,9 UV-I 288 W/m 1,6 C 0,2 C 29,0 km/h (5 Bft) 95,74 %
05.03.2019 10:44 7,8 C 6,7 C 11,7 C 64 % 1010,8 hPa 0,0 l/m 17,7 km/h (3 Bft) W 269 0 min 0,000 mm 0,9 UV-I 292 W/m 1,4 C 1,3 C 32,2 km/h (5 Bft) 95,74 %
05.03.2019 10:46 8,0 C 6,7 C 11,7 C 63 % 1010,8 hPa 0,0 l/m 22,9 km/h (4 Bft) W-SW 238 0 min 0,000 mm 1,0 UV-I 274 W/m 1,4 C -0,3 C 38,6 km/h (5 Bft) 96,00 %
05.03.2019 10:48 8,1 C 6,7 C 11,7 C 63 % 1010,7 hPa 0,0 l/m 25,8 km/h (4 Bft) W 268 2 min 0,000 mm 0,9 UV-I 305 W/m 1,5 C -1,0 C 48,3 km/h (6 Bft) 98,00 %
05.03.2019 10:50 8,1 C 6,7 C 11,1 C 62 % 1010,8 hPa 0,0 l/m 31,2 km/h (5 Bft) W-SW 245 2 min 0,000 mm 1,0 UV-I 320 W/m 1,3 C -2,3 C 46,7 km/h (6 Bft) 97,37 %
05.03.2019 10:52 8,2 C 6,7 C 11,7 C 62 % 1010,8 hPa 0,0 l/m 24,1 km/h (4 Bft) W 264 2 min 0,000 mm 1,0 UV-I 360 W/m 1,4 C -0,3 C 32,2 km/h (5 Bft) 97,87 %
05.03.2019 10:54 8,3 C 6,7 C 12,2 C 62 % 1010,7 hPa 0,0 l/m 21,6 km/h (4 Bft) W 275 2 min 0,000 mm 1,0 UV-I 375 W/m 1,5 C 0,6 C 30,6 km/h (5 Bft) 95,74 %
05.03.2019 10:56 8,4 C 6,7 C 12,8 C 61 % 1010,7 hPa 0,0 l/m 19,8 km/h (3 Bft) W 261 2 min 0,000 mm 1,0 UV-I 391 W/m 1,3 C 1,3 C 29,0 km/h (5 Bft) 95,74 %
05.03.2019 10:58 8,6 C 6,7 C 12,2 C 61 % 1010,7 hPa 0,0 l/m 20,0 km/h (4 Bft) W-SW 257 2 min 0,000 mm 0,9 UV-I 313 W/m 1,5 C 1,5 C 33,8 km/h (5 Bft) 95,74 %
05.03.2019 11:00 8,6 C 6,7 C 12,2 C 60 % 1010,7 hPa 0,0 l/m 24,4 km/h (4 Bft) W 271 2 min 0,178 mm 0,9 UV-I 330 W/m 1,3 C 0,1 C 32,2 km/h (5 Bft) 95,74 %
05.03.2019 11:02 8,6 C 6,7 C 12,8 C 60 % 1010,7 hPa 0,0 l/m 20,8 km/h (4 Bft) W-SW 244 2 min 0,000 mm 0,9 UV-I 366 W/m 1,3 C 1,2 C 30,6 km/h (5 Bft) 91,43 %
05.03.2019 11:04 8,7 C 6,7 C 12,2 C 60 % 1010,7 hPa 0,0 l/m 19,1 km/h (3 Bft) W 275 2 min 0,000 mm 0,8 UV-I 309 W/m 1,4 C 1,9 C 32,2 km/h (5 Bft) 98,39 %
05.03.2019 11:06 8,6 C 6,7 C 11,7 C 59 % 1010,7 hPa 0,0 l/m 27,3 km/h (4 Bft) W 273 0 min 0,000 mm 0,3 UV-I 212 W/m 1,0 C -0,7 C 40,2 km/h (6 Bft) 97,87 %
05.03.2019 11:08 8,6 C 6,7 C 10,6 C 59 % 1010,7 hPa 0,0 l/m 19,7 km/h (3 Bft) W-SW 239 0 min 0,000 mm 0,2 UV-I 161 W/m 1,0 C 1,6 C 33,8 km/h (5 Bft) 97,87 %
05.03.2019 11:10 8,4 C 6,7 C 10,0 C 59 % 1010,7 hPa 0,0 l/m 24,0 km/h (4 Bft) W-NW 282 0 min 0,000 mm 0,0 UV-I 150 W/m 0,9 C -0,1 C 37,0 km/h (5 Bft) 97,87 %
05.03.2019 11:12 8,4 C 6,7 C 10,0 C 60 % 1010,6 hPa 0,0 l/m 18,1 km/h (3 Bft) W 267 0 min 0,000 mm 0,5 UV-I 171 W/m 1,1 C 1,9 C 25,7 km/h (4 Bft) 97,87 %
05.03.2019 11:14 8,3 C 6,7 C 10,0 C 60 % 1010,7 hPa 0,0 l/m 17,7 km/h (3 Bft) W 278 0 min 0,000 mm 0,6 UV-I 186 W/m 1,0 C 1,9 C 33,8 km/h (5 Bft) 100,00 %
05.03.2019 11:16 8,3 C 6,7 C 10,0 C 60 % 1010,7 hPa 0,0 l/m 23,1 km/h (4 Bft) W 269 0 min 0,000 mm 0,5 UV-I 214 W/m 1,0 C 0,1 C 33,8 km/h (5 Bft) 95,74 %
05.03.2019 11:18 8,3 C 6,7 C 9,4 C 60 % 1010,7 hPa 0,0 l/m 23,3 km/h (4 Bft) W 275 0 min 0,000 mm 0,1 UV-I 141 W/m 1,0 C 0,0 C 37,0 km/h (5 Bft) 95,74 %
05.03.2019 11:20 8,3 C 6,7 C 8,9 C 60 % 1010,7 hPa 0,0 l/m 20,4 km/h (4 Bft) W-SW 254 0 min 0,000 mm 0,0 UV-I 87 W/m 1,0 C 1,0 C 25,7 km/h (4 Bft) 97,22 %
05.03.2019 11:22 8,3 C 6,7 C 8,9 C 60 % 1010,8 hPa 0,0 l/m 19,4 km/h (3 Bft) W 267 0 min 0,000 mm 0,0 UV-I 87 W/m 1,0 C 1,3 C 30,6 km/h (5 Bft) 100,00 %
05.03.2019 11:24 8,2 C 6,7 C 8,3 C 61 % 1010,9 hPa 0,0 l/m 11,8 km/h (2 Bft) W-NW 284 0 min 0,000 mm 0,0 UV-I 90 W/m 1,1 C 4,6 C 20,9 km/h (4 Bft) 97,87 %
05.03.2019 11:26 8,1 C 6,7 C 7,2 C 64 % 1010,9 hPa 0,0 l/m 14,7 km/h (3 Bft) W-NW 302 0 min 0,000 mm 0,0 UV-I 85 W/m 1,7 C 3,0 C 29,0 km/h (5 Bft) 93,62 %
05.03.2019 11:28 7,7 C 6,7 C 6,1 C 67 % 1010,9 hPa 0,0 l/m 18,5 km/h (3 Bft) W-NW 284 0 min 0,000 mm 0,0 UV-I 75 W/m 2,0 C 0,9 C 30,6 km/h (5 Bft) 93,62 %
05.03.2019 11:30 7,3 C 6,7 C 5,6 C 71 % 1011,0 hPa 0,0 l/m 13,5 km/h (3 Bft) W 281 0 min 0,000 mm 0,0 UV-I 68 W/m 2,4 C 2,6 C 19,3 km/h (3 Bft) 92,00 %
05.03.2019 11:32 6,8 C 6,7 C 5,6 C 73 % 1010,8 hPa 0,0 l/m 8,7 km/h (2 Bft) W-NW 288 0 min 0,000 mm 0,6 UV-I 85 W/m 2,3 C 5,0 C 14,5 km/h (3 Bft) 96,00 %
05.03.2019 11:34 6,6 C 6,7 C 6,7 C 75 % 1010,9 hPa 0,0 l/m 12,0 km/h (2 Bft) W 270 0 min 0,000 mm 1,0 UV-I 126 W/m 2,5 C 2,6 C 24,1 km/h (4 Bft) 95,74 %
05.03.2019 11:36 6,6 C 6,7 C 10,0 C 77 % 1010,9 hPa 0,0 l/m 11,1 km/h (2 Bft) NW 313 0 min 0,000 mm 1,2 UV-I 181 W/m 2,9 C 3,1 C 20,9 km/h (4 Bft) 93,62 %
05.03.2019 11:38 6,8 C 6,7 C 11,7 C 77 % 1010,8 hPa 0,0 l/m 11,7 km/h (2 Bft) W-NW 283 2 min 0,000 mm 1,4 UV-I 707 W/m 3,1 C 3,0 C 17,7 km/h (3 Bft) 95,74 %
05.03.2019 11:40 7,1 C 6,7 C 11,7 C 76 % 1010,7 hPa 0,0 l/m 11,9 km/h (2 Bft) W 269 2 min 0,000 mm 1,2 UV-I 388 W/m 3,2 C 3,2 C 17,7 km/h (3 Bft) 95,74 %
05.03.2019 11:42 7,4 C 6,7 C 12,2 C 75 % 1010,7 hPa 0,0 l/m 13,9 km/h (3 Bft) W-SW 255 2 min 0,000 mm 1,3 UV-I 559 W/m 3,3 C 2,5 C 20,9 km/h (4 Bft) 95,74 %
05.03.2019 11:44 7,6 C 6,7 C 10,6 C 73 % 1010,7 hPa 0,0 l/m 15,2 km/h (3 Bft) W-NW 299 2 min 0,000 mm 0,9 UV-I 373 W/m 3,1 C 2,1 C 20,9 km/h (4 Bft) 95,74 %
05.03.2019 11:46 7,8 C 6,7 C 12,2 C 73 % 1010,6 hPa 0,0 l/m 10,2 km/h (2 Bft) W 266 2 min 0,000 mm 1,4 UV-I 376 W/m 3,3 C 5,0 C 19,3 km/h (3 Bft) 95,74 %
05.03.2019 11:48 8,0 C 6,7 C 13,9 C 73 % 1010,6 hPa 0,0 l/m 12,0 km/h (2 Bft) W 279 2 min 0,000 mm 1,5 UV-I 664 W/m 3,5 C 4,2 C 20,9 km/h (4 Bft) 94,29 %
05.03.2019 11:50 8,2 C 6,7 C 14,4 C 70 % 1010,5 hPa 0,0 l/m 12,9 km/h (3 Bft) W-NW 285 2 min 0,000 mm 1,5 UV-I 613 W/m 3,1 C 4,0 C 17,7 km/h (3 Bft) 94,00 %
05.03.2019 11:52 8,3 C 6,7 C 15,6 C 70 % 1010,5 hPa 0,0 l/m 10,8 km/h (2 Bft) W 278 2 min 0,000 mm 1,5 UV-I 691 W/m 3,2 C 5,2 C 14,5 km/h (3 Bft) 93,62 %
05.03.2019 11:54 8,6 C 6,7 C 13,9 C 70 % 1010,4 hPa 0,0 l/m 14,3 km/h (3 Bft) W 281 2 min 0,000 mm 1,2 UV-I 447 W/m 3,4 C 3,8 C 27,4 km/h (4 Bft) 96,23 %
05.03.2019 11:56 8,7 C 6,7 C 15,6 C 68 % 1010,5 hPa 0,0 l/m 15,5 km/h (3 Bft) W-SW 240 0 min 0,000 mm 1,5 UV-I 249 W/m 3,1 C 3,3 C 24,1 km/h (4 Bft) 94,87 %
05.03.2019 11:58 8,9 C 6,7 C 16,1 C 68 % 1010,4 hPa 0,0 l/m 15,6 km/h (3 Bft) W 279 2 min 0,000 mm 1,4 UV-I 701 W/m 3,3 C 3,5 C 25,7 km/h (4 Bft) 97,87 %
05.03.2019 12:00 9,0 C 6,7 C 13,9 C 66 % 1010,4 hPa 0,0 l/m 15,2 km/h (3 Bft) W 267 2 min 0,178 mm 0,9 UV-I 393 W/m 3,0 C 3,8 C 25,7 km/h (4 Bft) 97,87 %
05.03.2019 12:02 8,9 C 6,7 C 13,3 C 64 % 1010,4 hPa 0,0 l/m 10,1 km/h (2 Bft) W-NW 287 0 min 0,000 mm 0,7 UV-I 271 W/m 2,5 C 6,3 C 17,7 km/h (3 Bft) 93,62 %
05.03.2019 12:04 8,9 C 6,7 C 12,2 C 66 % 1010,4 hPa 0,0 l/m 13,3 km/h (3 Bft) W 269 0 min 0,000 mm 0,6 UV-I 188 W/m 2,9 C 4,6 C 22,5 km/h (4 Bft) 95,74 %
05.03.2019 12:06 8,8 C 6,7 C 11,1 C 65 % 1010,4 hPa 0,0 l/m 15,7 km/h (3 Bft) W-NW 289 0 min 0,000 mm 0,1 UV-I 135 W/m 2,6 C 3,4 C 27,4 km/h (4 Bft) 95,74 %
05.03.2019 12:08 8,7 C 6,7 C 10,0 C 64 % 1010,4 hPa 0,0 l/m 12,8 km/h (3 Bft) N 349 0 min 0,000 mm 0,0 UV-I 105 W/m 2,3 C 4,6 C 24,1 km/h (4 Bft) 97,87 %
05.03.2019 12:10 8,6 C 6,7 C 10,0 C 65 % 1010,4 hPa 0,0 l/m 10,5 km/h (2 Bft) W-NW 290 0 min 0,000 mm 0,0 UV-I 86 W/m 2,4 C 5,7 C 19,3 km/h (3 Bft) 96,00 %
05.03.2019 12:12 8,4 C 6,7 C 8,3 C 64 % 1010,5 hPa 0,0 l/m 13,3 km/h (3 Bft) W-NW 292 0 min 0,000 mm 0,0 UV-I 71 W/m 2,0 C 4,0 C 24,1 km/h (4 Bft) 95,74 %
05.03.2019 12:14 8,3 C 6,7 C 7,2 C 66 % 1010,5 hPa 0,0 l/m 8,3 km/h (2 Bft) W 269 0 min 0,000 mm 0,0 UV-I 70 W/m 2,3 C 6,9 C 16,1 km/h (3 Bft) 97,87 %
05.03.2019 12:16 8,1 C 6,7 C 6,7 C 68 % 1010,5 hPa 0,0 l/m 13,0 km/h (3 Bft) W-NW 289 0 min 0,000 mm 0,0 UV-I 89 W/m 2,6 C 3,8 C 22,5 km/h (4 Bft) 97,56 %
05.03.2019 12:18 7,9 C 6,7 C 7,2 C 68 % 1010,5 hPa 0,0 l/m 13,0 km/h (3 Bft) NW 320 0 min 0,000 mm 0,2 UV-I 126 W/m 2,4 C 3,6 C 24,1 km/h (4 Bft) 98,00 %
05.03.2019 12:20 7,8 C 6,7 C 7,2 C 69 % 1010,4 hPa 0,0 l/m 10,0 km/h (2 Bft) W 262 0 min 0,000 mm 0,3 UV-I 143 W/m 2,5 C 5,2 C 22,5 km/h (4 Bft) 97,87 %
05.03.2019 12:22 7,8 C 6,7 C 7,8 C 68 % 1010,4 hPa 0,0 l/m 17,7 km/h (3 Bft) W-SW 241 0 min 0,000 mm 0,7 UV-I 188 W/m 2,3 C 1,3 C 32,2 km/h (5 Bft) 95,74 %
05.03.2019 12:24 7,9 C 6,7 C 8,3 C 68 % 1010,4 hPa 0,0 l/m 12,2 km/h (2 Bft) W 265 0 min 0,000 mm 0,8 UV-I 229 W/m 2,4 C 4,0 C 19,3 km/h (3 Bft) 95,74 %
05.03.2019 12:26 8,1 C 6,7 C 10,0 C 68 % 1010,4 hPa 0,0 l/m 10,9 km/h (2 Bft) W-NW 287 0 min 0,000 mm 1,0 UV-I 270 W/m 2,6 C 4,9 C 16,1 km/h (3 Bft) 91,49 %
05.03.2019 12:28 8,2 C 6,7 C 10,6 C 67 % 1010,5 hPa 0,0 l/m 14,2 km/h (3 Bft) W 267 0 min 0,000 mm 1,0 UV-I 293 W/m 2,4 C 3,3 C 19,3 km/h (3 Bft) 95,74 %
05.03.2019 12:30 8,4 C 6,7 C 10,6 C 67 % 1010,5 hPa 0,0 l/m 11,7 km/h (2 Bft) W-NW 284 0 min 0,000 mm 0,7 UV-I 234 W/m 2,6 C 4,8 C 20,9 km/h (4 Bft) 96,00 %
05.03.2019 12:32 8,4 C 6,7 C 10,0 C 65 % 1010,5 hPa 0,0 l/m 16,9 km/h (3 Bft) W-NW 284 0 min 0,000 mm 0,5 UV-I 164 W/m 2,2 C 2,4 C 27,4 km/h (4 Bft) 96,00 %
05.03.2019 12:34 8,5 C 6,7 C 9,4 C 65 % 1010,5 hPa 0,0 l/m 13,6 km/h (3 Bft) W-NW 286 0 min 0,000 mm 0,5 UV-I 163 W/m 2,3 C 4,0 C 20,9 km/h (4 Bft) 91,49 %
05.03.2019 12:36 8,5 C 6,7 C 9,4 C 65 % 1010,4 hPa 0,0 l/m 14,4 km/h (3 Bft) W 279 0 min 0,000 mm 0,7 UV-I 201 W/m 2,3 C 3,6 C 24,1 km/h (4 Bft) 89,36 %
05.03.2019 12:38 8,6 C 6,7 C 10,0 C 63 % 1010,4 hPa 0,0 l/m 17,9 km/h (3 Bft) W-NW 293 0 min 0,000 mm 0,8 UV-I 249 W/m 2,0 C 2,2 C 29,0 km/h (5 Bft) 95,74 %
05.03.2019 12:40 8,6 C 6,7 C 10,6 C 62 % 1010,3 hPa 0,0 l/m 20,0 km/h (4 Bft) W-SW 246 0 min 0,000 mm 0,9 UV-I 295 W/m 1,7 C 1,5 C 30,6 km/h (5 Bft) 91,49 %
05.03.2019 12:42 8,7 C 6,7 C 11,1 C 62 % 1010,3 hPa 0,0 l/m 19,1 km/h (3 Bft) W 267 2 min 0,000 mm 0,9 UV-I 356 W/m 1,8 C 1,9 C 29,0 km/h (5 Bft) 94,44 %
05.03.2019 12:44 8,9 C 6,7 C 11,1 C 62 % 1010,2 hPa 0,0 l/m 14,4 km/h (3 Bft) W 276 0 min 0,000 mm 0,8 UV-I 272 W/m 2,0 C 4,1 C 29,0 km/h (5 Bft) 96,00 %
05.03.2019 12:46 8,9 C 6,7 C 11,1 C 61 % 1010,2 hPa 0,0 l/m 15,3 km/h (3 Bft) W 259 0 min 0,000 mm 0,8 UV-I 272 W/m 1,8 C 3,7 C 20,9 km/h (4 Bft) 93,62 %
05.03.2019 12:48 9,1 C 6,7 C 12,2 C 62 % 1010,2 hPa 0,0 l/m 13,0 km/h (3 Bft) W 268 0 min 0,000 mm 1,0 UV-I 292 W/m 2,2 C 5,0 C 19,3 km/h (3 Bft) 95,74 %
05.03.2019 12:50 9,1 C 6,7 C 12,2 C 61 % 1010,2 hPa 0,0 l/m 15,7 km/h (3 Bft) W-NW 292 0 min 0,000 mm 1,0 UV-I 321 W/m 2,0 C 3,7 C 22,5 km/h (4 Bft) 95,74 %
05.03.2019 12:52 9,2 C 6,7 C 12,8 C 60 % 1010,2 hPa 0,0 l/m 14,5 km/h (3 Bft) W 277 0 min 0,000 mm 1,0 UV-I 318 W/m 1,8 C 4,4 C 24,1 km/h (4 Bft) 95,74 %
05.03.2019 12:54 9,3 C 6,7 C 13,3 C 60 % 1010,2 hPa 0,0 l/m 15,5 km/h (3 Bft) W-NW 287 0 min 0,000 mm 1,2 UV-I 318 W/m 1,9 C 4,1 C 20,9 km/h (4 Bft) 88,00 %
05.03.2019 12:56 9,3 C 6,7 C 12,2 C 59 % 1010,2 hPa 0,0 l/m 19,0 km/h (3 Bft) W-SW 244 0 min 0,000 mm 0,9 UV-I 239 W/m 1,7 C 2,7 C 32,2 km/h (5 Bft) 93,62 %
05.03.2019 12:58 9,3 C 6,7 C 11,1 C 59 % 1010,2 hPa 0,0 l/m 17,4 km/h (3 Bft) W-SW 246 0 min 0,000 mm 0,7 UV-I 166 W/m 1,7 C 3,3 C 24,1 km/h (4 Bft) 94,00 %
05.03.2019 13:00 9,2 C 6,7 C 10,6 C 58 % 1010,2 hPa 0,0 l/m 16,4 km/h (3 Bft) W 280 0 min 0,152 mm 0,0 UV-I 114 W/m 1,4 C 3,6 C 33,8 km/h (5 Bft) 95,74 %
05.03.2019 13:02 9,1 C 6,7 C 10,0 C 59 % 1010,2 hPa 0,0 l/m 16,1 km/h (3 Bft) W-SW 257 0 min 0,000 mm 0,0 UV-I 106 W/m 1,5 C 3,6 C 25,7 km/h (4 Bft) 95,74 %
05.03.2019 13:04 8,9 C 6,7 C 9,4 C 59 % 1010,2 hPa 0,0 l/m 19,0 km/h (3 Bft) W-NW 285 0 min 0,000 mm 0,0 UV-I 100 W/m 1,3 C 2,2 C 30,6 km/h (5 Bft) 97,87 %
05.03.2019 13:06 8,8 C 6,7 C 9,4 C 60 % 1010,2 hPa 0,0 l/m 10,6 km/h (2 Bft) W 265 0 min 0,000 mm 0,0 UV-I 141 W/m 1,5 C 5,9 C 17,7 km/h (3 Bft) 97,14 %
05.03.2019 13:08 8,8 C 6,7 C 10,0 C 60 % 1010,3 hPa 0,0 l/m 13,9 km/h (3 Bft) W-NW 297 0 min 0,000 mm 0,0 UV-I 149 W/m 1,5 C 4,2 C 22,5 km/h (4 Bft) 98,00 %
05.03.2019 13:10 8,8 C 6,7 C 10,0 C 61 % 1010,3 hPa 0,0 l/m 15,4 km/h (3 Bft) W-NW 295 0 min 0,000 mm 0,5 UV-I 186 W/m 1,7 C 3,5 C 19,3 km/h (3 Bft) 96,00 %
05.03.2019 13:12 8,8 C 6,7 C 10,6 C 60 % 1010,2 hPa 0,0 l/m 21,3 km/h (4 Bft) W-NW 300 0 min 0,000 mm 0,7 UV-I 221 W/m 1,5 C 1,3 C 35,4 km/h (5 Bft) 94,44 %
05.03.2019 13:14 8,8 C 6,7 C 10,6 C 61 % 1010,2 hPa 0,0 l/m 14,1 km/h (3 Bft) NW 321 0 min 0,000 mm 0,9 UV-I 236 W/m 1,7 C 4,1 C 29,0 km/h (5 Bft) 98,11 %
05.03.2019 13:16 8,7 C 6,7 C 10,6 C 62 % 1010,1 hPa 0,0 l/m 12,1 km/h (2 Bft) W 275 0 min 0,000 mm 0,8 UV-I 184 W/m 1,8 C 5,0 C 20,9 km/h (4 Bft) 100,00 %
05.03.2019 13:18 8,5 C 6,7 C 10,0 C 62 % 1010,1 hPa 0,0 l/m 12,7 km/h (3 Bft) W-NW 299 0 min 0,000 mm 0,6 UV-I 123 W/m 1,6 C 4,4 C 19,3 km/h (3 Bft) 98,00 %
05.03.2019 13:20 8,3 C 6,7 C 9,4 C 62 % 1010,1 hPa 0,0 l/m 11,9 km/h (2 Bft) W 265 0 min 0,000 mm 0,5 UV-I 106 W/m 1,5 C 4,6 C 20,9 km/h (4 Bft) 100,00 %
05.03.2019 13:22 8,3 C 6,7 C 8,9 C 62 % 1010,2 hPa 0,0 l/m 15,2 km/h (3 Bft) W-NW 288 0 min 0,000 mm 0,1 UV-I 88 W/m 1,5 C 3,0 C 25,7 km/h (4 Bft) 100,00 %
05.03.2019 13:24 8,2 C 6,7 C 8,3 C 64 % 1010,3 hPa 0,0 l/m 16,0 km/h (3 Bft) W 259 0 min 0,000 mm 0,0 UV-I 69 W/m 1,8 C 2,5 C 24,1 km/h (4 Bft) 97,87 %
05.03.2019 13:26 8,2 C 6,7 C 7,8 C 63 % 1010,3 hPa 0,0 l/m 19,2 km/h (3 Bft) W 279 0 min 0,000 mm 0,0 UV-I 53 W/m 1,6 C 1,2 C 29,0 km/h (5 Bft) 97,87 %
05.03.2019 13:28 8,1 C 6,7 C 6,7 C 63 % 1010,2 hPa 0,0 l/m 23,5 km/h (4 Bft) W 281 0 min 0,000 mm 0,0 UV-I 52 W/m 1,5 C -0,3 C 41,8 km/h (6 Bft) 100,00 %
05.03.2019 13:30 7,9 C 6,7 C 6,1 C 65 % 1010,2 hPa 0,0 l/m 20,6 km/h (4 Bft) W 277 0 min 0,000 mm 0,0 UV-I 59 W/m 1,7 C 0,4 C 32,2 km/h (5 Bft) 97,87 %
05.03.2019 13:32 7,7 C 6,7 C 5,6 C 66 % 1010,3 hPa 0,0 l/m 22,5 km/h (4 Bft) S 179 0 min 0,000 mm 0,2 UV-I 87 W/m 1,8 C -0,5 C 33,8 km/h (5 Bft) 97,14 %
05.03.2019 13:35 7,6 C 6,7 C 6,7 C 68 % 1010,0 hPa 0,0 l/m 16,3 km/h (3 Bft) W 280 0 min 0,000 mm 0,8 UV-I 203 W/m 2,1 C 1,6 C 29,0 km/h (5 Bft) 100,00 %
05.03.2019 13:36 7,6 C 6,7 C 6,7 C 68 % 1010,0 hPa 0,0 l/m 13,3 km/h (3 Bft) SW 236 0 min 0,000 mm 0,9 UV-I 258 W/m 2,1 C 3,1 C 16,1 km/h (3 Bft) 100,00 %
05.03.2019 13:38 7,7 C 6,7 C 7,8 C 68 % 1010,0 hPa 0,0 l/m 17,7 km/h (3 Bft) W-SW 254 2 min 0,000 mm 1,1 UV-I 406 W/m 2,2 C 1,2 C 25,7 km/h (4 Bft) 98,00 %
05.03.2019 13:40 7,9 C 6,7 C 7,8 C 67 % 1010,0 hPa 0,0 l/m 15,3 km/h (3 Bft) W-SW 244 2 min 0,000 mm 1,0 UV-I 337 W/m 2,2 C 2,5 C 24,1 km/h (4 Bft) 100,00 %
05.03.2019 13:42 8,1 C 6,7 C 8,3 C 67 % 1010,0 hPa 0,0 l/m 16,9 km/h (3 Bft) SW 217 0 min 0,000 mm 1,0 UV-I 277 W/m 2,3 C 2,0 C 24,1 km/h (4 Bft) 100,00 %
05.03.2019 13:44 8,2 C 6,7 C 8,3 C 67 % 1010,0 hPa 0,0 l/m 14,9 km/h (3 Bft) SW 214 2 min 0,000 mm 0,9 UV-I 339 W/m 2,4 C 3,0 C 22,5 km/h (4 Bft) 100,00 %
05.03.2019 13:46 8,3 C 6,7 C 8,3 C 67 % 1010,0 hPa 0,0 l/m 13,1 km/h (3 Bft) W 265 0 min 0,000 mm 0,9 UV-I 198 W/m 2,5 C 4,0 C 20,9 km/h (4 Bft) 100,00 %
05.03.2019 13:48 8,4 C 6,7 C 8,3 C 66 % 1010,0 hPa 0,0 l/m 14,8 km/h (3 Bft) W 266 0 min 0,000 mm 0,7 UV-I 183 W/m 2,4 C 3,3 C 20,9 km/h (4 Bft) 100,00 %
05.03.2019 13:50 8,4 C 6,7 C 8,3 C 65 % 1009,9 hPa 0,0 l/m 12,2 km/h (2 Bft) W 260 0 min 0,000 mm 0,8 UV-I 204 W/m 2,2 C 4,6 C 19,3 km/h (3 Bft) 98,00 %
05.03.2019 13:52 8,6 C 6,7 C 9,4 C 65 % 1009,9 hPa 0,0 l/m 9,5 km/h (2 Bft) W 276 0 min 0,000 mm 1,0 UV-I 241 W/m 2,4 C 6,4 C 12,9 km/h (3 Bft) 100,00 %
05.03.2019 13:54 8,7 C 6,7 C 10,0 C 65 % 1009,8 hPa 0,0 l/m 12,6 km/h (3 Bft) W 265 0 min 0,000 mm 0,8 UV-I 215 W/m 2,5 C 4,7 C 16,1 km/h (3 Bft) 100,00 %
05.03.2019 13:56 8,8 C 6,7 C 10,0 C 64 % 1009,8 hPa 0,0 l/m 15,0 km/h (3 Bft) W 281 0 min 0,000 mm 0,8 UV-I 210 W/m 2,4 C 3,7 C 20,9 km/h (4 Bft) 100,00 %
05.03.2019 13:58 8,8 C 6,7 C 10,0 C 64 % 1009,8 hPa 0,0 l/m 11,6 km/h (2 Bft) W 274 0 min 0,000 mm 0,8 UV-I 197 W/m 2,4 C 5,3 C 19,3 km/h (3 Bft) 100,00 %
05.03.2019 14:00 8,9 C 6,7 C 9,4 C 61 % 1009,8 hPa 0,0 l/m 16,4 km/h (3 Bft) W-SW 249 0 min 0,000 mm 0,7 UV-I 180 W/m 1,8 C 3,2 C 27,4 km/h (4 Bft) 100,00 %
05.03.2019 14:02 9,0 C 6,7 C 9,4 C 60 % 1009,8 hPa 0,0 l/m 18,6 km/h (3 Bft) W 273 0 min 0,127 mm 0,7 UV-I 180 W/m 1,7 C 2,5 C 24,1 km/h (4 Bft) 97,87 %
05.03.2019 14:04 9,1 C 6,7 C 9,4 C 60 % 1009,8 hPa 0,0 l/m 16,2 km/h (3 Bft) W 261 0 min 0,000 mm 0,7 UV-I 192 W/m 1,8 C 3,5 C 30,6 km/h (5 Bft) 100,00 %
05.03.2019 14:06 9,2 C 6,7 C 10,6 C 60 % 1009,7 hPa 0,0 l/m 14,0 km/h (3 Bft) W 263 0 min 0,000 mm 0,9 UV-I 234 W/m 1,8 C 4,6 C 24,1 km/h (4 Bft) 97,87 %
05.03.2019 14:08 9,4 C 6,7 C 11,1 C 59 % 1009,6 hPa 0,0 l/m 14,4 km/h (3 Bft) W 265 2 min 0,000 mm 0,9 UV-I 321 W/m 1,8 C 4,7 C 27,4 km/h (4 Bft) 100,00 %
05.03.2019 14:10 9,6 C 6,7 C 11,1 C 56 % 1009,8 hPa 0,0 l/m 25,8 km/h (4 Bft) W 260 2 min 0,000 mm 0,9 UV-I 285 W/m 1,3 C 1,1 C 43,5 km/h (6 Bft) 100,00 %
05.03.2019 14:12 9,7 C 6,7 C 11,1 C 55 % 1009,7 hPa 0,0 l/m 20,7 km/h (4 Bft) W 265 2 min 0,000 mm 0,9 UV-I 311 W/m 1,1 C 2,7 C 30,6 km/h (5 Bft) 100,00 %
05.03.2019 14:14 9,9 C 6,7 C 11,7 C 55 % 1009,6 hPa 0,0 l/m 15,9 km/h (3 Bft) W 277 2 min 0,000 mm 1,0 UV-I 335 W/m 1,3 C 4,6 C 25,7 km/h (4 Bft) 97,87 %
05.03.2019 14:16 10,1 C 6,7 C 12,2 C 55 % 1009,6 hPa 0,0 l/m 14,0 km/h (3 Bft) W 266 2 min 0,000 mm 0,9 UV-I 369 W/m 1,5 C 5,7 C 24,1 km/h (4 Bft) 97,87 %
05.03.2019 14:18 10,3 C 6,7 C 12,8 C 54 % 1009,6 hPa 0,0 l/m 15,8 km/h (3 Bft) W 261 2 min 0,000 mm 1,0 UV-I 423 W/m 1,4 C 5,2 C 22,5 km/h (4 Bft) 97,87 %
05.03.2019 14:20 10,5 C 6,7 C 12,8 C 53 % 1009,6 hPa 0,0 l/m 17,3 km/h (3 Bft) W 272 2 min 0,000 mm 0,9 UV-I 432 W/m 1,3 C 4,9 C 25,7 km/h (4 Bft) 97,87 %
05.03.2019 14:22 10,6 C 6,7 C 13,3 C 51 % 1009,6 hPa 0,0 l/m 16,7 km/h (3 Bft) W 263 2 min 0,000 mm 0,9 UV-I 452 W/m 0,9 C 5,2 C 32,2 km/h (5 Bft) 95,74 %
05.03.2019 14:24 10,7 C 6,7 C 13,3 C 52 % 1009,7 hPa 0,0 l/m 14,1 km/h (3 Bft) W 275 2 min 0,000 mm 0,9 UV-I 396 W/m 1,3 C 6,4 C 24,1 km/h (4 Bft) 95,74 %
05.03.2019 14:26 10,8 C 6,7 C 13,9 C 52 % 1009,6 hPa 0,0 l/m 14,2 km/h (3 Bft) W 263 2 min 0,000 mm 0,8 UV-I 422 W/m 1,3 C 6,4 C 20,9 km/h (4 Bft) 97,87 %
05.03.2019 14:28 11,0 C 6,7 C 13,9 C 52 % 1009,7 hPa 0,0 l/m 12,0 km/h (2 Bft) W-SW 254 2 min 0,000 mm 0,8 UV-I 351 W/m 1,5 C 7,7 C 19,3 km/h (3 Bft) 96,00 %
05.03.2019 14:30 11,1 C 6,7 C 13,3 C 50 % 1009,6 hPa 0,0 l/m 22,2 km/h (4 Bft) W 264 2 min 0,000 mm 0,7 UV-I 392 W/m 1,1 C 4,1 C 37,0 km/h (5 Bft) 94,44 %
05.03.2019 14:32 11,0 C 6,7 C 12,8 C 48 % 1009,6 hPa 0,0 l/m 20,9 km/h (4 Bft) W 263 0 min 0,000 mm 0,6 UV-I 247 W/m 0,4 C 4,3 C 27,4 km/h (4 Bft) 91,49 %
05.03.2019 14:34 10,9 C 6,7 C 12,8 C 48 % 1009,7 hPa 0,0 l/m 17,1 km/h (3 Bft) W-SW 249 0 min 0,000 mm 0,6 UV-I 249 W/m 0,3 C 5,4 C 29,0 km/h (5 Bft) 93,62 %
05.03.2019 14:36 10,8 C 6,7 C 12,8 C 49 % 1009,6 hPa 0,0 l/m 14,7 km/h (3 Bft) W-SW 250 0 min 0,000 mm 0,6 UV-I 236 W/m 0,5 C 6,2 C 25,7 km/h (4 Bft) 96,00 %
05.03.2019 14:38 10,8 C 6,7 C 12,8 C 49 % 1009,6 hPa 0,2 l/m 17,5 km/h (3 Bft) W 264 0 min 0,000 mm 0,5 UV-I 226 W/m 0,5 C 5,2 C 24,1 km/h (4 Bft) 91,49 %
05.03.2019 14:40 10,7 C 6,7 C 12,2 C 47 % 1009,5 hPa 0,0 l/m 20,7 km/h (4 Bft) W-SW 237 0 min 0,000 mm 0,5 UV-I 207 W/m -0,1 C 4,0 C 33,8 km/h (5 Bft) 98,00 %
05.03.2019 14:42 10,7 C 6,7 C 11,7 C 46 % 1009,5 hPa 0,0 l/m 23,4 km/h (4 Bft) W-SW 251 0 min 0,000 mm 0,5 UV-I 200 W/m -0,4 C 3,2 C 35,4 km/h (5 Bft) 94,00 %
05.03.2019 14:44 10,6 C 6,7 C 11,7 C 47 % 1009,5 hPa 0,0 l/m 16,9 km/h (3 Bft) W 271 0 min 0,000 mm 0,0 UV-I 181 W/m -0,2 C 5,1 C 25,7 km/h (4 Bft) 95,74 %
05.03.2019 14:46 10,6 C 6,7 C 11,7 C 49 % 1009,5 hPa 0,0 l/m 11,3 km/h (2 Bft) W-NW 284 0 min 0,000 mm 0,0 UV-I 164 W/m 0,3 C 7,6 C 16,1 km/h (3 Bft) 94,29 %
05.03.2019 14:48 10,6 C 6,7 C 11,7 C 48 % 1009,5 hPa 0,0 l/m 15,2 km/h (3 Bft) W 277 0 min 0,000 mm 0,0 UV-I 154 W/m 0,1 C 5,8 C 22,5 km/h (4 Bft) 98,00 %
05.03.2019 14:50 10,5 C 6,7 C 11,1 C 49 % 1009,4 hPa 0,0 l/m 15,3 km/h (3 Bft) W-NW 284 0 min 0,000 mm 0,0 UV-I 151 W/m 0,2 C 5,6 C 29,0 km/h (5 Bft) 95,74 %
05.03.2019 14:52 10,4 C 6,7 C 11,1 C 47 % 1009,6 hPa 0,0 l/m 15,0 km/h (3 Bft) SW 229 0 min 0,000 mm 0,0 UV-I 148 W/m -0,4 C 5,6 C 20,9 km/h (4 Bft) 93,62 %
05.03.2019 14:54 10,4 C 6,7 C 11,1 C 47 % 1009,7 hPa 0,0 l/m 14,1 km/h (3 Bft) W-NW 287 0 min 0,000 mm 0,0 UV-I 143 W/m -0,4 C 6,0 C 22,5 km/h (4 Bft) 97,87 %
05.03.2019 14:56 10,3 C 6,7 C 10,6 C 46 % 1009,5 hPa 0,0 l/m 17,1 km/h (3 Bft) W 275 0 min 0,000 mm 0,0 UV-I 138 W/m -0,8 C 4,7 C 29,0 km/h (5 Bft) 93,62 %
05.03.2019 14:58 10,3 C 6,7 C 10,6 C 46 % 1009,6 hPa 0,0 l/m 16,1 km/h (3 Bft) W 259 0 min 0,000 mm 0,0 UV-I 135 W/m -0,8 C 5,1 C 24,1 km/h (4 Bft) 97,73 %
05.03.2019 15:00 10,2 C 6,7 C 10,6 C 47 % 1009,6 hPa 0,0 l/m 14,3 km/h (3 Bft) W-SW 256 0 min 0,204 mm 0,0 UV-I 137 W/m -0,6 C 5,7 C 24,1 km/h (4 Bft) 97,87 %
05.03.2019 15:02 10,2 C 6,7 C 10,6 C 47 % 1009,7 hPa 0,0 l/m 9,3 km/h (2 Bft) W-NW 284 0 min 0,000 mm 0,0 UV-I 139 W/m -0,6 C 8,2 C 16,1 km/h (3 Bft) 100,00 %
05.03.2019 15:05 10,2 C 6,7 C 10,6 C 48 % 1009,6 hPa 0,0 l/m 11,5 km/h (2 Bft) W-NW 292 0 min 0,000 mm 0,0 UV-I 141 W/m -0,3 C 7,0 C 22,5 km/h (4 Bft) 100,00 %
05.03.2019 15:06 10,1 C 6,7 C 10,6 C 47 % 1009,6 hPa 0,0 l/m 21,9 km/h (4 Bft) W-NW 297 0 min 0,000 mm 0,0 UV-I 141 W/m -0,7 C 2,8 C 32,2 km/h (5 Bft) 100,00 %
05.03.2019 15:08 10,2 C 6,7 C 10,6 C 46 % 1009,6 hPa 0,0 l/m 19,1 km/h (3 Bft) W 269 0 min 0,000 mm 0,0 UV-I 134 W/m -0,9 C 3,8 C 27,4 km/h (4 Bft) 95,74 %
05.03.2019 15:10 10,2 C 6,7 C 10,6 C 45 % 1009,6 hPa 0,0 l/m 23,3 km/h (4 Bft) W-NW 282 0 min 0,000 mm 0,0 UV-I 127 W/m -1,2 C 2,6 C 33,8 km/h (5 Bft) 100,00 %
05.03.2019 15:12 10,2 C 6,7 C 10,6 C 45 % 1009,6 hPa 0,0 l/m 13,4 km/h (3 Bft) W 264 0 min 0,000 mm 0,0 UV-I 127 W/m -1,2 C 6,1 C 19,3 km/h (3 Bft) 97,87 %
05.03.2019 15:14 10,2 C 6,7 C 10,6 C 46 % 1009,7 hPa 0,0 l/m 14,4 km/h (3 Bft) W-SW 254 0 min 0,000 mm 0,0 UV-I 130 W/m -0,9 C 5,6 C 20,9 km/h (4 Bft) 100,00 %
05.03.2019 15:16 10,1 C 6,7 C 10,6 C 45 % 1009,6 hPa 0,0 l/m 17,6 km/h (3 Bft) W-NW 283 0 min 0,000 mm 0,0 UV-I 128 W/m -1,3 C 4,2 C 24,1 km/h (4 Bft) 93,62 %
05.03.2019 15:18 10,2 C 6,7 C 10,6 C 45 % 1009,5 hPa 0,0 l/m 10,7 km/h (2 Bft) W 278 0 min 0,000 mm 0,0 UV-I 132 W/m -1,2 C 7,4 C 17,7 km/h (3 Bft) 100,00 %
05.03.2019 15:20 10,2 C 6,7 C 10,6 C 46 % 1009,5 hPa 0,0 l/m 13,6 km/h (3 Bft) W 276 0 min 0,000 mm 0,0 UV-I 139 W/m -0,9 C 6,0 C 19,3 km/h (3 Bft) 100,00 %
05.03.2019 15:22 10,2 C 6,7 C 10,6 C 46 % 1009,5 hPa 0,0 l/m 12,2 km/h (2 Bft) NW 326 0 min 0,000 mm 0,0 UV-I 139 W/m -0,9 C 6,6 C 17,7 km/h (3 Bft) 100,00 %
05.03.2019 15:24 10,2 C 6,7 C 10,6 C 45 % 1009,5 hPa 0,0 l/m 16,3 km/h (3 Bft) W 267 0 min 0,000 mm 0,0 UV-I 133 W/m -1,2 C 4,9 C 22,5 km/h (4 Bft) 100,00 %
05.03.2019 15:26 10,2 C 6,7 C 10,6 C 46 % 1009,5 hPa 0,0 l/m 10,6 km/h (2 Bft) W-SW 246 0 min 0,000 mm 0,0 UV-I 126 W/m -0,9 C 7,5 C 16,1 km/h (3 Bft) 100,00 %
05.03.2019 15:28 10,1 C 6,7 C 10,6 C 45 % 1009,5 hPa 0,0 l/m 16,0 km/h (3 Bft) W 264 0 min 0,000 mm 0,0 UV-I 121 W/m -1,3 C 4,8 C 24,1 km/h (4 Bft) 97,37 %
05.03.2019 15:30 10,1 C 6,7 C 10,6 C 46 % 1009,5 hPa 0,0 l/m 11,9 km/h (2 Bft) W 269 0 min 0,000 mm 0,0 UV-I 114 W/m -1,0 C 6,7 C 20,9 km/h (4 Bft) 100,00 %
05.03.2019 15:32 10,1 C 6,7 C 10,6 C 45 % 1009,5 hPa 0,0 l/m 13,5 km/h (3 Bft) W-NW 301 0 min 0,000 mm 0,0 UV-I 106 W/m -1,3 C 5,9 C 19,3 km/h (3 Bft) 98,11 %
05.03.2019 15:34 10,1 C 6,7 C 10,0 C 44 % 1009,6 hPa 0,0 l/m 12,7 km/h (3 Bft) W-NW 297 0 min 0,000 mm 0,0 UV-I 99 W/m -1,6 C 6,3 C 16,1 km/h (3 Bft) 97,87 %
05.03.2019 15:36 10,1 C 6,7 C 10,0 C 44 % 1009,6 hPa 0,0 l/m 11,3 km/h (2 Bft) W 263 0 min 0,000 mm 0,0 UV-I 96 W/m -1,6 C 7,0 C 27,4 km/h (4 Bft) 98,00 %
05.03.2019 15:38 10,1 C 6,7 C 10,0 C 44 % 1009,5 hPa 0,0 l/m 15,5 km/h (3 Bft) W 263 0 min 0,000 mm 0,0 UV-I 85 W/m -1,6 C 5,0 C 22,5 km/h (4 Bft) 95,74 %
05.03.2019 15:40 10,0 C 6,7 C 10,0 C 45 % 1009,6 hPa 0,0 l/m 11,3 km/h (2 Bft) W-NW 292 0 min 0,000 mm 0,0 UV-I 74 W/m -1,4 C 6,9 C 17,7 km/h (3 Bft) 100,00 %
05.03.2019 15:42 9,9 C 6,7 C 10,0 C 46 % 1009,6 hPa 0,0 l/m 12,5 km/h (3 Bft) W-NW 282 0 min 0,000 mm 0,0 UV-I 76 W/m -1,2 C 6,1 C 17,7 km/h (3 Bft) 94,23 %
05.03.2019 15:44 9,9 C 6,7 C 10,0 C 45 % 1009,6 hPa 0,0 l/m 12,7 km/h (3 Bft) W 279 0 min 0,000 mm 0,0 UV-I 85 W/m -1,5 C 6,1 C 19,3 km/h (3 Bft) 97,96 %
05.03.2019 15:46 9,9 C 6,7 C 10,0 C 45 % 1009,6 hPa 0,0 l/m 13,4 km/h (3 Bft) W-NW 284 0 min 0,000 mm 0,0 UV-I 94 W/m -1,5 C 5,7 C 20,9 km/h (4 Bft) 97,92 %
05.03.2019 15:48 9,9 C 6,7 C 10,0 C 45 % 1009,7 hPa 0,0 l/m 10,9 km/h (2 Bft) W-SW 250 0 min 0,000 mm 0,0 UV-I 103 W/m -1,5 C 7,0 C 19,3 km/h (3 Bft) 97,87 %
05.03.2019 15:50 9,9 C 6,7 C 10,0 C 45 % 1009,7 hPa 0,0 l/m 12,1 km/h (2 Bft) W-NW 284 0 min 0,000 mm 0,0 UV-I 102 W/m -1,5 C 6,3 C 17,7 km/h (3 Bft) 97,87 %
05.03.2019 15:52 9,9 C 6,7 C 10,0 C 47 % 1009,7 hPa 0,0 l/m 8,0 km/h (2 Bft) W 275 0 min 0,000 mm 0,0 UV-I 96 W/m -0,9 C 8,7 C 12,9 km/h (3 Bft) 97,87 %
05.03.2019 15:54 9,8 C 6,7 C 10,0 C 45 % 1009,7 hPa 0,0 l/m 11,8 km/h (2 Bft) W-SW 257 0 min 0,000 mm 0,0 UV-I 92 W/m -1,6 C 6,4 C 19,3 km/h (3 Bft) 97,87 %
05.03.2019 15:56 9,8 C 6,7 C 10,0 C 46 % 1009,7 hPa 0,0 l/m 14,6 km/h (3 Bft) W-SW 252 0 min 0,000 mm 0,0 UV-I 84 W/m -1,3 C 5,1 C 20,9 km/h (4 Bft) 97,87 %
05.03.2019 15:58 9,8 C 6,7 C 10,0 C 46 % 1009,7 hPa 0,0 l/m 13,5 km/h (3 Bft) NW 316 0 min 0,000 mm 0,0 UV-I 76 W/m -1,3 C 5,6 C 27,4 km/h (4 Bft) 97,87 %
05.03.2019 16:00 9,8 C 6,7 C 9,4 C 44 % 1009,6 hPa 0,0 l/m 14,7 km/h (3 Bft) W-NW 283 0 min 0,127 mm 0,0 UV-I 70 W/m -1,9 C 5,0 C 25,7 km/h (4 Bft) 94,74 %
05.03.2019 16:02 9,9 C 6,7 C 9,4 C 44 % 1009,6 hPa 0,0 l/m 13,9 km/h (3 Bft) W-SW 252 0 min 0,000 mm 0,0 UV-I 66 W/m -1,8 C 5,5 C 20,9 km/h (4 Bft) 100,00 %
05.03.2019 16:04 9,8 C 6,7 C 9,4 C 45 % 1009,6 hPa 0,0 l/m 12,0 km/h (2 Bft) W 259 0 min 0,000 mm 0,0 UV-I 63 W/m -1,6 C 6,3 C 19,3 km/h (3 Bft) 100,00 %
05.03.2019 16:06 9,8 C 6,7 C 9,4 C 45 % 1009,8 hPa 0,0 l/m 17,7 km/h (3 Bft) W-SW 250 0 min 0,000 mm 0,0 UV-I 62 W/m -1,6 C 3,8 C 27,4 km/h (4 Bft) 97,87 %
05.03.2019 16:08 9,8 C 6,7 C 9,4 C 42 % 1009,9 hPa 0,0 l/m 31,2 km/h (5 Bft) W 263 0 min 0,000 mm 0,0 UV-I 61 W/m -2,5 C 0,1 C 61,2 km/h (7 Bft) 100,00 %
05.03.2019 16:10 9,9 C 6,7 C 9,4 C 42 % 1009,7 hPa 0,0 l/m 21,6 km/h (4 Bft) W-NW 283 0 min 0,000 mm 0,0 UV-I 57 W/m -2,4 C 2,7 C 41,8 km/h (6 Bft) 98,00 %
05.03.2019 16:12 9,9 C 6,7 C 9,4 C 42 % 1009,7 hPa 0,0 l/m 18,2 km/h (3 Bft) NW 312 0 min 0,000 mm 0,0 UV-I 53 W/m -2,4 C 3,8 C 32,2 km/h (5 Bft) 100,00 %
05.03.2019 16:14 9,9 C 6,7 C 9,4 C 41 % 1009,8 hPa 0,0 l/m 24,7 km/h (4 Bft) W 265 0 min 0,000 mm 0,0 UV-I 51 W/m -2,7 C 1,8 C 38,6 km/h (5 Bft) 97,87 %
05.03.2019 16:17 9,9 C 6,7 C 9,4 C 41 % 1009,7 hPa 0,0 l/m 24,8 km/h (4 Bft) W-NW 293 0 min 0,000 mm 0,0 UV-I 49 W/m -2,7 C 1,7 C 46,7 km/h (6 Bft) 100,00 %
05.03.2019 16:18 9,9 C 6,7 C 9,4 C 42 % 1009,7 hPa 0,0 l/m 32,6 km/h (5 Bft) W-SW 246 0 min 0,000 mm 0,0 UV-I 47 W/m -2,4 C -0,0 C 40,2 km/h (6 Bft) 91,30 %
05.03.2019 16:20 9,8 C 6,7 C 9,4 C 43 % 1009,8 hPa 0,0 l/m 22,4 km/h (4 Bft) W-SW 257 0 min 0,000 mm 0,0 UV-I 46 W/m -2,2 C 2,3 C 33,8 km/h (5 Bft) 96,00 %
05.03.2019 16:22 9,8 C 6,7 C 9,4 C 43 % 1009,8 hPa 0,0 l/m 28,7 km/h (4 Bft) W 272 0 min 0,000 mm 0,0 UV-I 46 W/m -2,2 C 0,7 C 48,3 km/h (6 Bft) 97,22 %
05.03.2019 16:24 9,8 C 6,7 C 8,9 C 43 % 1009,9 hPa 0,0 l/m 26,4 km/h (4 Bft) W 261 0 min 0,000 mm 0,0 UV-I 44 W/m -2,2 C 1,2 C 43,5 km/h (6 Bft) 97,87 %
05.03.2019 16:26 9,7 C 6,7 C 8,9 C 44 % 1009,9 hPa 0,0 l/m 19,6 km/h (3 Bft) W-SW 256 0 min 0,000 mm 0,0 UV-I 43 W/m -2,0 C 3,0 C 32,2 km/h (5 Bft) 95,74 %
05.03.2019 16:28 9,6 C 6,7 C 8,9 C 45 % 1009,9 hPa 0,0 l/m 21,8 km/h (4 Bft) W 278 0 min 0,000 mm 0,0 UV-I 39 W/m -1,7 C 2,2 C 43,5 km/h (6 Bft) 95,74 %
05.03.2019 16:30 9,4 C 6,7 C 8,9 C 45 % 1009,9 hPa 0,0 l/m 31,2 km/h (5 Bft) W 262 0 min 0,000 mm 0,0 UV-I 33 W/m -1,9 C -0,4 C 43,5 km/h (6 Bft) 98,00 %
05.03.2019 16:32 9,4 C 6,7 C 8,9 C 46 % 1010,1 hPa 0,0 l/m 19,6 km/h (3 Bft) W 264 0 min 0,000 mm 0,0 UV-I 32 W/m -1,6 C 2,6 C 40,2 km/h (6 Bft) 95,74 %
05.03.2019 16:34 9,3 C 6,7 C 8,3 C 47 % 1010,0 hPa 0,0 l/m 21,7 km/h (4 Bft) W 266 0 min 0,000 mm 0,0 UV-I 30 W/m -1,4 C 1,8 C 37,0 km/h (5 Bft) 93,62 %
05.03.2019 16:36 9,2 C 6,7 C 8,3 C 48 % 1010,0 hPa 0,0 l/m 25,4 km/h (4 Bft) W-NW 292 0 min 0,000 mm 0,0 UV-I 33 W/m -1,2 C 0,6 C 40,2 km/h (6 Bft) 95,74 %
05.03.2019 16:38 9,1 C 6,7 C 8,3 C 49 % 1010,0 hPa 0,0 l/m 22,2 km/h (4 Bft) NW 323 0 min 0,000 mm 0,0 UV-I 39 W/m -1,0 C 1,4 C 32,2 km/h (5 Bft) 92,00 %
05.03.2019 16:40 9,0 C 6,7 C 8,3 C 49 % 1009,9 hPa 0,0 l/m 26,2 km/h (4 Bft) W 263 0 min 0,000 mm 0,0 UV-I 44 W/m -1,1 C 0,2 C 49,9 km/h (6 Bft) 93,62 %
05.03.2019 16:42 8,9 C 6,7 C 8,3 C 49 % 1010,0 hPa 0,0 l/m 27,9 km/h (4 Bft) W 280 0 min 0,000 mm 0,0 UV-I 42 W/m -1,2 C -0,4 C 40,2 km/h (6 Bft) 93,62 %
05.03.2019 16:44 8,9 C 6,7 C 8,3 C 50 % 1010,1 hPa 0,0 l/m 20,3 km/h (4 Bft) W-NW 292 0 min 0,000 mm 0,0 UV-I 40 W/m -0,9 C 1,8 C 38,6 km/h (5 Bft) 90,00 %
05.03.2019 16:46 8,8 C 6,7 C 8,3 C 50 % 1010,0 hPa 0,0 l/m 24,3 km/h (4 Bft) W 265 0 min 0,000 mm 0,0 UV-I 39 W/m -1,0 C 0,4 C 35,4 km/h (5 Bft) 94,74 %
05.03.2019 16:48 8,8 C 6,7 C 8,3 C 50 % 1010,0 hPa 0,0 l/m 25,4 km/h (4 Bft) W 261 0 min 0,000 mm 0,0 UV-I 40 W/m -1,0 C 0,1 C 40,2 km/h (6 Bft) 95,74 %
05.03.2019 16:50 8,8 C 6,7 C 8,3 C 50 % 1009,9 hPa 0,0 l/m 19,2 km/h (3 Bft) W 278 0 min 0,000 mm 0,0 UV-I 44 W/m -1,0 C 2,0 C 29,0 km/h (5 Bft) 93,62 %
05.03.2019 16:52 8,8 C 6,7 C 8,3 C 50 % 1009,9 hPa 0,0 l/m 18,5 km/h (3 Bft) W 276 0 min 0,000 mm 0,0 UV-I 43 W/m -1,0 C 2,3 C 25,7 km/h (4 Bft) 96,00 %
05.03.2019 16:54 8,8 C 6,7 C 8,3 C 50 % 1009,9 hPa 0,0 l/m 21,8 km/h (4 Bft) W 278 0 min 0,000 mm 0,0 UV-I 37 W/m -1,0 C 1,1 C 32,2 km/h (5 Bft) 93,62 %
05.03.2019 16:56 8,8 C 6,7 C 8,3 C 50 % 1009,8 hPa 0,0 l/m 20,5 km/h (4 Bft) W 275 0 min 0,000 mm 0,0 UV-I 32 W/m -1,0 C 1,6 C 27,4 km/h (4 Bft) 93,62 %
05.03.2019 16:58 8,8 C 6,7 C 8,3 C 51 % 1009,9 hPa 0,0 l/m 20,0 km/h (4 Bft) W 278 0 min 0,000 mm 0,0 UV-I 28 W/m -0,8 C 1,7 C 33,8 km/h (5 Bft) 94,87 %
05.03.2019 17:00 8,8 C 6,7 C 8,3 C 51 % 1009,9 hPa 0,0 l/m 20,8 km/h (4 Bft) W-SW 258 0 min 0,152 mm 0,0 UV-I 32 W/m -0,8 C 1,5 C 32,2 km/h (5 Bft) 94,00 %
05.03.2019 17:02 8,8 C 6,7 C 8,3 C 51 % 1009,7 hPa 0,0 l/m 19,8 km/h (3 Bft) W-SW 252 0 min 0,000 mm 0,0 UV-I 39 W/m -0,8 C 1,8 C 37,0 km/h (5 Bft) 94,00 %
05.03.2019 17:04 8,7 C 6,7 C 8,3 C 51 % 1009,8 hPa 0,0 l/m 16,3 km/h (3 Bft) W-NW 300 0 min 0,000 mm 0,0 UV-I 47 W/m -0,9 C 3,0 C 29,0 km/h (5 Bft) 93,62 %
05.03.2019 17:06 8,8 C 6,7 C 8,3 C 50 % 1009,8 hPa 0,0 l/m 18,3 km/h (3 Bft) W 273 0 min 0,000 mm 0,0 UV-I 49 W/m -1,0 C 2,3 C 30,6 km/h (5 Bft) 92,00 %
05.03.2019 17:08 8,8 C 6,7 C 8,3 C 51 % 1009,7 hPa 0,0 l/m 12,0 km/h (2 Bft) W 269 0 min 0,000 mm 0,0 UV-I 45 W/m -0,8 C 5,1 C 17,7 km/h (3 Bft) 95,74 %
05.03.2019 17:10 8,7 C 6,7 C 8,3 C 50 % 1009,7 hPa 0,0 l/m 16,6 km/h (3 Bft) W 264 0 min 0,000 mm 0,0 UV-I 39 W/m -1,1 C 2,9 C 24,1 km/h (4 Bft) 98,00 %
05.03.2019 17:12 8,7 C 6,7 C 8,3 C 51 % 1009,6 hPa 0,0 l/m 21,2 km/h (4 Bft) W-SW 258 0 min 0,000 mm 0,0 UV-I 35 W/m -0,9 C 1,2 C 33,8 km/h (5 Bft) 95,74 %
05.03.2019 17:15 8,8 C 6,7 C 8,3 C 50 % 1009,5 hPa 0,0 l/m 22,7 km/h (4 Bft) SW 232 0 min 0,000 mm 0,0 UV-I 31 W/m -1,0 C 0,9 C 35,4 km/h (5 Bft) 96,61 %
05.03.2019 17:16 8,8 C 6,7 C 8,3 C 50 % 1009,6 hPa 0,0 l/m 28,0 km/h (4 Bft) W 276 0 min 0,000 mm 0,0 UV-I 25 W/m -1,0 C -0,6 C 38,6 km/h (5 Bft) 90,32 %
05.03.2019 17:18 8,8 C 6,7 C 8,3 C 49 % 1009,6 hPa 0,0 l/m 23,7 km/h (4 Bft) W-SW 256 0 min 0,000 mm 0,0 UV-I 22 W/m -1,3 C 0,6 C 35,4 km/h (5 Bft) 93,62 %
05.03.2019 17:20 8,9 C 6,7 C 8,3 C 49 % 1009,6 hPa 0,0 l/m 25,1 km/h (4 Bft) W 263 0 min 0,000 mm 0,0 UV-I 16 W/m -1,2 C 0,3 C 43,5 km/h (6 Bft) 95,74 %
05.03.2019 17:22 9,0 C 6,7 C 8,3 C 49 % 1009,5 hPa 0,0 l/m 29,9 km/h (5 Bft) W-SW 258 0 min 0,000 mm 0,0 UV-I 14 W/m -1,1 C -0,7 C 46,7 km/h (6 Bft) 94,74 %
05.03.2019 17:24 9,1 C 6,7 C 8,3 C 49 % 1009,6 hPa 0,0 l/m 24,3 km/h (4 Bft) SW 232 0 min 0,000 mm 0,0 UV-I 13 W/m -1,0 C 0,8 C 41,8 km/h (6 Bft) 96,00 %
05.03.2019 17:26 9,1 C 6,7 C 8,3 C 49 % 1009,7 hPa 0,0 l/m 27,0 km/h (4 Bft) W 263 0 min 0,000 mm 0,0 UV-I 12 W/m -1,0 C 0,1 C 46,7 km/h (6 Bft) 97,87 %
05.03.2019 17:28 9,2 C 6,7 C 8,3 C 49 % 1009,7 hPa 0,0 l/m 22,8 km/h (4 Bft) W 259 0 min 0,000 mm 0,0 UV-I 12 W/m -0,9 C 1,4 C 37,0 km/h (5 Bft) 93,62 %
05.03.2019 17:30 9,2 C 6,7 C 8,3 C 49 % 1009,8 hPa 0,0 l/m 25,6 km/h (4 Bft) W 271 0 min 0,000 mm 0,0 UV-I 12 W/m -0,9 C 0,6 C 38,6 km/h (5 Bft) 97,87 %
05.03.2019 17:32 9,2 C 6,7 C 8,3 C 49 % 1009,8 hPa 0,0 l/m 30,6 km/h (5 Bft) W 261 0 min 0,000 mm 0,0 UV-I 12 W/m -0,9 C -0,6 C 48,3 km/h (6 Bft) 96,00 %
05.03.2019 17:34 9,2 C 6,7 C 8,3 C 49 % 1009,8 hPa 0,0 l/m 26,9 km/h (4 Bft) W 259 0 min 0,000 mm 0,0 UV-I 12 W/m -0,9 C 0,3 C 49,9 km/h (6 Bft) 97,87 %
05.03.2019 17:36 9,2 C 6,7 C 8,3 C 49 % 1009,8 hPa 0,0 l/m 30,9 km/h (5 Bft) W 278 0 min 0,000 mm 0,0 UV-I 12 W/m -0,9 C -0,7 C 49,9 km/h (6 Bft) 100,00 %
05.03.2019 17:38 9,2 C 6,7 C 8,3 C 49 % 1009,8 hPa 0,0 l/m 23,3 km/h (4 Bft) W 266 0 min 0,000 mm 0,0 UV-I 11 W/m -0,9 C 1,2 C 35,4 km/h (5 Bft) 100,00 %
05.03.2019 17:40 9,2 C 6,7 C 8,3 C 49 % 1009,8 hPa 0,0 l/m 24,7 km/h (4 Bft) W 271 0 min 0,000 mm 0,0 UV-I 10 W/m -0,9 C 0,8 C 38,6 km/h (5 Bft) 100,00 %
05.03.2019 17:42 9,1 C 6,7 C 8,3 C 50 % 1009,9 hPa 0,0 l/m 23,8 km/h (4 Bft) W 267 0 min 0,000 mm 0,0 UV-I 9 W/m -0,8 C 0,9 C 35,4 km/h (5 Bft) 100,00 %
05.03.2019 17:44 9,1 C 6,7 C 8,3 C 50 % 1009,9 hPa 0,0 l/m 27,6 km/h (4 Bft) W-SW 241 0 min 0,000 mm 0,0 UV-I 7 W/m -0,8 C -0,1 C 49,9 km/h (6 Bft) 100,00 %
05.03.2019 17:46 9,1 C 6,7 C 8,3 C 50 % 1010,0 hPa 0,0 l/m 43,2 km/h (6 Bft) W 267 0 min 0,000 mm 0,0 UV-I 7 W/m -0,8 C -2,9 C 67,6 km/h (8 Bft) 97,37 %
05.03.2019 17:48 9,1 C 6,7 C 8,3 C 50 % 1010,1 hPa 0,0 l/m 35,4 km/h (5 Bft) W-NW 295 0 min 0,000 mm 0,0 UV-I 6 W/m -0,8 C -1,7 C 48,3 km/h (6 Bft) 100,00 %
05.03.2019 17:50 9,1 C 6,7 C 8,3 C 51 % 1010,2 hPa 0,0 l/m 25,3 km/h (4 Bft) W-SW 248 0 min 0,000 mm 0,0 UV-I 5 W/m -0,5 C 0,5 C 46,7 km/h (6 Bft) 100,00 %
05.03.2019 17:52 9,1 C 6,7 C 8,3 C 51 % 1010,3 hPa 0,0 l/m 27,2 km/h (4 Bft) W 267 0 min 0,000 mm 0,0 UV-I 5 W/m -0,5 C 0,0 C 48,3 km/h (6 Bft) 97,87 %
05.03.2019 17:54 8,9 C 6,7 C 8,3 C 52 % 1010,4 hPa 0,0 l/m 23,4 km/h (4 Bft) W 264 0 min 0,000 mm 0,0 UV-I 3 W/m -0,4 C 0,8 C 40,2 km/h (6 Bft) 97,87 %
05.03.2019 17:56 8,8 C 6,7 C 7,8 C 54 % 1010,5 hPa 0,0 l/m 37,0 km/h (5 Bft) W 263 0 min 0,000 mm 0,0 UV-I 0 W/m 0,0 C -2,4 C 56,3 km/h (7 Bft) 100,00 %
05.03.2019 17:58 8,7 C 6,7 C 7,2 C 55 % 1010,6 hPa 0,0 l/m 21,6 km/h (4 Bft) W 260 0 min 0,000 mm 0,0 UV-I 0 W/m 0,2 C 1,1 C 33,8 km/h (5 Bft) 100,00 %
05.03.2019 18:01 8,4 C 6,7 C 7,2 C 57 % 1010,6 hPa 0,0 l/m 25,3 km/h (4 Bft) W 273 0 min 0,127 mm 0,0 UV-I 0 W/m 0,4 C -0,4 C 46,7 km/h (6 Bft) 100,00 %
05.03.2019 18:02 8,4 C 6,7 C 7,2 C 58 % 1010,6 hPa 0,0 l/m 20,7 km/h (4 Bft) W 269 0 min 0,000 mm 0,0 UV-I 0 W/m 0,6 C 1,0 C 29,0 km/h (5 Bft) 100,00 %
05.03.2019 18:04 8,3 C 6,7 C 7,2 C 58 % 1010,7 hPa 0,0 l/m 22,9 km/h (4 Bft) SW 236 0 min 0,000 mm 0,0 UV-I 0 W/m 0,5 C 0,1 C 45,1 km/h (6 Bft) 100,00 %
05.03.2019 18:06 8,2 C 6,7 C 7,2 C 59 % 1010,8 hPa 0,0 l/m 27,0 km/h (4 Bft) SW 217 0 min 0,000 mm 0,0 UV-I 0 W/m 0,7 C -1,1 C 49,9 km/h (6 Bft) 97,87 %
05.03.2019 18:08 8,2 C 6,7 C 7,2 C 59 % 1010,7 hPa 0,0 l/m 28,5 km/h (4 Bft) W 261 0 min 0,000 mm 0,0 UV-I 0 W/m 0,7 C -1,5 C 41,8 km/h (6 Bft) 100,00 %
05.03.2019 18:10 8,2 C 6,7 C 7,2 C 60 % 1010,8 hPa 0,0 l/m 22,0 km/h (4 Bft) W-SW 252 0 min 0,000 mm 0,0 UV-I 0 W/m 0,9 C 0,3 C 30,6 km/h (5 Bft) 100,00 %
05.03.2019 18:13 8,1 C 6,7 C 6,7 C 60 % 1011,0 hPa 0,0 l/m 31,6 km/h (5 Bft) W 271 0 min 0,000 mm 0,0 UV-I 0 W/m 0,8 C -2,4 C 57,9 km/h (7 Bft) 100,00 %
05.03.2019 18:14 8,1 C 6,7 C 6,7 C 60 % 1011,0 hPa 0,0 l/m 35,1 km/h (5 Bft) W-SW 246 0 min 0,000 mm 0,0 UV-I 0 W/m 0,8 C -3,1 C 48,3 km/h (6 Bft) 100,00 %
05.03.2019 18:16 8,1 C 6,7 C 6,7 C 61 % 1010,9 hPa 0,0 l/m 29,6 km/h (5 Bft) W-SW 256 0 min 0,000 mm 0,0 UV-I 0 W/m 1,0 C -1,9 C 41,8 km/h (6 Bft) 100,00 %
05.03.2019 18:18 8,0 C 6,7 C 6,7 C 62 % 1010,9 hPa 0,0 l/m 23,6 km/h (4 Bft) W-SW 244 0 min 0,000 mm 0,0 UV-I 0 W/m 1,2 C -0,5 C 43,5 km/h (6 Bft) 100,00 %
05.03.2019 18:20 7,9 C 6,7 C 6,7 C 63 % 1010,9 hPa 0,0 l/m 25,6 km/h (4 Bft) SW 229 0 min 0,000 mm 0,0 UV-I 0 W/m 1,3 C -1,2 C 40,2 km/h (6 Bft) 97,87 %
05.03.2019 18:22 7,8 C 6,7 C 6,7 C 63 % 1011,0 hPa 0,0 l/m 30,5 km/h (5 Bft) W-SW 250 0 min 0,000 mm 0,0 UV-I 0 W/m 1,2 C -2,6 C 41,8 km/h (6 Bft) 100,00 %
05.03.2019 18:24 7,7 C 6,7 C 6,7 C 64 % 1011,1 hPa 0,0 l/m 23,1 km/h (4 Bft) W-SW 242 0 min 0,000 mm 0,0 UV-I 0 W/m 1,3 C -0,7 C 35,4 km/h (5 Bft) 97,87 %
05.03.2019 18:26 7,6 C 6,7 C 6,7 C 65 % 1011,1 hPa 0,0 l/m 17,0 km/h (3 Bft) SW 231 0 min 0,000 mm 0,0 UV-I 0 W/m 1,5 C 1,3 C 24,1 km/h (4 Bft) 95,74 %
05.03.2019 18:28 7,6 C 6,7 C 6,7 C 65 % 1011,1 hPa 0,0 l/m 20,4 km/h (4 Bft) W-SW 244 0 min 0,000 mm 0,0 UV-I 0 W/m 1,5 C 0,0 C 33,8 km/h (5 Bft) 97,87 %
05.03.2019 18:30 7,6 C 6,7 C 6,7 C 64 % 1011,1 hPa 0,0 l/m 22,8 km/h (4 Bft) SW 233 0 min 0,000 mm 0,0 UV-I 0 W/m 1,2 C -0,8 C 30,6 km/h (5 Bft) 95,74 %
05.03.2019 18:32 7,7 C 6,7 C 7,2 C 63 % 1011,1 hPa 0,0 l/m 17,6 km/h (3 Bft) W-SW 254 0 min 0,000 mm 0,0 UV-I 0 W/m 1,1 C 1,2 C 22,5 km/h (4 Bft) 96,00 %
05.03.2019 18:34 7,7 C 6,7 C 7,2 C 64 % 1011,2 hPa 0,0 l/m 18,4 km/h (3 Bft) SW 234 0 min 0,000 mm 0,0 UV-I 0 W/m 1,3 C 0,9 C 29,0 km/h (5 Bft) 94,00 %
05.03.2019 18:36 7,7 C 6,7 C 7,2 C 63 % 1011,3 hPa 0,0 l/m 20,3 km/h (4 Bft) SW 227 0 min 0,000 mm 0,0 UV-I 0 W/m 1,1 C 0,2 C 27,4 km/h (4 Bft) 95,74 %
05.03.2019 18:38 7,7 C 6,7 C 7,2 C 63 % 1011,4 hPa 0,0 l/m 22,1 km/h (4 Bft) SW 234 0 min 0,000 mm 0,0 UV-I 0 W/m 1,1 C -0,4 C 33,8 km/h (5 Bft) 93,62 %
05.03.2019 18:40 7,7 C 6,7 C 7,2 C 64 % 1011,4 hPa 0,0 l/m 24,8 km/h (4 Bft) SW 226 0 min 0,000 mm 0,0 UV-I 0 W/m 1,3 C -1,2 C 41,8 km/h (6 Bft) 95,74 %
05.03.2019 18:42 7,7 C 6,7 C 6,7 C 65 % 1011,4 hPa 0,0 l/m 32,5 km/h (5 Bft) W-SW 248 0 min 0,000 mm 0,0 UV-I 0 W/m 1,5 C -3,1 C 49,9 km/h (6 Bft) 95,74 %
05.03.2019 18:44 7,7 C 6,7 C 6,1 C 65 % 1011,4 hPa 0,0 l/m 28,7 km/h (4 Bft) W 271 0 min 0,000 mm 0,0 UV-I 0 W/m 1,5 C -2,3 C 43,5 km/h (6 Bft) 93,62 %
05.03.2019 18:46 7,6 C 6,7 C 6,1 C 66 % 1011,3 hPa 0,0 l/m 35,5 km/h (5 Bft) W 259 0 min 0,000 mm 0,0 UV-I 0 W/m 1,7 C -3,9 C 49,9 km/h (6 Bft) 97,37 %
05.03.2019 18:48 7,6 C 6,7 C 6,1 C 67 % 1011,5 hPa 0,0 l/m 26,4 km/h (4 Bft) W 278 0 min 0,000 mm 0,0 UV-I 0 W/m 1,9 C -1,8 C 45,1 km/h (6 Bft) 97,87 %
05.03.2019 18:50 7,4 C 6,7 C 6,1 C 67 % 1011,5 hPa 0,0 l/m 30,9 km/h (5 Bft) W-NW 286 0 min 0,000 mm 0,0 UV-I 0 W/m 1,7 C -3,2 C 49,9 km/h (6 Bft) 97,87 %
05.03.2019 18:52 7,3 C 6,7 C 5,6 C 68 % 1011,6 hPa 0,0 l/m 26,7 km/h (4 Bft) W 272 0 min 0,000 mm 0,0 UV-I 0 W/m 1,8 C -2,3 C 45,1 km/h (6 Bft) 97,92 %
05.03.2019 18:54 7,2 C 6,7 C 5,6 C 69 % 1011,6 hPa 0,0 l/m 24,2 km/h (4 Bft) W 279 0 min 0,000 mm 0,0 UV-I 0 W/m 1,9 C -1,7 C 45,1 km/h (6 Bft) 95,74 %
05.03.2019 18:56 7,2 C 6,7 C 5,6 C 70 % 1011,6 hPa 0,0 l/m 25,1 km/h (4 Bft) W 269 0 min 0,000 mm 0,0 UV-I 0 W/m 2,1 C -2,0 C 41,8 km/h (6 Bft) 97,87 %
05.03.2019 18:58 7,1 C 6,7 C 5,6 C 71 % 1011,8 hPa 0,0 l/m 24,7 km/h (4 Bft) SW 232 0 min 0,000 mm 0,0 UV-I 0 W/m 2,2 C -2,0 C 30,6 km/h (5 Bft) 95,74 %
05.03.2019 19:00 7,1 C 6,7 C 5,6 C 71 % 1011,8 hPa 0,0 l/m 26,9 km/h (4 Bft) W-SW 246 0 min 0,102 mm 0,0 UV-I 0 W/m 2,2 C -2,6 C 40,2 km/h (6 Bft) 96,00 %
05.03.2019 19:02 6,9 C 6,7 C 5,6 C 71 % 1011,8 hPa 0,0 l/m 24,4 km/h (4 Bft) W 266 0 min 0,000 mm 0,0 UV-I 0 W/m 2,0 C -2,2 C 37,0 km/h (5 Bft) 97,87 %
05.03.2019 19:04 6,9 C 6,7 C 5,6 C 72 % 1011,9 hPa 0,0 l/m 22,7 km/h (4 Bft) W 267 0 min 0,000 mm 0,0 UV-I 0 W/m 2,2 C -1,7 C 43,5 km/h (6 Bft) 100,00 %
05.03.2019 19:06 6,8 C 6,7 C 5,6 C 73 % 1011,9 hPa 0,0 l/m 20,2 km/h (4 Bft) W 273 0 min 0,000 mm 0,0 UV-I 0 W/m 2,3 C -0,9 C 32,2 km/h (5 Bft) 100,00 %
05.03.2019 19:08 6,8 C 6,7 C 5,0 C 74 % 1011,9 hPa 0,0 l/m 22,3 km/h (4 Bft) W 275 0 min 0,000 mm 0,0 UV-I 0 W/m 2,5 C -1,7 C 30,6 km/h (5 Bft) 100,00 %
05.03.2019 19:10 6,7 C 6,7 C 5,0 C 74 % 1011,9 hPa 0,0 l/m 17,8 km/h (3 Bft) SW 234 0 min 0,000 mm 0,0 UV-I 0 W/m 2,4 C -0,1 C 25,7 km/h (4 Bft) 100,00 %
05.03.2019 19:12 6,6 C 6,7 C 5,0 C 75 % 1012,0 hPa 0,0 l/m 27,4 km/h (4 Bft) W-SW 253 0 min 0,000 mm 0,0 UV-I 0 W/m 2,5 C -3,5 C 46,7 km/h (6 Bft) 97,37 %
05.03.2019 19:14 6,6 C 6,7 C 5,0 C 75 % 1012,0 hPa 0,0 l/m 25,4 km/h (4 Bft) W-SW 258 0 min 0,000 mm 0,0 UV-I 0 W/m 2,5 C -2,9 C 48,3 km/h (6 Bft) 97,87 %
05.03.2019 19:16 6,6 C 6,7 C 5,0 C 76 % 1012,1 hPa 0,0 l/m 28,6 km/h (4 Bft) W-SW 256 0 min 0,000 mm 0,0 UV-I 0 W/m 2,7 C -3,8 C 49,9 km/h (6 Bft) 98,00 %
05.03.2019 19:18 6,5 C 6,7 C 5,0 C 76 % 1012,2 hPa 0,2 l/m 24,7 km/h (4 Bft) W-SW 254 0 min 0,000 mm 0,0 UV-I 0 W/m 2,6 C -2,8 C 41,8 km/h (6 Bft) 100,00 %
05.03.2019 19:20 6,4 C 6,7 C 5,0 C 76 % 1012,0 hPa 0,0 l/m 26,7 km/h (4 Bft) W-SW 248 0 min 0,000 mm 0,0 UV-I 0 W/m 2,5 C -3,5 C 38,6 km/h (5 Bft) 100,00 %
05.03.2019 19:23 6,3 C 6,7 C 4,4 C 77 % 1012,1 hPa 0,0 l/m 23,8 km/h (4 Bft) SW 228 0 min 0,000 mm 0,0 UV-I 0 W/m 2,6 C -2,8 C 41,8 km/h (6 Bft) 98,65 %
05.03.2019 19:24 6,3 C 6,7 C 4,4 C 77 % 1012,1 hPa 0,0 l/m 26,7 km/h (4 Bft) W 267 0 min 0,000 mm 0,0 UV-I 0 W/m 2,6 C -3,7 C 38,6 km/h (5 Bft) 95,65 %
05.03.2019 19:26 6,3 C 6,7 C 4,4 C 77 % 1012,2 hPa 0,0 l/m 23,6 km/h (4 Bft) W 269 0 min 0,000 mm 0,0 UV-I 0 W/m 2,6 C -2,7 C 33,8 km/h (5 Bft) 100,00 %
05.03.2019 19:28 6,3 C 6,7 C 4,4 C 77 % 1012,2 hPa 0,0 l/m 25,0 km/h (4 Bft) W 270 0 min 0,000 mm 0,0 UV-I 0 W/m 2,6 C -3,2 C 41,8 km/h (6 Bft) 97,87 %
05.03.2019 19:30 6,3 C 6,7 C 4,4 C 78 % 1012,3 hPa 0,0 l/m 16,2 km/h (3 Bft) W 261 0 min 0,000 mm 0,0 UV-I 0 W/m 2,8 C 0,1 C 27,4 km/h (4 Bft) 100,00 %
05.03.2019 19:32 6,2 C 6,7 C 4,4 C 79 % 1012,3 hPa 0,0 l/m 18,0 km/h (3 Bft) W 263 0 min 0,000 mm 0,0 UV-I 0 W/m 2,8 C -0,8 C 22,5 km/h (4 Bft) 100,00 %
05.03.2019 19:34 6,2 C 6,7 C 4,4 C 79 % 1012,4 hPa 0,0 l/m 18,3 km/h (3 Bft) W 277 0 min 0,000 mm 0,0 UV-I 0 W/m 2,8 C -1,0 C 30,6 km/h (5 Bft) 100,00 %
05.03.2019 19:36 6,1 C 6,7 C 4,4 C 80 % 1012,4 hPa 0,0 l/m 26,1 km/h (4 Bft) W 261 0 min 0,000 mm 0,0 UV-I 0 W/m 2,9 C -3,8 C 35,4 km/h (5 Bft) 100,00 %
05.03.2019 19:38 6,1 C 6,7 C 4,4 C 80 % 1012,5 hPa 0,2 l/m 22,7 km/h (4 Bft) W 268 0 min 0,000 mm 0,0 UV-I 0 W/m 2,9 C -2,7 C 37,0 km/h (5 Bft) 96,00 %
05.03.2019 19:40 6,1 C 6,7 C 4,4 C 81 % 1012,5 hPa 0,0 l/m 22,2 km/h (4 Bft) W 265 0 min 0,000 mm 0,0 UV-I 0 W/m 3,1 C -2,5 C 43,5 km/h (6 Bft) 97,37 %
05.03.2019 19:42 5,9 C 6,7 C 4,4 C 81 % 1012,5 hPa 0,0 l/m 27,2 km/h (4 Bft) W 273 0 min 0,000 mm 0,0 UV-I 0 W/m 2,9 C -4,4 C 37,0 km/h (5 Bft) 100,00 %
05.03.2019 19:44 5,8 C 6,7 C 4,4 C 81 % 1012,5 hPa 0,2 l/m 24,8 km/h (4 Bft) W 271 0 min 0,000 mm 0,0 UV-I 0 W/m 2,8 C -3,8 C 38,6 km/h (5 Bft) 98,00 %
05.03.2019 19:46 5,7 C 6,7 C 4,4 C 83 % 1012,6 hPa 0,0 l/m 21,1 km/h (4 Bft) W-SW 237 0 min 0,000 mm 0,0 UV-I 0 W/m 3,0 C -2,7 C 33,8 km/h (5 Bft) 95,74 %
05.03.2019 19:48 5,7 C 6,7 C 4,4 C 83 % 1012,5 hPa 0,0 l/m 21,3 km/h (4 Bft) W-SW 239 0 min 0,000 mm 0,0 UV-I 0 W/m 3,0 C -2,8 C 30,6 km/h (5 Bft) 100,00 %
05.03.2019 19:50 5,6 C 6,7 C 4,4 C 84 % 1012,5 hPa 0,0 l/m 16,6 km/h (3 Bft) W-SW 250 0 min 0,000 mm 0,0 UV-I 0 W/m 3,1 C -1,0 C 24,1 km/h (4 Bft) 95,74 %
05.03.2019 19:52 5,6 C 6,7 C 4,4 C 84 % 1012,5 hPa 0,0 l/m 19,1 km/h (3 Bft) W-SW 243 0 min 0,000 mm 0,0 UV-I 0 W/m 3,1 C -2,0 C 30,6 km/h (5 Bft) 97,87 %
05.03.2019 19:54 5,6 C 6,7 C 4,4 C 84 % 1012,5 hPa 0,2 l/m 17,9 km/h (3 Bft) W 264 0 min 0,000 mm 0,0 UV-I 0 W/m 3,1 C -1,5 C 27,4 km/h (4 Bft) 97,87 %
05.03.2019 19:56 5,5 C 6,7 C 4,4 C 84 % 1012,5 hPa 0,0 l/m 19,9 km/h (4 Bft) W-SW 250 0 min 0,000 mm 0,0 UV-I 0 W/m 3,0 C -2,5 C 29,0 km/h (5 Bft) 93,62 %
05.03.2019 19:58 5,5 C 6,7 C 4,4 C 85 % 1012,6 hPa 0,0 l/m 16,3 km/h (3 Bft) SW 232 0 min 0,000 mm 0,0 UV-I 0 W/m 3,2 C -0,9 C 32,2 km/h (5 Bft) 97,87 %
05.03.2019 20:00 5,5 C 6,7 C 4,4 C 85 % 1012,6 hPa 0,2 l/m 23,6 km/h (4 Bft) W 263 0 min 0,000 mm 0,0 UV-I 0 W/m 3,2 C -3,8 C 46,7 km/h (6 Bft) 97,87 %
05.03.2019 20:02 5,5 C 6,7 C 4,4 C 85 % 1012,6 hPa 0,0 l/m 21,8 km/h (4 Bft) SW 232 0 min 0,050 mm 0,0 UV-I 0 W/m 3,2 C -3,2 C 33,8 km/h (5 Bft) 97,87 %
05.03.2019 20:04 5,5 C 6,7 C 4,4 C 85 % 1012,6 hPa 0,0 l/m 20,4 km/h (4 Bft) W-SW 250 0 min 0,000 mm 0,0 UV-I 0 W/m 3,2 C -2,7 C 29,0 km/h (5 Bft) 97,87 %
05.03.2019 20:06 5,5 C 6,7 C 4,4 C 85 % 1012,7 hPa 0,0 l/m 18,2 km/h (3 Bft) W-SW 254 0 min 0,000 mm 0,0 UV-I 0 W/m 3,2 C -1,8 C 25,7 km/h (4 Bft) 97,92 %
05.03.2019 20:08 5,4 C 6,7 C 4,4 C 85 % 1012,6 hPa 0,0 l/m 22,9 km/h (4 Bft) SW 214 0 min 0,000 mm 0,0 UV-I 0 W/m 3,1 C -3,7 C 37,0 km/h (5 Bft) 97,87 %
05.03.2019 20:10 5,4 C 6,7 C 4,4 C 85 % 1012,7 hPa 0,0 l/m 25,0 km/h (4 Bft) W-SW 253 0 min 0,000 mm 0,0 UV-I 0 W/m 3,1 C -4,4 C 35,4 km/h (5 Bft) 100,00 %
05.03.2019 20:12 5,4 C 6,7 C 4,4 C 85 % 1012,8 hPa 0,2 l/m 18,7 km/h (3 Bft) W 259 0 min 0,000 mm 0,0 UV-I 0 W/m 3,1 C -2,1 C 30,6 km/h (5 Bft) 95,74 %
05.03.2019 20:14 5,4 C 6,7 C 4,4 C 86 % 1012,8 hPa 0,0 l/m 20,1 km/h (4 Bft) W-SW 254 0 min 0,000 mm 0,0 UV-I 0 W/m 3,3 C -2,7 C 27,4 km/h (4 Bft) 98,00 %
05.03.2019 20:16 5,4 C 6,7 C 4,4 C 86 % 1012,9 hPa 0,2 l/m 21,7 km/h (4 Bft) W-SW 246 0 min 0,000 mm 0,0 UV-I 0 W/m 3,3 C -3,3 C 32,2 km/h (5 Bft) 100,00 %
05.03.2019 20:18 5,4 C 6,7 C 4,4 C 86 % 1012,9 hPa 0,0 l/m 21,4 km/h (4 Bft) SW 227 0 min 0,000 mm 0,0 UV-I 0 W/m 3,3 C -3,2 C 33,8 km/h (5 Bft) 100,00 %
05.03.2019 20:20 5,4 C 6,7 C 4,4 C 86 % 1012,9 hPa 0,0 l/m 23,2 km/h (4 Bft) W-SW 250 0 min 0,000 mm 0,0 UV-I 0 W/m 3,3 C -3,8 C 30,6 km/h (5 Bft) 100,00 %
05.03.2019 20:22 5,3 C 6,7 C 4,4 C 86 % 1013,0 hPa 0,0 l/m 20,3 km/h (4 Bft) W-SW 243 0 min 0,000 mm 0,0 UV-I 0 W/m 3,2 C -2,9 C 27,4 km/h (4 Bft) 97,73 %
05.03.2019 20:24 5,3 C 6,7 C 4,4 C 86 % 1012,9 hPa 0,0 l/m 22,7 km/h (4 Bft) W-SW 238 0 min 0,000 mm 0,0 UV-I 0 W/m 3,2 C -3,8 C 32,2 km/h (5 Bft) 100,00 %
05.03.2019 20:26 5,3 C 6,7 C 4,4 C 87 % 1013,0 hPa 0,0 l/m 19,6 km/h (3 Bft) W-SW 255 0 min 0,000 mm 0,0 UV-I 0 W/m 3,3 C -2,6 C 32,2 km/h (5 Bft) 100,00 %
05.03.2019 20:29 5,2 C 6,7 C 4,4 C 87 % 1013,1 hPa 0,0 l/m 21,2 km/h (4 Bft) SW 236 0 min 0,000 mm 0,0 UV-I 0 W/m 3,2 C -3,4 C 33,8 km/h (5 Bft) 98,63 %
05.03.2019 20:30 5,2 C 6,7 C 4,4 C 87 % 1013,1 hPa 0,2 l/m 20,3 km/h (4 Bft) SW 232 0 min 0,000 mm 0,0 UV-I 0 W/m 3,2 C -3,0 C 29,0 km/h (5 Bft) 100,00 %
05.03.2019 20:32 5,2 C 6,7 C 4,4 C 88 % 1013,1 hPa 0,0 l/m 22,1 km/h (4 Bft) W-SW 257 0 min 0,000 mm 0,0 UV-I 0 W/m 3,4 C -3,7 C 33,8 km/h (5 Bft) 100,00 %
05.03.2019 20:34 5,2 C 6,7 C 4,4 C 88 % 1013,1 hPa 0,0 l/m 19,7 km/h (3 Bft) SW 227 0 min 0,000 mm 0,0 UV-I 0 W/m 3,4 C -2,8 C 29,0 km/h (5 Bft) 91,49 %
05.03.2019 20:36 5,1 C 6,7 C 4,4 C 88 % 1013,1 hPa 0,2 l/m 19,3 km/h (3 Bft) SW 223 0 min 0,000 mm 0,0 UV-I 0 W/m 3,3 C -2,8 C 29,0 km/h (5 Bft) 94,64 %
05.03.2019 20:38 5,1 C 6,7 C 4,4 C 88 % 1013,2 hPa 0,0 l/m 22,2 km/h (4 Bft) SW 234 0 min 0,000 mm 0,0 UV-I 0 W/m 3,3 C -3,9 C 37,0 km/h (5 Bft) 95,74 %
05.03.2019 20:41 4,9 C 6,7 C 3,9 C 88 % 1013,2 hPa 0,0 l/m 20,6 km/h (4 Bft) W-SW 240 0 min 0,000 mm 0,0 UV-I 0 W/m 3,1 C -3,5 C 32,2 km/h (5 Bft) 95,77 %
05.03.2019 20:42 4,9 C 6,7 C 3,9 C 88 % 1013,2 hPa 0,0 l/m 18,7 km/h (3 Bft) SW 229 0 min 0,000 mm 0,0 UV-I 0 W/m 3,1 C -2,8 C 27,4 km/h (4 Bft) 86,96 %
05.03.2019 20:44 4,9 C 6,7 C 3,9 C 88 % 1013,5 hPa 0,0 l/m 22,0 km/h (4 Bft) W-SW 254 0 min 0,000 mm 0,0 UV-I 0 W/m 3,1 C -4,1 C 35,4 km/h (5 Bft) 95,74 %
05.03.2019 20:46 4,8 C 6,7 C 3,9 C 89 % 1013,7 hPa 0,0 l/m 19,1 km/h (3 Bft) W-SW 250 0 min 0,000 mm 0,0 UV-I 0 W/m 3,1 C -3,1 C 33,8 km/h (5 Bft) 95,74 %
05.03.2019 20:48 4,8 C 6,7 C 3,9 C 89 % 1013,9 hPa 0,0 l/m 22,8 km/h (4 Bft) W-SW 239 0 min 0,000 mm 0,0 UV-I 0 W/m 3,1 C -4,5 C 32,2 km/h (5 Bft) 94,87 %
05.03.2019 20:50 4,8 C 6,7 C 3,9 C 89 % 1014,0 hPa 0,2 l/m 17,2 km/h (3 Bft) W-SW 256 0 min 0,000 mm 0,0 UV-I 0 W/m 3,1 C -2,2 C 29,0 km/h (5 Bft) 93,62 %
05.03.2019 20:52 4,7 C 6,7 C 3,9 C 89 % 1013,9 hPa 0,2 l/m 13,1 km/h (3 Bft) W 266 0 min 0,000 mm 0,0 UV-I 0 W/m 3,0 C -0,2 C 16,1 km/h (3 Bft) 96,00 %
05.03.2019 20:54 4,7 C 6,7 C 3,9 C 90 % 1014,0 hPa 0,0 l/m 19,3 km/h (3 Bft) W-NW 287 0 min 0,000 mm 0,0 UV-I 0 W/m 3,2 C -3,3 C 29,0 km/h (5 Bft) 96,00 %
05.03.2019 20:56 4,6 C 6,7 C 3,9 C 90 % 1014,1 hPa 0,4 l/m 21,4 km/h (4 Bft) W-NW 286 0 min 0,000 mm 0,0 UV-I 0 W/m 3,1 C -4,2 C 30,6 km/h (5 Bft) 97,87 %
05.03.2019 20:58 4,5 C 6,7 C 3,9 C 90 % 1014,1 hPa 0,0 l/m 14,6 km/h (3 Bft) W 276 0 min 0,000 mm 0,0 UV-I 0 W/m 3,0 C -1,3 C 20,9 km/h (4 Bft) 89,36 %
05.03.2019 21:00 4,4 C 6,7 C 3,9 C 91 % 1014,2 hPa 0,0 l/m 21,5 km/h (4 Bft) W-SW 257 0 min 0,000 mm 0,0 UV-I 0 W/m 3,1 C -4,5 C 35,4 km/h (5 Bft) 100,00 %
05.03.2019 21:02 4,4 C 6,7 C 3,9 C 91 % 1014,2 hPa 0,0 l/m 20,7 km/h (4 Bft) W-SW 240 0 min 0,026 mm 0,0 UV-I 0 W/m 3,1 C -4,2 C 30,6 km/h (5 Bft) 93,62 %
05.03.2019 21:04 4,3 C 6,7 C 3,9 C 91 % 1014,3 hPa 0,2 l/m 19,7 km/h (3 Bft) W 262 0 min 0,000 mm 0,0 UV-I 0 W/m 3,0 C -4,0 C 29,0 km/h (5 Bft) 92,00 %
05.03.2019 21:06 4,2 C 6,7 C 3,9 C 91 % 1014,2 hPa 0,0 l/m 18,7 km/h (3 Bft) W-SW 239 0 min 0,000 mm 0,0 UV-I 0 W/m 2,9 C -3,7 C 32,2 km/h (5 Bft) 91,49 %
05.03.2019 21:09 4,2 C 6,7 C 3,9 C 91 % 1014,2 hPa 0,2 l/m 15,0 km/h (3 Bft) W 273 0 min 0,000 mm 0,0 UV-I 0 W/m 2,9 C -1,9 C 22,5 km/h (4 Bft) 93,24 %
05.03.2019 21:10 4,2 C 6,7 C 3,9 C 91 % 1014,2 hPa 0,0 l/m 14,1 km/h (3 Bft) W-SW 241 0 min 0,000 mm 0,0 UV-I 0 W/m 2,9 C -1,4 C 20,9 km/h (4 Bft) 92,31 %
05.03.2019 21:12 4,1 C 6,7 C 3,3 C 91 % 1014,2 hPa 0,0 l/m 17,7 km/h (3 Bft) W 270 0 min 0,000 mm 0,0 UV-I 0 W/m 2,8 C -3,3 C 24,1 km/h (4 Bft) 93,62 %
05.03.2019 21:14 4,0 C 6,7 C 3,3 C 91 % 1014,2 hPa 0,0 l/m 17,3 km/h (3 Bft) W-SW 252 0 min 0,000 mm 0,0 UV-I 0 W/m 2,7 C -3,3 C 27,4 km/h (4 Bft) 93,62 %
05.03.2019 21:16 3,9 C 6,7 C 3,3 C 91 % 1014,0 hPa 0,2 l/m 20,2 km/h (4 Bft) SW 222 0 min 0,000 mm 0,0 UV-I 0 W/m 2,6 C -4,7 C 30,6 km/h (5 Bft) 95,74 %
05.03.2019 21:18 3,9 C 6,7 C 3,3 C 91 % 1014,0 hPa 0,0 l/m 18,3 km/h (3 Bft) S-SW 213 0 min 0,000 mm 0,0 UV-I 0 W/m 2,6 C -3,9 C 29,0 km/h (5 Bft) 94,74 %
05.03.2019 21:21 3,8 C 6,7 C 3,3 C 91 % 1014,0 hPa 0,0 l/m 17,5 km/h (3 Bft) SW 231 0 min 0,000 mm 0,0 UV-I 0 W/m 2,5 C -3,6 C 29,0 km/h (5 Bft) 92,96 %
05.03.2019 21:22 3,8 C 6,7 C 3,3 C 91 % 1014,0 hPa 0,0 l/m 15,4 km/h (3 Bft) S-SW 201 0 min 0,000 mm 0,0 UV-I 0 W/m 2,5 C -2,6 C 22,5 km/h (4 Bft) 95,65 %
05.03.2019 21:24 3,9 C 6,7 C 3,3 C 91 % 1014,1 hPa 0,2 l/m 17,1 km/h (3 Bft) W-SW 244 0 min 0,000 mm 0,0 UV-I 0 W/m 2,6 C -3,3 C 25,7 km/h (4 Bft) 89,58 %
05.03.2019 21:26 3,9 C 6,7 C 3,3 C 91 % 1014,1 hPa 0,0 l/m 16,3 km/h (3 Bft) SW 221 0 min 0,000 mm 0,0 UV-I 0 W/m 2,6 C -2,9 C 25,7 km/h (4 Bft) 93,62 %
05.03.2019 21:29 4,0 C 6,7 C 3,3 C 91 % 1014,2 hPa 0,2 l/m 17,1 km/h (3 Bft) SW 232 0 min 0,000 mm 0,0 UV-I 0 W/m 2,7 C -3,2 C 25,7 km/h (4 Bft) 95,71 %
05.03.2019 21:30 4,0 C 6,7 C 3,3 C 91 % 1014,2 hPa 0,2 l/m 16,5 km/h (3 Bft) W 259 0 min 0,000 mm 0,0 UV-I 0 W/m 2,7 C -2,9 C 20,9 km/h (4 Bft) 91,67 %
05.03.2019 21:32 4,1 C 6,7 C 3,3 C 91 % 1014,4 hPa 0,0 l/m 14,3 km/h (3 Bft) SW 236 0 min 0,000 mm 0,0 UV-I 0 W/m 2,8 C -1,6 C 20,9 km/h (4 Bft) 98,00 %
05.03.2019 21:34 4,1 C 6,7 C 3,3 C 92 % 1014,3 hPa 0,0 l/m 18,4 km/h (3 Bft) S-SW 195 0 min 0,000 mm 0,0 UV-I 0 W/m 2,9 C -3,7 C 30,6 km/h (5 Bft) 98,00 %
05.03.2019 21:36 4,1 C 6,7 C 3,3 C 92 % 1014,2 hPa 0,0 l/m 16,5 km/h (3 Bft) W 275 0 min 0,000 mm 0,0 UV-I 0 W/m 2,9 C -2,8 C 22,5 km/h (4 Bft) 97,87 %
05.03.2019 21:38 4,1 C 6,7 C 3,3 C 92 % 1014,4 hPa 0,0 l/m 17,5 km/h (3 Bft) SW 229 0 min 0,000 mm 0,0 UV-I 0 W/m 2,9 C -3,2 C 27,4 km/h (4 Bft) 95,74 %
05.03.2019 21:40 4,1 C 6,7 C 3,3 C 92 % 1014,3 hPa 0,0 l/m 15,4 km/h (3 Bft) S-SW 207 0 min 0,000 mm 0,0 UV-I 0 W/m 2,9 C -2,2 C 22,5 km/h (4 Bft) 97,87 %
05.03.2019 21:42 4,1 C 6,7 C 3,3 C 91 % 1014,3 hPa 0,0 l/m 12,6 km/h (3 Bft) S-SW 198 0 min 0,000 mm 0,0 UV-I 0 W/m 2,8 C -0,7 C 22,5 km/h (4 Bft) 95,74 %
05.03.2019 21:44 4,1 C 6,7 C 3,3 C 91 % 1014,3 hPa 0,0 l/m 12,7 km/h (3 Bft) SW 214 0 min 0,000 mm 0,0 UV-I 0 W/m 2,8 C -0,7 C 20,9 km/h (4 Bft) 100,00 %
05.03.2019 21:46 4,1 C 6,7 C 3,3 C 91 % 1014,3 hPa 0,0 l/m 13,0 km/h (3 Bft) S-SW 206 0 min 0,000 mm 0,0 UV-I 0 W/m 2,8 C -0,9 C 20,9 km/h (4 Bft) 100,00 %
05.03.2019 21:48 4,1 C 6,7 C 3,3 C 91 % 1014,3 hPa 0,0 l/m 11,6 km/h (2 Bft) S-SW 206 0 min 0,000 mm 0,0 UV-I 0 W/m 2,8 C -0,0 C 17,7 km/h (3 Bft) 100,00 %
05.03.2019 21:50 4,0 C 6,7 C 3,3 C 91 % 1014,4 hPa 0,0 l/m 12,8 km/h (3 Bft) W-SW 248 0 min 0,000 mm 0,0 UV-I 0 W/m 2,7 C -0,9 C 17,7 km/h (3 Bft) 100,00 %
05.03.2019 21:52 4,0 C 6,7 C 3,3 C 92 % 1014,4 hPa 0,0 l/m 13,6 km/h (3 Bft) SW 236 0 min 0,000 mm 0,0 UV-I 0 W/m 2,8 C -1,4 C 20,9 km/h (4 Bft) 97,87 %
05.03.2019 21:54 4,0 C 6,7 C 3,3 C 91 % 1014,4 hPa 0,0 l/m 13,4 km/h (3 Bft) S-SW 202 0 min 0,000 mm 0,0 UV-I 0 W/m 2,7 C -1,2 C 17,7 km/h (3 Bft) 100,00 %
05.03.2019 21:56 4,0 C 6,7 C 3,3 C 92 % 1014,5 hPa 0,0 l/m 13,4 km/h (3 Bft) S-SW 212 0 min 0,000 mm 0,0 UV-I 0 W/m 2,8 C -1,2 C 22,5 km/h (4 Bft) 98,00 %
05.03.2019 21:58 4,1 C 6,7 C 3,3 C 92 % 1014,6 hPa 0,0 l/m 12,0 km/h (2 Bft) S-SW 205 0 min 0,000 mm 0,0 UV-I 0 W/m 2,9 C -0,3 C 19,3 km/h (3 Bft) 97,87 %
05.03.2019 22:00 4,1 C 6,7 C 3,3 C 92 % 1014,5 hPa 0,0 l/m 10,8 km/h (2 Bft) SW 223 0 min 0,000 mm 0,0 UV-I 0 W/m 2,9 C 0,5 C 17,7 km/h (3 Bft) 100,00 %
05.03.2019 22:02 4,1 C 6,7 C 3,3 C 92 % 1014,6 hPa 0,0 l/m 11,8 km/h (2 Bft) W-SW 248 0 min 0,025 mm 0,0 UV-I 0 W/m 2,9 C -0,2 C 17,7 km/h (3 Bft) 100,00 %
05.03.2019 22:04 4,1 C 6,7 C 3,3 C 92 % 1014,6 hPa 0,0 l/m 11,4 km/h (2 Bft) W-SW 238 0 min 0,000 mm 0,0 UV-I 0 W/m 2,9 C 0,1 C 16,1 km/h (3 Bft) 100,00 %
05.03.2019 22:06 4,1 C 6,7 C 3,3 C 92 % 1014,6 hPa 0,0 l/m 11,7 km/h (2 Bft) W-SW 238 0 min 0,000 mm 0,0 UV-I 0 W/m 2,9 C -0,1 C 20,9 km/h (4 Bft) 97,87 %
05.03.2019 22:08 4,1 C 6,7 C 3,9 C 92 % 1014,7 hPa 0,0 l/m 12,2 km/h (2 Bft) S 187 0 min 0,000 mm 0,0 UV-I 0 W/m 2,9 C -0,4 C 19,3 km/h (3 Bft) 100,00 %
05.03.2019 22:10 4,1 C 6,7 C 3,9 C 92 % 1014,6 hPa 0,0 l/m 12,2 km/h (2 Bft) S-SW 211 0 min 0,000 mm 0,0 UV-I 0 W/m 2,9 C -0,4 C 17,7 km/h (3 Bft) 100,00 %
05.03.2019 22:12 4,1 C 6,7 C 3,9 C 92 % 1014,6 hPa 0,0 l/m 14,7 km/h (3 Bft) S-SW 209 0 min 0,000 mm 0,0 UV-I 0 W/m 2,9 C -1,9 C 25,7 km/h (4 Bft) 100,00 %
05.03.2019 22:14 4,0 C 6,7 C 3,3 C 92 % 1014,7 hPa 0,0 l/m 11,5 km/h (2 Bft) S-SW 213 0 min 0,000 mm 0,0 UV-I 0 W/m 2,8 C -0,1 C 19,3 km/h (3 Bft) 100,00 %
05.03.2019 22:16 4,0 C 6,7 C 3,3 C 92 % 1014,7 hPa 0,0 l/m 12,2 km/h (2 Bft) SW 226 0 min 0,000 mm 0,0 UV-I 0 W/m 2,8 C -0,5 C 19,3 km/h (3 Bft) 100,00 %
05.03.2019 22:18 3,9 C 6,7 C 3,3 C 92 % 1014,8 hPa 0,0 l/m 14,0 km/h (3 Bft) S-SW 196 0 min 0,000 mm 0,0 UV-I 0 W/m 2,7 C -1,7 C 19,3 km/h (3 Bft) 100,00 %
05.03.2019 22:20 3,9 C 6,7 C 3,3 C 92 % 1014,8 hPa 0,0 l/m 12,6 km/h (3 Bft) SW 223 0 min 0,000 mm 0,0 UV-I 0 W/m 2,7 C -0,9 C 17,7 km/h (3 Bft) 100,00 %
05.03.2019 22:22 3,9 C 6,7 C 3,3 C 92 % 1014,8 hPa 0,0 l/m 13,4 km/h (3 Bft) SW 223 0 min 0,000 mm 0,0 UV-I 0 W/m 2,7 C -1,4 C 25,7 km/h (4 Bft) 98,00 %
05.03.2019 22:24 3,9 C 6,7 C 3,3 C 92 % 1014,8 hPa 0,0 l/m 12,2 km/h (2 Bft) S-SW 207 0 min 0,000 mm 0,0 UV-I 0 W/m 2,7 C -0,6 C 19,3 km/h (3 Bft) 100,00 %
05.03.2019 22:26 3,8 C 6,7 C 3,3 C 92 % 1014,8 hPa 0,0 l/m 13,3 km/h (3 Bft) SW 231 0 min 0,000 mm 0,0 UV-I 0 W/m 2,6 C -1,4 C 20,9 km/h (4 Bft) 93,62 %
05.03.2019 22:28 3,8 C 6,7 C 3,3 C 92 % 1014,8 hPa 0,0 l/m 13,7 km/h (3 Bft) SW 234 0 min 0,000 mm 0,0 UV-I 0 W/m 2,6 C -1,7 C 22,5 km/h (4 Bft) 95,74 %
05.03.2019 22:30 3,8 C 6,7 C 3,3 C 92 % 1014,8 hPa 0,0 l/m 13,0 km/h (3 Bft) SW 214 0 min 0,000 mm 0,0 UV-I 0 W/m 2,6 C -1,2 C 20,9 km/h (4 Bft) 93,62 %
05.03.2019 22:32 3,8 C 6,7 C 3,3 C 92 % 1014,8 hPa 0,0 l/m 11,9 km/h (2 Bft) SW 232 0 min 0,000 mm 0,0 UV-I 0 W/m 2,6 C -0,6 C 19,3 km/h (3 Bft) 97,87 %
05.03.2019 22:34 3,8 C 6,7 C 3,3 C 92 % 1014,8 hPa 0,0 l/m 13,3 km/h (3 Bft) SW 229 0 min 0,000 mm 0,0 UV-I 0 W/m 2,6 C -1,4 C 20,9 km/h (4 Bft) 94,00 %
05.03.2019 22:36 3,8 C 6,7 C 3,3 C 92 % 1014,8 hPa 0,0 l/m 14,4 km/h (3 Bft) SW 234 0 min 0,000 mm 0,0 UV-I 0 W/m 2,6 C -2,1 C 20,9 km/h (4 Bft) 97,87 %
05.03.2019 22:38 3,8 C 6,7 C 3,3 C 92 % 1014,8 hPa 0,2 l/m 15,7 km/h (3 Bft) W-SW 257 0 min 0,000 mm 0,0 UV-I 0 W/m 2,6 C -2,7 C 22,5 km/h (4 Bft) 98,00 %
05.03.2019 22:40 3,8 C 6,7 C 3,3 C 92 % 1014,8 hPa 0,0 l/m 15,8 km/h (3 Bft) SW 223 0 min 0,000 mm 0,0 UV-I 0 W/m 2,6 C -2,8 C 20,9 km/h (4 Bft) 97,44 %
05.03.2019 22:42 3,8 C 6,7 C 3,3 C 92 % 1014,8 hPa 0,0 l/m 16,5 km/h (3 Bft) S-SW 210 0 min 0,000 mm 0,0 UV-I 0 W/m 2,6 C -3,1 C 25,7 km/h (4 Bft) 97,87 %
05.03.2019 22:44 3,8 C 6,7 C 3,3 C 92 % 1014,8 hPa 0,0 l/m 15,0 km/h (3 Bft) SW 224 0 min 0,000 mm 0,0 UV-I 0 W/m 2,6 C -2,4 C 27,4 km/h (4 Bft) 100,00 %
05.03.2019 22:46 3,8 C 6,7 C 3,3 C 92 % 1014,8 hPa 0,0 l/m 15,3 km/h (3 Bft) SW 219 0 min 0,000 mm 0,0 UV-I 0 W/m 2,6 C -2,5 C 22,5 km/h (4 Bft) 96,23 %
05.03.2019 22:48 3,8 C 6,7 C 3,3 C 92 % 1014,8 hPa 0,0 l/m 14,0 km/h (3 Bft) SW 227 0 min 0,000 mm 0,0 UV-I 0 W/m 2,6 C -1,8 C 20,9 km/h (4 Bft) 97,87 %
05.03.2019 22:50 3,8 C 6,7 C 3,3 C 92 % 1014,8 hPa 0,0 l/m 12,9 km/h (3 Bft) SW 229 0 min 0,000 mm 0,0 UV-I 0 W/m 2,6 C -1,2 C 22,5 km/h (4 Bft) 93,62 %
05.03.2019 22:52 3,8 C 6,7 C 3,3 C 92 % 1014,7 hPa 0,0 l/m 12,4 km/h (3 Bft) S-SW 208 0 min 0,000 mm 0,0 UV-I 0 W/m 2,6 C -0,9 C 17,7 km/h (3 Bft) 97,37 %
05.03.2019 22:54 3,8 C 6,7 C 3,3 C 92 % 1014,7 hPa 0,0 l/m 11,9 km/h (2 Bft) SW 217 0 min 0,000 mm 0,0 UV-I 0 W/m 2,6 C -0,6 C 19,3 km/h (3 Bft) 98,00 %
05.03.2019 22:56 3,8 C 6,7 C 3,3 C 92 % 1014,8 hPa 0,0 l/m 13,1 km/h (3 Bft) SW 225 0 min 0,000 mm 0,0 UV-I 0 W/m 2,6 C -1,3 C 20,9 km/h (4 Bft) 96,23 %
05.03.2019 22:58 3,9 C 6,7 C 3,3 C 92 % 1014,8 hPa 0,0 l/m 12,4 km/h (3 Bft) S-SW 211 0 min 0,000 mm 0,0 UV-I 0 W/m 2,7 C -0,8 C 19,3 km/h (3 Bft) 95,74 %
05.03.2019 23:00 3,9 C 6,7 C 3,3 C 92 % 1014,7 hPa 0,0 l/m 13,0 km/h (3 Bft) W-SW 250 0 min 0,000 mm 0,0 UV-I 0 W/m 2,7 C -1,1 C 20,9 km/h (4 Bft) 95,74 %
05.03.2019 23:02 3,9 C 6,7 C 3,3 C 93 % 1014,7 hPa 0,0 l/m 14,6 km/h (3 Bft) S-SW 198 0 min 0,000 mm 0,0 UV-I 0 W/m 2,9 C -2,0 C 25,7 km/h (4 Bft) 97,37 %
05.03.2019 23:04 3,9 C 6,7 C 3,3 C 93 % 1014,7 hPa 0,0 l/m 12,2 km/h (2 Bft) S-SW 196 0 min 0,000 mm 0,0 UV-I 0 W/m 2,9 C -0,6 C 17,7 km/h (3 Bft) 95,74 %
05.03.2019 23:06 3,9 C 6,7 C 3,3 C 92 % 1014,9 hPa 0,0 l/m 13,2 km/h (3 Bft) S-SW 209 0 min 0,000 mm 0,0 UV-I 0 W/m 2,7 C -1,2 C 19,3 km/h (3 Bft) 98,00 %
05.03.2019 23:08 3,9 C 6,7 C 3,3 C 93 % 1014,8 hPa 0,0 l/m 17,2 km/h (3 Bft) W-SW 252 0 min 0,000 mm 0,0 UV-I 0 W/m 2,9 C -3,4 C 22,5 km/h (4 Bft) 93,62 %
05.03.2019 23:10 4,0 C 6,7 C 3,3 C 93 % 1014,9 hPa 0,0 l/m 16,8 km/h (3 Bft) S-SW 205 0 min 0,000 mm 0,0 UV-I 0 W/m 3,0 C -3,0 C 25,7 km/h (4 Bft) 95,74 %
05.03.2019 23:12 4,0 C 6,7 C 3,9 C 93 % 1014,9 hPa 0,0 l/m 12,2 km/h (2 Bft) S-SW 198 0 min 0,000 mm 0,0 UV-I 0 W/m 3,0 C -0,5 C 20,9 km/h (4 Bft) 98,00 %
05.03.2019 23:14 4,1 C 6,7 C 3,9 C 93 % 1015,0 hPa 0,0 l/m 11,8 km/h (2 Bft) SW 219 0 min 0,000 mm 0,0 UV-I 0 W/m 3,1 C -0,2 C 17,7 km/h (3 Bft) 97,87 %
05.03.2019 23:16 4,1 C 6,7 C 3,9 C 93 % 1015,0 hPa 0,0 l/m 15,2 km/h (3 Bft) W-SW 243 0 min 0,000 mm 0,0 UV-I 0 W/m 3,1 C -2,1 C 24,1 km/h (4 Bft) 97,44 %
05.03.2019 23:18 4,1 C 6,7 C 3,9 C 93 % 1015,0 hPa 0,0 l/m 13,8 km/h (3 Bft) SW 223 0 min 0,000 mm 0,0 UV-I 0 W/m 3,1 C -1,4 C 20,9 km/h (4 Bft) 97,87 %
05.03.2019 23:20 4,1 C 6,7 C 3,9 C 92 % 1015,0 hPa 0,0 l/m 15,2 km/h (3 Bft) W-SW 252 0 min 0,000 mm 0,0 UV-I 0 W/m 2,9 C -2,1 C 19,3 km/h (3 Bft) 95,74 %
05.03.2019 23:22 4,1 C 6,7 C 3,9 C 92 % 1015,0 hPa 0,0 l/m 14,0 km/h (3 Bft) W-SW 241 0 min 0,000 mm 0,0 UV-I 0 W/m 2,9 C -1,5 C 24,1 km/h (4 Bft) 97,87 %
05.03.2019 23:24 4,2 C 6,7 C 3,9 C 92 % 1015,0 hPa 0,0 l/m 13,6 km/h (3 Bft) W-SW 241 0 min 0,000 mm 0,0 UV-I 0 W/m 3,0 C -1,1 C 20,9 km/h (4 Bft) 97,87 %
05.03.2019 23:26 4,2 C 6,7 C 3,9 C 92 % 1015,0 hPa 0,0 l/m 14,3 km/h (3 Bft) SW 232 0 min 0,000 mm 0,0 UV-I 0 W/m 3,0 C -1,5 C 24,1 km/h (4 Bft) 100,00 %
05.03.2019 23:28 4,2 C 6,7 C 3,9 C 92 % 1015,0 hPa 0,0 l/m 11,1 km/h (2 Bft) SW 219 0 min 0,000 mm 0,0 UV-I 0 W/m 3,0 C 0,4 C 19,3 km/h (3 Bft) 100,00 %
05.03.2019 23:30 4,2 C 6,7 C 3,9 C 92 % 1015,0 hPa 0,0 l/m 15,5 km/h (3 Bft) W-SW 238 0 min 0,000 mm 0,0 UV-I 0 W/m 3,0 C -2,2 C 25,7 km/h (4 Bft) 97,87 %
05.03.2019 23:32 4,2 C 6,7 C 3,9 C 92 % 1015,1 hPa 0,0 l/m 13,1 km/h (3 Bft) S-SW 209 0 min 0,000 mm 0,0 UV-I 0 W/m 3,0 C -0,8 C 20,9 km/h (4 Bft) 95,74 %
05.03.2019 23:34 4,2 C 6,7 C 3,9 C 92 % 1015,0 hPa 0,0 l/m 15,2 km/h (3 Bft) SW 221 0 min 0,000 mm 0,0 UV-I 0 W/m 3,0 C -2,0 C 25,7 km/h (4 Bft) 100,00 %
05.03.2019 23:36 4,2 C 6,7 C 3,9 C 92 % 1015,0 hPa 0,0 l/m 18,1 km/h (3 Bft) S-SW 213 0 min 0,000 mm 0,0 UV-I 0 W/m 3,0 C -3,4 C 30,6 km/h (5 Bft) 100,00 %
05.03.2019 23:39 4,2 C 6,7 C 3,9 C 92 % 1015,1 hPa 0,0 l/m 15,8 km/h (3 Bft) S-SW 200 0 min 0,000 mm 0,0 UV-I 0 W/m 3,0 C -2,3 C 27,4 km/h (4 Bft) 98,65 %
05.03.2019 23:40 4,2 C 6,7 C 3,9 C 92 % 1015,1 hPa 0,0 l/m 11,8 km/h (2 Bft) SW 234 0 min 0,000 mm 0,0 UV-I 0 W/m 3,0 C -0,0 C 20,9 km/h (4 Bft) 100,00 %
05.03.2019 23:42 4,2 C 6,7 C 3,9 C 92 % 1015,0 hPa 0,0 l/m 18,5 km/h (3 Bft) SW 231 0 min 0,000 mm 0,0 UV-I 0 W/m 3,0 C -3,6 C 29,0 km/h (5 Bft) 97,87 %
05.03.2019 23:44 4,2 C 6,7 C 3,9 C 92 % 1015,0 hPa 0,0 l/m 15,1 km/h (3 Bft) SW 223 0 min 0,000 mm 0,0 UV-I 0 W/m 3,0 C -1,9 C 24,1 km/h (4 Bft) 97,37 %
05.03.2019 23:46 4,2 C 6,7 C 3,9 C 92 % 1015,0 hPa 0,0 l/m 15,9 km/h (3 Bft) W-SW 242 0 min 0,000 mm 0,0 UV-I 0 W/m 3,0 C -2,4 C 24,1 km/h (4 Bft) 97,87 %
05.03.2019 23:49 4,3 C 6,7 C 3,9 C 92 % 1015,0 hPa 0,0 l/m 17,7 km/h (3 Bft) W-SW 245 0 min 0,000 mm 0,0 UV-I 0 W/m 3,1 C -3,1 C 25,7 km/h (4 Bft) 96,10 %
05.03.2019 23:50 4,3 C 6,7 C 3,9 C 92 % 1015,0 hPa 0,0 l/m 15,2 km/h (3 Bft) W-SW 251 0 min 0,000 mm 0,0 UV-I 0 W/m 3,1 C -1,9 C 22,5 km/h (4 Bft) 96,15 %
05.03.2019 23:52 4,3 C 6,7 C 3,9 C 91 % 1015,0 hPa 0,0 l/m 15,6 km/h (3 Bft) W-SW 244 0 min 0,000 mm 0,0 UV-I 0 W/m 3,0 C -2,1 C 24,1 km/h (4 Bft) 95,74 %
05.03.2019 23:54 4,3 C 6,7 C 3,9 C 91 % 1015,0 hPa 0,0 l/m 15,7 km/h (3 Bft) SW 236 0 min 0,000 mm 0,0 UV-I 0 W/m 3,0 C -2,1 C 22,5 km/h (4 Bft) 95,74 %
05.03.2019 23:56 4,3 C 6,7 C 3,9 C 91 % 1015,0 hPa 0,0 l/m 19,7 km/h (3 Bft) W-SW 243 0 min 0,000 mm 0,0 UV-I 0 W/m 3,0 C -4,0 C 32,2 km/h (5 Bft) 93,62 %
05.03.2019 23:58 4,4 C 6,7 C 3,9 C 91 % 1015,0 hPa 0,0 l/m 19,4 km/h (3 Bft) SW 232 0 min 0,000 mm 0,0 UV-I 0 W/m 3,1 C -3,7 C 32,2 km/h (5 Bft) 94,87 %
_ Min-Zeit 21:21 00:01 02:16 16:14 00:01 - 15:52 - - - - - - 16:14 01:24 13:52 00:02
Minimum _ 3,8 C 6,7 C 2,8 C 41 % 1006,9 hPa - 8,0 km/h (2 Bft) - - - - - - -2,7 C -6,4 C 12,9 km/h (3 Bft) 10,00 %
_ Max-Zeit 14:30 00:01 11:58 23:02 23:32 20:56 17:46 - - 08:20 15:00 11:48 11:38 11:48 15:52 17:46 00:01
Maximum _ 11,1 C 6,7 C 16,1 C 93 % 1015,1 hPa 0,4 l/m 43,2 km/h
W (6 Bft)
- - 2 min 0,204 mm 1,5 UV-I 707 W/m 3,5 C 8,7 C 67,6 km/h
W-SW (8 Bft)
100,00 %
Durchschnitt _ 6,8 C 6,7 C 6,5 C 70 % 1010,4 hPa #4,8 l/m 19,2 km/h (3 Bft) W - #1:30 h #2,108 mm 0,8 UV-I 152 W/m 1,5 C -0,3 C 30,1 km/h (5 Bft) 97,05 %